<?xml version='1.0' encoding='UTF-8'?>
<gpx version="1.1" creator="https://www.komoot.de" xmlns="http://www.topografix.com/GPX/1/1" xmlns:xsi="http://www.w3.org/2001/XMLSchema-instance" xsi:schemaLocation="http://www.topografix.com/GPX/1/1 http://www.topografix.com/GPX/1/1/gpx.xsd">
  <metadata>
    <name>33178 - Rad-Treff Borchen - RTF "Durch das Hochstift PB" - 18.06.22 - 110 km</name>
    <author>
      <link href="https://www.komoot.de">
        <text>komoot</text>
        <type>text/html</type>
      </link>
    </author>
  </metadata>
  <trk>
    <name>33178 - Rad-Treff Borchen - RTF "Durch das Hochstift PB" - 18.06.22 - 110 km</name>
    <trkseg>
      <trkpt lat="51.658865" lon="8.720555">
        <ele>134.996618</ele>
        <time>2022-04-06T18:25:01.925Z</time>
      </trkpt>
      <trkpt lat="51.658911" lon="8.720945">
        <ele>134.996618</ele>
        <time>2022-04-06T18:25:29.079Z</time>
      </trkpt>
      <trkpt lat="51.658934" lon="8.721142">
        <ele>134.996618</ele>
        <time>2022-04-06T18:25:42.822Z</time>
      </trkpt>
      <trkpt lat="51.658934" lon="8.721142">
        <ele>134.996618</ele>
        <time>2022-04-06T18:25:42.851Z</time>
      </trkpt>
      <trkpt lat="51.659098" lon="8.720961">
        <ele>134.996618</ele>
        <time>2022-04-06T18:25:45.701Z</time>
      </trkpt>
      <trkpt lat="51.659155" lon="8.720899">
        <ele>134.996618</ele>
        <time>2022-04-06T18:25:46.661Z</time>
      </trkpt>
      <trkpt lat="51.659359" lon="8.720648">
        <ele>134.996618</ele>
        <time>2022-04-06T18:25:50.270Z</time>
      </trkpt>
      <trkpt lat="51.659643" lon="8.720298">
        <ele>135.106191</ele>
        <time>2022-04-06T18:25:55.352Z</time>
      </trkpt>
      <trkpt lat="51.659772" lon="8.720140">
        <ele>135.156490</ele>
        <time>2022-04-06T18:25:57.979Z</time>
      </trkpt>
      <trkpt lat="51.660373" lon="8.719338">
        <ele>135.398715</ele>
        <time>2022-04-06T18:26:12.201Z</time>
      </trkpt>
      <trkpt lat="51.660670" lon="8.718705">
        <ele>135.551569</ele>
        <time>2022-04-06T18:26:19.953Z</time>
      </trkpt>
      <trkpt lat="51.660894" lon="8.717829">
        <ele>135.530745</ele>
        <time>2022-04-06T18:26:28.065Z</time>
      </trkpt>
      <trkpt lat="51.660925" lon="8.717712">
        <ele>135.527420</ele>
        <time>2022-04-06T18:26:29.127Z</time>
      </trkpt>
      <trkpt lat="51.661015" lon="8.717707">
        <ele>135.523626</ele>
        <time>2022-04-06T18:26:30.347Z</time>
      </trkpt>
      <trkpt lat="51.661070" lon="8.717619">
        <ele>135.520362</ele>
        <time>2022-04-06T18:26:31.535Z</time>
      </trkpt>
      <trkpt lat="51.661161" lon="8.717681">
        <ele>135.516199</ele>
        <time>2022-04-06T18:26:33.372Z</time>
      </trkpt>
      <trkpt lat="51.661825" lon="8.718132">
        <ele>135.485844</ele>
        <time>2022-04-06T18:26:48.251Z</time>
      </trkpt>
      <trkpt lat="51.662245" lon="8.718456">
        <ele>135.516341</ele>
        <time>2022-04-06T18:26:58.014Z</time>
      </trkpt>
      <trkpt lat="51.662601" lon="8.718823">
        <ele>135.566995</ele>
        <time>2022-04-06T18:27:05.911Z</time>
      </trkpt>
      <trkpt lat="51.662794" lon="8.719054">
        <ele>135.595809</ele>
        <time>2022-04-06T18:27:10.449Z</time>
      </trkpt>
      <trkpt lat="51.663047" lon="8.719306">
        <ele>135.631458</ele>
        <time>2022-04-06T18:27:16.535Z</time>
      </trkpt>
      <trkpt lat="51.663193" lon="8.719399">
        <ele>135.650276</ele>
        <time>2022-04-06T18:27:20.094Z</time>
      </trkpt>
      <trkpt lat="51.663236" lon="8.719259">
        <ele>135.661892</ele>
        <time>2022-04-06T18:27:21.730Z</time>
      </trkpt>
      <trkpt lat="51.663333" lon="8.719153">
        <ele>135.675939</ele>
        <time>2022-04-06T18:27:23.682Z</time>
      </trkpt>
      <trkpt lat="51.664657" lon="8.718648">
        <ele>136.487156</ele>
        <time>2022-04-06T18:27:48.104Z</time>
      </trkpt>
      <trkpt lat="51.665085" lon="8.718308">
        <ele>136.801487</ele>
        <time>2022-04-06T18:27:55.875Z</time>
      </trkpt>
      <trkpt lat="51.665470" lon="8.717931">
        <ele>136.875505</ele>
        <time>2022-04-06T18:28:03.497Z</time>
      </trkpt>
      <trkpt lat="51.665642" lon="8.717932">
        <ele>136.873280</ele>
        <time>2022-04-06T18:28:06.734Z</time>
      </trkpt>
      <trkpt lat="51.666061" lon="8.718233">
        <ele>136.867346</ele>
        <time>2022-04-06T18:28:14.304Z</time>
      </trkpt>
      <trkpt lat="51.666739" lon="8.718936">
        <ele>136.856919</ele>
        <time>2022-04-06T18:28:25.555Z</time>
      </trkpt>
      <trkpt lat="51.666942" lon="8.719067">
        <ele>136.538314</ele>
        <time>2022-04-06T18:28:28.250Z</time>
      </trkpt>
      <trkpt lat="51.667039" lon="8.719131">
        <ele>136.361305</ele>
        <time>2022-04-06T18:28:29.407Z</time>
      </trkpt>
      <trkpt lat="51.667305" lon="8.719341">
        <ele>135.861093</ele>
        <time>2022-04-06T18:28:32.704Z</time>
      </trkpt>
      <trkpt lat="51.667633" lon="8.719623">
        <ele>135.233297</ele>
        <time>2022-04-06T18:28:36.757Z</time>
      </trkpt>
      <trkpt lat="51.667828" lon="8.719630">
        <ele>134.903880</ele>
        <time>2022-04-06T18:28:38.933Z</time>
      </trkpt>
      <trkpt lat="51.668276" lon="8.719444">
        <ele>134.122572</ele>
        <time>2022-04-06T18:28:44.090Z</time>
      </trkpt>
      <trkpt lat="51.668351" lon="8.719385">
        <ele>133.981632</ele>
        <time>2022-04-06T18:28:44.994Z</time>
      </trkpt>
      <trkpt lat="51.668611" lon="8.719452">
        <ele>133.539369</ele>
        <time>2022-04-06T18:28:47.851Z</time>
      </trkpt>
      <trkpt lat="51.668808" lon="8.719556">
        <ele>133.192287</ele>
        <time>2022-04-06T18:28:50.110Z</time>
      </trkpt>
      <trkpt lat="51.669174" lon="8.719747">
        <ele>132.548168</ele>
        <time>2022-04-06T18:28:54.338Z</time>
      </trkpt>
      <trkpt lat="51.669509" lon="8.719922">
        <ele>131.958549</ele>
        <time>2022-04-06T18:28:58.261Z</time>
      </trkpt>
      <trkpt lat="51.669739" lon="8.720040">
        <ele>131.554419</ele>
        <time>2022-04-06T18:29:00.995Z</time>
      </trkpt>
      <trkpt lat="51.669885" lon="8.720119">
        <ele>131.296562</ele>
        <time>2022-04-06T18:29:02.868Z</time>
      </trkpt>
      <trkpt lat="51.670247" lon="8.720313">
        <ele>130.723541</ele>
        <time>2022-04-06T18:29:07.534Z</time>
      </trkpt>
      <trkpt lat="51.670284" lon="8.720224">
        <ele>130.661220</ele>
        <time>2022-04-06T18:29:08.329Z</time>
      </trkpt>
      <trkpt lat="51.670389" lon="8.719921">
        <ele>130.459339</ele>
        <time>2022-04-06T18:29:11.008Z</time>
      </trkpt>
      <trkpt lat="51.670500" lon="8.719575">
        <ele>130.232762</ele>
        <time>2022-04-06T18:29:13.899Z</time>
      </trkpt>
      <trkpt lat="51.670583" lon="8.719315">
        <ele>130.062679</ele>
        <time>2022-04-06T18:29:16.103Z</time>
      </trkpt>
      <trkpt lat="51.670659" lon="8.719076">
        <ele>129.906460</ele>
        <time>2022-04-06T18:29:17.990Z</time>
      </trkpt>
      <trkpt lat="51.670937" lon="8.718706">
        <ele>129.568395</ele>
        <time>2022-04-06T18:29:22.133Z</time>
      </trkpt>
      <trkpt lat="51.671442" lon="8.718423">
        <ele>129.205312</ele>
        <time>2022-04-06T18:29:28.861Z</time>
      </trkpt>
      <trkpt lat="51.671497" lon="8.718397">
        <ele>129.290898</ele>
        <time>2022-04-06T18:29:29.736Z</time>
      </trkpt>
      <trkpt lat="51.671696" lon="8.718221">
        <ele>129.629821</ele>
        <time>2022-04-06T18:29:33.740Z</time>
      </trkpt>
      <trkpt lat="51.671754" lon="8.718000">
        <ele>129.852054</ele>
        <time>2022-04-06T18:29:36.405Z</time>
      </trkpt>
      <trkpt lat="51.671762" lon="8.717007">
        <ele>130.771719</ele>
        <time>2022-04-06T18:29:53.379Z</time>
      </trkpt>
      <trkpt lat="51.671843" lon="8.716580">
        <ele>131.185236</ele>
        <time>2022-04-06T18:30:01.803Z</time>
      </trkpt>
      <trkpt lat="51.671942" lon="8.716240">
        <ele>131.533077</ele>
        <time>2022-04-06T18:30:07.599Z</time>
      </trkpt>
      <trkpt lat="51.671972" lon="8.716088">
        <ele>131.680795</ele>
        <time>2022-04-06T18:30:09.964Z</time>
      </trkpt>
      <trkpt lat="51.671993" lon="8.715987">
        <ele>131.779445</ele>
        <time>2022-04-06T18:30:11.477Z</time>
      </trkpt>
      <trkpt lat="51.672140" lon="8.715442">
        <ele>132.555391</ele>
        <time>2022-04-06T18:30:20.080Z</time>
      </trkpt>
      <trkpt lat="51.672227" lon="8.715119">
        <ele>133.021990</ele>
        <time>2022-04-06T18:30:25.704Z</time>
      </trkpt>
      <trkpt lat="51.672634" lon="8.714299">
        <ele>134.413622</ele>
        <time>2022-04-06T18:30:43.120Z</time>
      </trkpt>
      <trkpt lat="51.672832" lon="8.713886">
        <ele>135.105295</ele>
        <time>2022-04-06T18:30:50.848Z</time>
      </trkpt>
      <trkpt lat="51.672969" lon="8.713505">
        <ele>135.647696</ele>
        <time>2022-04-06T18:30:56.045Z</time>
      </trkpt>
      <trkpt lat="51.673455" lon="8.712159">
        <ele>135.575147</ele>
        <time>2022-04-06T18:31:09.796Z</time>
      </trkpt>
      <trkpt lat="51.673873" lon="8.710970">
        <ele>135.507313</ele>
        <time>2022-04-06T18:31:20.956Z</time>
      </trkpt>
      <trkpt lat="51.674472" lon="8.709587">
        <ele>135.298276</ele>
        <time>2022-04-06T18:31:34.945Z</time>
      </trkpt>
      <trkpt lat="51.674520" lon="8.709477">
        <ele>135.281609</ele>
        <time>2022-04-06T18:31:36.009Z</time>
      </trkpt>
      <trkpt lat="51.674686" lon="8.708800">
        <ele>135.191399</ele>
        <time>2022-04-06T18:31:42.751Z</time>
      </trkpt>
      <trkpt lat="51.674766" lon="8.708402">
        <ele>135.177240</ele>
        <time>2022-04-06T18:31:47.152Z</time>
      </trkpt>
      <trkpt lat="51.674960" lon="8.707192">
        <ele>135.410655</ele>
        <time>2022-04-06T18:32:00.269Z</time>
      </trkpt>
      <trkpt lat="51.675318" lon="8.704951">
        <ele>135.764545</ele>
        <time>2022-04-06T18:32:22.627Z</time>
      </trkpt>
      <trkpt lat="51.675625" lon="8.703086">
        <ele>135.932375</ele>
        <time>2022-04-06T18:32:41.342Z</time>
      </trkpt>
      <trkpt lat="51.675834" lon="8.702115">
        <ele>135.195733</ele>
        <time>2022-04-06T18:32:51.005Z</time>
      </trkpt>
      <trkpt lat="51.676088" lon="8.701394">
        <ele>134.454071</ele>
        <time>2022-04-06T18:32:56.918Z</time>
      </trkpt>
      <trkpt lat="51.676332" lon="8.700862">
        <ele>133.862245</ele>
        <time>2022-04-06T18:33:01.401Z</time>
      </trkpt>
      <trkpt lat="51.676397" lon="8.700762">
        <ele>133.732673</ele>
        <time>2022-04-06T18:33:02.379Z</time>
      </trkpt>
      <trkpt lat="51.676941" lon="8.700074">
        <ele>131.939201</ele>
        <time>2022-04-06T18:33:09.478Z</time>
      </trkpt>
      <trkpt lat="51.677241" lon="8.699819">
        <ele>130.820608</ele>
        <time>2022-04-06T18:33:12.857Z</time>
      </trkpt>
      <trkpt lat="51.677837" lon="8.699522">
        <ele>128.762982</ele>
        <time>2022-04-06T18:33:18.968Z</time>
      </trkpt>
      <trkpt lat="51.677848" lon="8.699519">
        <ele>128.726183</ele>
        <time>2022-04-06T18:33:19.056Z</time>
      </trkpt>
      <trkpt lat="51.678341" lon="8.699367">
        <ele>127.355608</ele>
        <time>2022-04-06T18:33:24.029Z</time>
      </trkpt>
      <trkpt lat="51.679151" lon="8.699117">
        <ele>126.844941</ele>
        <time>2022-04-06T18:33:33.922Z</time>
      </trkpt>
      <trkpt lat="51.679907" lon="8.698849">
        <ele>126.365639</ele>
        <time>2022-04-06T18:33:47.120Z</time>
      </trkpt>
      <trkpt lat="51.679968" lon="8.698673">
        <ele>126.362483</ele>
        <time>2022-04-06T18:33:49.761Z</time>
      </trkpt>
      <trkpt lat="51.679989" lon="8.698281">
        <ele>126.786320</ele>
        <time>2022-04-06T18:33:54.183Z</time>
      </trkpt>
      <trkpt lat="51.680087" lon="8.696414">
        <ele>128.804651</ele>
        <time>2022-04-06T18:34:20.555Z</time>
      </trkpt>
      <trkpt lat="51.680433" lon="8.696491">
        <ele>129.411444</ele>
        <time>2022-04-06T18:34:28.722Z</time>
      </trkpt>
      <trkpt lat="51.680547" lon="8.696510">
        <ele>129.627340</ele>
        <time>2022-04-06T18:34:31.251Z</time>
      </trkpt>
      <trkpt lat="51.681156" lon="8.696557">
        <ele>130.786428</ele>
        <time>2022-04-06T18:34:45.293Z</time>
      </trkpt>
      <trkpt lat="51.681470" lon="8.696502">
        <ele>131.386880</ele>
        <time>2022-04-06T18:34:52.334Z</time>
      </trkpt>
      <trkpt lat="51.681889" lon="8.696369">
        <ele>132.198717</ele>
        <time>2022-04-06T18:35:02.031Z</time>
      </trkpt>
      <trkpt lat="51.682377" lon="8.696004">
        <ele>132.956920</ele>
        <time>2022-04-06T18:35:14.420Z</time>
      </trkpt>
      <trkpt lat="51.682470" lon="8.695866">
        <ele>133.025231</ele>
        <time>2022-04-06T18:35:16.905Z</time>
      </trkpt>
      <trkpt lat="51.682578" lon="8.695923">
        <ele>133.086656</ele>
        <time>2022-04-06T18:35:18.931Z</time>
      </trkpt>
      <trkpt lat="51.682650" lon="8.695782">
        <ele>133.147876</ele>
        <time>2022-04-06T18:35:20.899Z</time>
      </trkpt>
      <trkpt lat="51.682611" lon="8.695637">
        <ele>133.200848</ele>
        <time>2022-04-06T18:35:22.521Z</time>
      </trkpt>
      <trkpt lat="51.682513" lon="8.695616">
        <ele>133.254288</ele>
        <time>2022-04-06T18:35:23.998Z</time>
      </trkpt>
      <trkpt lat="51.682209" lon="8.695112">
        <ele>133.489948</ele>
        <time>2022-04-06T18:35:30.725Z</time>
      </trkpt>
      <trkpt lat="51.681619" lon="8.694544">
        <ele>133.960353</ele>
        <time>2022-04-06T18:35:40.350Z</time>
      </trkpt>
      <trkpt lat="51.680825" lon="8.694020">
        <ele>135.656278</ele>
        <time>2022-04-06T18:35:54.673Z</time>
      </trkpt>
      <trkpt lat="51.680254" lon="8.693351">
        <ele>137.051461</ele>
        <time>2022-04-06T18:36:11.984Z</time>
      </trkpt>
      <trkpt lat="51.679539" lon="8.692024">
        <ele>143.593875</ele>
        <time>2022-04-06T18:36:55.041Z</time>
      </trkpt>
      <trkpt lat="51.679058" lon="8.691059">
        <ele>148.756946</ele>
        <time>2022-04-06T18:37:32.051Z</time>
      </trkpt>
      <trkpt lat="51.678037" lon="8.689085">
        <ele>159.378988</ele>
        <time>2022-04-06T18:38:41.472Z</time>
      </trkpt>
      <trkpt lat="51.677577" lon="8.688466">
        <ele>162.418039</ele>
        <time>2022-04-06T18:39:01.355Z</time>
      </trkpt>
      <trkpt lat="51.677062" lon="8.688048">
        <ele>164.351026</ele>
        <time>2022-04-06T18:39:18.500Z</time>
      </trkpt>
      <trkpt lat="51.676618" lon="8.687847">
        <ele>165.897160</ele>
        <time>2022-04-06T18:39:30.601Z</time>
      </trkpt>
      <trkpt lat="51.675483" lon="8.687626">
        <ele>168.315741</ele>
        <time>2022-04-06T18:39:56.984Z</time>
      </trkpt>
      <trkpt lat="51.674149" lon="8.687335">
        <ele>169.668262</ele>
        <time>2022-04-06T18:40:21.827Z</time>
      </trkpt>
      <trkpt lat="51.672779" lon="8.686931">
        <ele>169.357535</ele>
        <time>2022-04-06T18:40:39.923Z</time>
      </trkpt>
      <trkpt lat="51.672023" lon="8.686631">
        <ele>169.714976</ele>
        <time>2022-04-06T18:40:50.739Z</time>
      </trkpt>
      <trkpt lat="51.671812" lon="8.686520">
        <ele>169.865279</ele>
        <time>2022-04-06T18:40:54.499Z</time>
      </trkpt>
      <trkpt lat="51.671533" lon="8.686373">
        <ele>170.064051</ele>
        <time>2022-04-06T18:40:59.791Z</time>
      </trkpt>
      <trkpt lat="51.670731" lon="8.685744">
        <ele>170.754558</ele>
        <time>2022-04-06T18:41:18.558Z</time>
      </trkpt>
      <trkpt lat="51.669862" lon="8.684819">
        <ele>171.913474</ele>
        <time>2022-04-06T18:41:41.550Z</time>
      </trkpt>
      <trkpt lat="51.668544" lon="8.683151">
        <ele>171.836197</ele>
        <time>2022-04-06T18:42:05.389Z</time>
      </trkpt>
      <trkpt lat="51.668155" lon="8.682597">
        <ele>171.511256</ele>
        <time>2022-04-06T18:42:11.370Z</time>
      </trkpt>
      <trkpt lat="51.668045" lon="8.682457">
        <ele>171.423518</ele>
        <time>2022-04-06T18:42:12.960Z</time>
      </trkpt>
      <trkpt lat="51.664469" lon="8.677224">
        <ele>165.078451</ele>
        <time>2022-04-06T18:43:09.659Z</time>
      </trkpt>
      <trkpt lat="51.663817" lon="8.676405">
        <ele>164.036365</ele>
        <time>2022-04-06T18:43:19.518Z</time>
      </trkpt>
      <trkpt lat="51.663401" lon="8.675883">
        <ele>163.371195</ele>
        <time>2022-04-06T18:43:25.741Z</time>
      </trkpt>
      <trkpt lat="51.661014" lon="8.673550">
        <ele>159.935610</ele>
        <time>2022-04-06T18:43:58.632Z</time>
      </trkpt>
      <trkpt lat="51.660038" lon="8.672723">
        <ele>159.355241</ele>
        <time>2022-04-06T18:44:12.799Z</time>
      </trkpt>
      <trkpt lat="51.659694" lon="8.672485">
        <ele>159.168248</ele>
        <time>2022-04-06T18:44:17.939Z</time>
      </trkpt>
      <trkpt lat="51.659361" lon="8.672256">
        <ele>158.987404</ele>
        <time>2022-04-06T18:44:23.346Z</time>
      </trkpt>
      <trkpt lat="51.659200" lon="8.672167">
        <ele>159.059755</ele>
        <time>2022-04-06T18:44:25.980Z</time>
      </trkpt>
      <trkpt lat="51.659022" lon="8.672067">
        <ele>159.141081</ele>
        <time>2022-04-06T18:44:28.880Z</time>
      </trkpt>
      <trkpt lat="51.658826" lon="8.671919">
        <ele>159.234460</ele>
        <time>2022-04-06T18:44:32.317Z</time>
      </trkpt>
      <trkpt lat="51.658728" lon="8.671844">
        <ele>159.281263</ele>
        <time>2022-04-06T18:44:34.004Z</time>
      </trkpt>
      <trkpt lat="51.658662" lon="8.671662">
        <ele>159.337686</ele>
        <time>2022-04-06T18:44:36.154Z</time>
      </trkpt>
      <trkpt lat="51.658545" lon="8.671628">
        <ele>159.388978</ele>
        <time>2022-04-06T18:44:38.093Z</time>
      </trkpt>
      <trkpt lat="51.658458" lon="8.671725">
        <ele>159.434616</ele>
        <time>2022-04-06T18:44:39.805Z</time>
      </trkpt>
      <trkpt lat="51.658352" lon="8.671712">
        <ele>159.480480</ele>
        <time>2022-04-06T18:44:41.593Z</time>
      </trkpt>
      <trkpt lat="51.658207" lon="8.671709">
        <ele>159.543044</ele>
        <time>2022-04-06T18:44:44.027Z</time>
      </trkpt>
      <trkpt lat="51.658007" lon="8.671661">
        <ele>159.630282</ele>
        <time>2022-04-06T18:44:47.463Z</time>
      </trkpt>
      <trkpt lat="51.657333" lon="8.671507">
        <ele>160.114459</ele>
        <time>2022-04-06T18:44:59.751Z</time>
      </trkpt>
      <trkpt lat="51.657097" lon="8.671462">
        <ele>160.338177</ele>
        <time>2022-04-06T18:45:04.752Z</time>
      </trkpt>
      <trkpt lat="51.655930" lon="8.671223">
        <ele>161.445615</ele>
        <time>2022-04-06T18:45:26.776Z</time>
      </trkpt>
      <trkpt lat="51.655791" lon="8.671195">
        <ele>161.500571</ele>
        <time>2022-04-06T18:45:29.569Z</time>
      </trkpt>
      <trkpt lat="51.655320" lon="8.671050">
        <ele>161.666056</ele>
        <time>2022-04-06T18:45:37.558Z</time>
      </trkpt>
      <trkpt lat="51.654797" lon="8.670825">
        <ele>161.852866</ele>
        <time>2022-04-06T18:45:46.353Z</time>
      </trkpt>
      <trkpt lat="51.653767" lon="8.670173">
        <ele>162.128868</ele>
        <time>2022-04-06T18:46:02.618Z</time>
      </trkpt>
      <trkpt lat="51.653636" lon="8.670090">
        <ele>162.144884</ele>
        <time>2022-04-06T18:46:04.624Z</time>
      </trkpt>
      <trkpt lat="51.652446" lon="8.669233">
        <ele>162.351368</ele>
        <time>2022-04-06T18:46:24.826Z</time>
      </trkpt>
      <trkpt lat="51.651014" lon="8.668240">
        <ele>163.407200</ele>
        <time>2022-04-06T18:46:52.118Z</time>
      </trkpt>
      <trkpt lat="51.650489" lon="8.667876">
        <ele>164.097525</ele>
        <time>2022-04-06T18:47:02.948Z</time>
      </trkpt>
      <trkpt lat="51.650216" lon="8.667718">
        <ele>164.496180</ele>
        <time>2022-04-06T18:47:08.530Z</time>
      </trkpt>
      <trkpt lat="51.649737" lon="8.667549">
        <ele>165.170083</ele>
        <time>2022-04-06T18:47:18.161Z</time>
      </trkpt>
      <trkpt lat="51.646963" lon="8.667110">
        <ele>170.872634</ele>
        <time>2022-04-06T18:48:21.579Z</time>
      </trkpt>
      <trkpt lat="51.646963" lon="8.667110">
        <ele>170.872634</ele>
        <time>2022-04-06T18:48:21.920Z</time>
      </trkpt>
      <trkpt lat="51.646665" lon="8.667025">
        <ele>171.803635</ele>
        <time>2022-04-06T18:48:28.731Z</time>
      </trkpt>
      <trkpt lat="51.646043" lon="8.666790">
        <ele>173.769006</ele>
        <time>2022-04-06T18:48:47.132Z</time>
      </trkpt>
      <trkpt lat="51.645169" lon="8.666558">
        <ele>176.447167</ele>
        <time>2022-04-06T18:49:13.647Z</time>
      </trkpt>
      <trkpt lat="51.645086" lon="8.666611">
        <ele>176.712194</ele>
        <time>2022-04-06T18:49:16.085Z</time>
      </trkpt>
      <trkpt lat="51.644442" lon="8.667446">
        <ele>179.165896</ele>
        <time>2022-04-06T18:49:37.915Z</time>
      </trkpt>
      <trkpt lat="51.644251" lon="8.667594">
        <ele>179.795029</ele>
        <time>2022-04-06T18:49:42.864Z</time>
      </trkpt>
      <trkpt lat="51.644012" lon="8.667610">
        <ele>180.501743</ele>
        <time>2022-04-06T18:49:48.951Z</time>
      </trkpt>
      <trkpt lat="51.643735" lon="8.667451">
        <ele>180.971818</ele>
        <time>2022-04-06T18:49:56.067Z</time>
      </trkpt>
      <trkpt lat="51.643534" lon="8.667202">
        <ele>181.377118</ele>
        <time>2022-04-06T18:50:01.869Z</time>
      </trkpt>
      <trkpt lat="51.642981" lon="8.666208">
        <ele>182.701471</ele>
        <time>2022-04-06T18:50:19.410Z</time>
      </trkpt>
      <trkpt lat="51.642748" lon="8.665989">
        <ele>183.132684</ele>
        <time>2022-04-06T18:50:24.435Z</time>
      </trkpt>
      <trkpt lat="51.642619" lon="8.665912">
        <ele>183.352601</ele>
        <time>2022-04-06T18:50:26.976Z</time>
      </trkpt>
      <trkpt lat="51.642462" lon="8.665828">
        <ele>183.429203</ele>
        <time>2022-04-06T18:50:29.801Z</time>
      </trkpt>
      <trkpt lat="51.642391" lon="8.665789">
        <ele>183.456752</ele>
        <time>2022-04-06T18:50:31.033Z</time>
      </trkpt>
      <trkpt lat="51.642266" lon="8.665725">
        <ele>183.504922</ele>
        <time>2022-04-06T18:50:33.351Z</time>
      </trkpt>
      <trkpt lat="51.641915" lon="8.665529">
        <ele>183.641354</ele>
        <time>2022-04-06T18:50:39.623Z</time>
      </trkpt>
      <trkpt lat="51.641843" lon="8.665493">
        <ele>183.669041</ele>
        <time>2022-04-06T18:50:40.894Z</time>
      </trkpt>
      <trkpt lat="51.641809" lon="8.665295">
        <ele>183.715864</ele>
        <time>2022-04-06T18:50:42.898Z</time>
      </trkpt>
      <trkpt lat="51.641742" lon="8.665261">
        <ele>183.741663</ele>
        <time>2022-04-06T18:50:44.128Z</time>
      </trkpt>
      <trkpt lat="51.641655" lon="8.665351">
        <ele>183.779633</ele>
        <time>2022-04-06T18:50:45.911Z</time>
      </trkpt>
      <trkpt lat="51.641645" lon="8.665275">
        <ele>183.797340</ele>
        <time>2022-04-06T18:50:46.719Z</time>
      </trkpt>
      <trkpt lat="51.641388" lon="8.665179">
        <ele>183.894230</ele>
        <time>2022-04-06T18:50:50.945Z</time>
      </trkpt>
      <trkpt lat="51.641110" lon="8.664923">
        <ele>184.011827</ele>
        <time>2022-04-06T18:50:55.712Z</time>
      </trkpt>
      <trkpt lat="51.640504" lon="8.664144">
        <ele>183.474827</ele>
        <time>2022-04-06T18:51:05.905Z</time>
      </trkpt>
      <trkpt lat="51.640504" lon="8.664144">
        <ele>183.474827</ele>
        <time>2022-04-06T18:51:05.908Z</time>
      </trkpt>
      <trkpt lat="51.640589" lon="8.663825">
        <ele>183.306527</ele>
        <time>2022-04-06T18:51:08.586Z</time>
      </trkpt>
      <trkpt lat="51.640754" lon="8.661105">
        <ele>182.021540</ele>
        <time>2022-04-06T18:51:29.114Z</time>
      </trkpt>
      <trkpt lat="51.640212" lon="8.659955">
        <ele>181.364677</ele>
        <time>2022-04-06T18:51:40.760Z</time>
      </trkpt>
      <trkpt lat="51.639735" lon="8.658954">
        <ele>181.555986</ele>
        <time>2022-04-06T18:51:52.561Z</time>
      </trkpt>
      <trkpt lat="51.637135" lon="8.653520">
        <ele>182.999219</ele>
        <time>2022-04-06T18:53:03.700Z</time>
      </trkpt>
      <trkpt lat="51.637056" lon="8.653485">
        <ele>183.025693</ele>
        <time>2022-04-06T18:53:04.910Z</time>
      </trkpt>
      <trkpt lat="51.636533" lon="8.651581">
        <ele>183.128086</ele>
        <time>2022-04-06T18:53:23.503Z</time>
      </trkpt>
      <trkpt lat="51.636175" lon="8.650002">
        <ele>182.998408</ele>
        <time>2022-04-06T18:53:39.443Z</time>
      </trkpt>
      <trkpt lat="51.636051" lon="8.649376">
        <ele>182.739184</ele>
        <time>2022-04-06T18:53:45.044Z</time>
      </trkpt>
      <trkpt lat="51.635778" lon="8.648093">
        <ele>182.204131</ele>
        <time>2022-04-06T18:53:59.916Z</time>
      </trkpt>
      <trkpt lat="51.635404" lon="8.646310">
        <ele>180.854599</ele>
        <time>2022-04-06T18:54:19.928Z</time>
      </trkpt>
      <trkpt lat="51.635158" lon="8.645131">
        <ele>179.784991</ele>
        <time>2022-04-06T18:54:32.162Z</time>
      </trkpt>
      <trkpt lat="51.634685" lon="8.642821">
        <ele>178.290303</ele>
        <time>2022-04-06T18:54:58.173Z</time>
      </trkpt>
      <trkpt lat="51.634811" lon="8.638455">
        <ele>176.706619</ele>
        <time>2022-04-06T18:55:49.337Z</time>
      </trkpt>
      <trkpt lat="51.634755" lon="8.637413">
        <ele>176.141861</ele>
        <time>2022-04-06T18:56:01.357Z</time>
      </trkpt>
      <trkpt lat="51.634618" lon="8.634479">
        <ele>173.456329</ele>
        <time>2022-04-06T18:56:31.587Z</time>
      </trkpt>
      <trkpt lat="51.634577" lon="8.630272">
        <ele>167.912679</ele>
        <time>2022-04-06T18:57:11.243Z</time>
      </trkpt>
      <trkpt lat="51.634396" lon="8.628261">
        <ele>167.276145</ele>
        <time>2022-04-06T18:57:33.991Z</time>
      </trkpt>
      <trkpt lat="51.634227" lon="8.627679">
        <ele>167.074868</ele>
        <time>2022-04-06T18:57:42.698Z</time>
      </trkpt>
      <trkpt lat="51.634085" lon="8.622778">
        <ele>171.423778</ele>
        <time>2022-04-06T18:59:03.385Z</time>
      </trkpt>
      <trkpt lat="51.634056" lon="8.622135">
        <ele>172.029233</ele>
        <time>2022-04-06T18:59:14.722Z</time>
      </trkpt>
      <trkpt lat="51.634162" lon="8.621081">
        <ele>171.679985</ele>
        <time>2022-04-06T18:59:31.885Z</time>
      </trkpt>
      <trkpt lat="51.634937" lon="8.614283">
        <ele>165.342160</ele>
        <time>2022-04-06T19:00:40.289Z</time>
      </trkpt>
      <trkpt lat="51.635529" lon="8.608816">
        <ele>159.799830</ele>
        <time>2022-04-06T19:01:35.729Z</time>
      </trkpt>
      <trkpt lat="51.635707" lon="8.607333">
        <ele>158.736555</ele>
        <time>2022-04-06T19:01:47.829Z</time>
      </trkpt>
      <trkpt lat="51.636491" lon="8.600428">
        <ele>156.350341</ele>
        <time>2022-04-06T19:02:45.246Z</time>
      </trkpt>
      <trkpt lat="51.636672" lon="8.598768">
        <ele>155.609825</ele>
        <time>2022-04-06T19:02:59.216Z</time>
      </trkpt>
      <trkpt lat="51.636969" lon="8.596065">
        <ele>153.050486</ele>
        <time>2022-04-06T19:03:18.994Z</time>
      </trkpt>
      <trkpt lat="51.637040" lon="8.595513">
        <ele>151.749680</ele>
        <time>2022-04-06T19:03:22.697Z</time>
      </trkpt>
      <trkpt lat="51.637042" lon="8.595491">
        <ele>151.698373</ele>
        <time>2022-04-06T19:03:22.846Z</time>
      </trkpt>
      <trkpt lat="51.638127" lon="8.587137">
        <ele>131.540592</ele>
        <time>2022-04-06T19:04:14.580Z</time>
      </trkpt>
      <trkpt lat="51.638243" lon="8.585984">
        <ele>128.950866</ele>
        <time>2022-04-06T19:04:21.679Z</time>
      </trkpt>
      <trkpt lat="51.638243" lon="8.585984">
        <ele>128.950866</ele>
        <time>2022-04-06T19:04:21.685Z</time>
      </trkpt>
      <trkpt lat="51.638243" lon="8.585984">
        <ele>128.950866</ele>
        <time>2022-04-06T19:04:21.743Z</time>
      </trkpt>
      <trkpt lat="51.639575" lon="8.586987">
        <ele>124.736790</ele>
        <time>2022-04-06T19:04:36.809Z</time>
      </trkpt>
      <trkpt lat="51.640230" lon="8.587439">
        <ele>123.214229</ele>
        <time>2022-04-06T19:04:44.850Z</time>
      </trkpt>
      <trkpt lat="51.640346" lon="8.587519">
        <ele>122.944611</ele>
        <time>2022-04-06T19:04:46.299Z</time>
      </trkpt>
      <trkpt lat="51.641168" lon="8.588161">
        <ele>121.799855</ele>
        <time>2022-04-06T19:04:57.022Z</time>
      </trkpt>
      <trkpt lat="51.643610" lon="8.589856">
        <ele>119.867901</ele>
        <time>2022-04-06T19:05:31.197Z</time>
      </trkpt>
      <trkpt lat="51.646047" lon="8.591416">
        <ele>119.013165</ele>
        <time>2022-04-06T19:06:08.592Z</time>
      </trkpt>
      <trkpt lat="51.647254" lon="8.592203">
        <ele>118.136493</ele>
        <time>2022-04-06T19:06:24.992Z</time>
      </trkpt>
      <trkpt lat="51.647814" lon="8.592569">
        <ele>117.215363</ele>
        <time>2022-04-06T19:06:32.085Z</time>
      </trkpt>
      <trkpt lat="51.649259" lon="8.593595">
        <ele>114.683025</ele>
        <time>2022-04-06T19:06:49.835Z</time>
      </trkpt>
      <trkpt lat="51.649766" lon="8.593914">
        <ele>113.701717</ele>
        <time>2022-04-06T19:06:55.845Z</time>
      </trkpt>
      <trkpt lat="51.650818" lon="8.594292">
        <ele>111.882526</ele>
        <time>2022-04-06T19:07:07.855Z</time>
      </trkpt>
      <trkpt lat="51.651714" lon="8.594302">
        <ele>110.673564</ele>
        <time>2022-04-06T19:07:18.239Z</time>
      </trkpt>
      <trkpt lat="51.652713" lon="8.593968">
        <ele>109.567992</ele>
        <time>2022-04-06T19:07:30.766Z</time>
      </trkpt>
      <trkpt lat="51.655060" lon="8.593014">
        <ele>107.969365</ele>
        <time>2022-04-06T19:08:02.554Z</time>
      </trkpt>
      <trkpt lat="51.656926" lon="8.592249">
        <ele>106.332495</ele>
        <time>2022-04-06T19:08:26.743Z</time>
      </trkpt>
      <trkpt lat="51.658989" lon="8.591407">
        <ele>104.007983</ele>
        <time>2022-04-06T19:08:51.943Z</time>
      </trkpt>
      <trkpt lat="51.661167" lon="8.590768">
        <ele>101.923039</ele>
        <time>2022-04-06T19:09:19.492Z</time>
      </trkpt>
      <trkpt lat="51.661467" lon="8.590680">
        <ele>101.691224</ele>
        <time>2022-04-06T19:09:23.256Z</time>
      </trkpt>
      <trkpt lat="51.661937" lon="8.590542">
        <ele>101.328037</ele>
        <time>2022-04-06T19:09:29.269Z</time>
      </trkpt>
      <trkpt lat="51.662925" lon="8.590262">
        <ele>100.591506</ele>
        <time>2022-04-06T19:09:41.973Z</time>
      </trkpt>
      <trkpt lat="51.663546" lon="8.590002">
        <ele>100.333394</ele>
        <time>2022-04-06T19:09:50.556Z</time>
      </trkpt>
      <trkpt lat="51.663965" lon="8.589827">
        <ele>100.159269</ele>
        <time>2022-04-06T19:09:56.424Z</time>
      </trkpt>
      <trkpt lat="51.665008" lon="8.589210">
        <ele>99.899692</ele>
        <time>2022-04-06T19:10:11.919Z</time>
      </trkpt>
      <trkpt lat="51.665197" lon="8.589085">
        <ele>99.900775</ele>
        <time>2022-04-06T19:10:14.954Z</time>
      </trkpt>
      <trkpt lat="51.665538" lon="8.588868">
        <ele>99.902719</ele>
        <time>2022-04-06T19:10:20.493Z</time>
      </trkpt>
      <trkpt lat="51.665689" lon="8.588848">
        <ele>99.903523</ele>
        <time>2022-04-06T19:10:22.785Z</time>
      </trkpt>
      <trkpt lat="51.665757" lon="8.588839">
        <ele>99.903884</ele>
        <time>2022-04-06T19:10:23.899Z</time>
      </trkpt>
      <trkpt lat="51.665914" lon="8.588909">
        <ele>99.904748</ele>
        <time>2022-04-06T19:10:26.433Z</time>
      </trkpt>
      <trkpt lat="51.666014" lon="8.588782">
        <ele>99.905423</ele>
        <time>2022-04-06T19:10:28.430Z</time>
      </trkpt>
      <trkpt lat="51.666034" lon="8.588643">
        <ele>99.905893</ele>
        <time>2022-04-06T19:10:29.871Z</time>
      </trkpt>
      <trkpt lat="51.666113" lon="8.588543">
        <ele>99.906425</ele>
        <time>2022-04-06T19:10:31.420Z</time>
      </trkpt>
      <trkpt lat="51.666188" lon="8.588448">
        <ele>99.909867</ele>
        <time>2022-04-06T19:10:32.880Z</time>
      </trkpt>
      <trkpt lat="51.666689" lon="8.588162">
        <ele>99.972273</ele>
        <time>2022-04-06T19:10:44.014Z</time>
      </trkpt>
      <trkpt lat="51.667308" lon="8.587948">
        <ele>100.046609</ele>
        <time>2022-04-06T19:10:56.899Z</time>
      </trkpt>
      <trkpt lat="51.667782" lon="8.587787">
        <ele>100.103489</ele>
        <time>2022-04-06T19:11:06.918Z</time>
      </trkpt>
      <trkpt lat="51.667866" lon="8.587759">
        <ele>100.113561</ele>
        <time>2022-04-06T19:11:08.600Z</time>
      </trkpt>
      <trkpt lat="51.668971" lon="8.587426">
        <ele>100.379704</ele>
        <time>2022-04-06T19:11:31.933Z</time>
      </trkpt>
      <trkpt lat="51.669587" lon="8.587285">
        <ele>100.529586</ele>
        <time>2022-04-06T19:11:45.489Z</time>
      </trkpt>
      <trkpt lat="51.669730" lon="8.587275">
        <ele>100.598904</ele>
        <time>2022-04-06T19:11:48.547Z</time>
      </trkpt>
      <trkpt lat="51.670225" lon="8.587345">
        <ele>101.044775</ele>
        <time>2022-04-06T19:11:59.779Z</time>
      </trkpt>
      <trkpt lat="51.670338" lon="8.587369">
        <ele>101.147046</ele>
        <time>2022-04-06T19:12:02.496Z</time>
      </trkpt>
      <trkpt lat="51.670653" lon="8.587457">
        <ele>101.433908</ele>
        <time>2022-04-06T19:12:10.233Z</time>
      </trkpt>
      <trkpt lat="51.670965" lon="8.587566">
        <ele>101.720363</ele>
        <time>2022-04-06T19:12:18.219Z</time>
      </trkpt>
      <trkpt lat="51.671224" lon="8.587656">
        <ele>101.958101</ele>
        <time>2022-04-06T19:12:24.947Z</time>
      </trkpt>
      <trkpt lat="51.671586" lon="8.587782">
        <ele>102.235801</ele>
        <time>2022-04-06T19:12:34.346Z</time>
      </trkpt>
      <trkpt lat="51.671769" lon="8.587823">
        <ele>102.329274</ele>
        <time>2022-04-06T19:12:38.759Z</time>
      </trkpt>
      <trkpt lat="51.672737" lon="8.588178">
        <ele>102.831514</ele>
        <time>2022-04-06T19:13:00.012Z</time>
      </trkpt>
      <trkpt lat="51.672909" lon="8.588244">
        <ele>102.920963</ele>
        <time>2022-04-06T19:13:04.023Z</time>
      </trkpt>
      <trkpt lat="51.673542" lon="8.588473">
        <ele>102.984332</ele>
        <time>2022-04-06T19:13:18.087Z</time>
      </trkpt>
      <trkpt lat="51.673697" lon="8.588529">
        <ele>102.942365</ele>
        <time>2022-04-06T19:13:21.179Z</time>
      </trkpt>
      <trkpt lat="51.673935" lon="8.588614">
        <ele>102.877961</ele>
        <time>2022-04-06T19:13:25.998Z</time>
      </trkpt>
      <trkpt lat="51.674210" lon="8.588714">
        <ele>102.803480</ele>
        <time>2022-04-06T19:13:31.352Z</time>
      </trkpt>
      <trkpt lat="51.674240" lon="8.588849">
        <ele>102.779984</ele>
        <time>2022-04-06T19:13:32.936Z</time>
      </trkpt>
      <trkpt lat="51.674279" lon="8.588890">
        <ele>102.767684</ele>
        <time>2022-04-06T19:13:33.743Z</time>
      </trkpt>
      <trkpt lat="51.674412" lon="8.588805">
        <ele>102.729886</ele>
        <time>2022-04-06T19:13:36.395Z</time>
      </trkpt>
      <trkpt lat="51.674391" lon="8.588606">
        <ele>102.696813</ele>
        <time>2022-04-06T19:13:38.611Z</time>
      </trkpt>
      <trkpt lat="51.674332" lon="8.588558">
        <ele>102.679354</ele>
        <time>2022-04-06T19:13:39.748Z</time>
      </trkpt>
      <trkpt lat="51.674352" lon="8.588330">
        <ele>102.641626</ele>
        <time>2022-04-06T19:13:42.457Z</time>
      </trkpt>
      <trkpt lat="51.674644" lon="8.584892">
        <ele>101.386552</ele>
        <time>2022-04-06T19:14:21.856Z</time>
      </trkpt>
      <trkpt lat="51.674669" lon="8.584427">
        <ele>101.212581</ele>
        <time>2022-04-06T19:14:27.023Z</time>
      </trkpt>
      <trkpt lat="51.674524" lon="8.583581">
        <ele>100.885427</ele>
        <time>2022-04-06T19:14:36.829Z</time>
      </trkpt>
      <trkpt lat="51.674315" lon="8.582539">
        <ele>100.477227</ele>
        <time>2022-04-06T19:14:49.268Z</time>
      </trkpt>
      <trkpt lat="51.674219" lon="8.581709">
        <ele>100.357141</ele>
        <time>2022-04-06T19:14:59.048Z</time>
      </trkpt>
      <trkpt lat="51.673930" lon="8.579282">
        <ele>100.202784</ele>
        <time>2022-04-06T19:15:29.598Z</time>
      </trkpt>
      <trkpt lat="51.673861" lon="8.579100">
        <ele>100.244859</ele>
        <time>2022-04-06T19:15:32.414Z</time>
      </trkpt>
      <trkpt lat="51.673896" lon="8.578916">
        <ele>100.282820</ele>
        <time>2022-04-06T19:15:34.942Z</time>
      </trkpt>
      <trkpt lat="51.673489" lon="8.575399">
        <ele>101.009197</ele>
        <time>2022-04-06T19:16:23.581Z</time>
      </trkpt>
      <trkpt lat="51.673071" lon="8.571558">
        <ele>101.846978</ele>
        <time>2022-04-06T19:17:15.110Z</time>
      </trkpt>
      <trkpt lat="51.673054" lon="8.571406">
        <ele>101.880392</ele>
        <time>2022-04-06T19:17:17.264Z</time>
      </trkpt>
      <trkpt lat="51.672764" lon="8.569878">
        <ele>102.467221</ele>
        <time>2022-04-06T19:17:39.678Z</time>
      </trkpt>
      <trkpt lat="51.671944" lon="8.565698">
        <ele>104.288500</ele>
        <time>2022-04-06T19:18:42.700Z</time>
      </trkpt>
      <trkpt lat="51.671751" lon="8.564716">
        <ele>104.417041</ele>
        <time>2022-04-06T19:18:56.392Z</time>
      </trkpt>
      <trkpt lat="51.671709" lon="8.564500">
        <ele>104.428270</ele>
        <time>2022-04-06T19:18:59.428Z</time>
      </trkpt>
      <trkpt lat="51.672304" lon="8.564251">
        <ele>104.477439</ele>
        <time>2022-04-06T19:19:08.720Z</time>
      </trkpt>
      <trkpt lat="51.673259" lon="8.563838">
        <ele>104.362244</ele>
        <time>2022-04-06T19:19:22.347Z</time>
      </trkpt>
      <trkpt lat="51.674450" lon="8.563392">
        <ele>103.935099</ele>
        <time>2022-04-06T19:19:38.935Z</time>
      </trkpt>
      <trkpt lat="51.674582" lon="8.563377">
        <ele>103.889372</ele>
        <time>2022-04-06T19:19:40.661Z</time>
      </trkpt>
      <trkpt lat="51.675732" lon="8.563243">
        <ele>103.551598</ele>
        <time>2022-04-06T19:19:56.441Z</time>
      </trkpt>
      <trkpt lat="51.676430" lon="8.563210">
        <ele>103.325147</ele>
        <time>2022-04-06T19:20:06.437Z</time>
      </trkpt>
      <trkpt lat="51.676721" lon="8.563167">
        <ele>103.135652</ele>
        <time>2022-04-06T19:20:10.533Z</time>
      </trkpt>
      <trkpt lat="51.677389" lon="8.563187">
        <ele>102.702401</ele>
        <time>2022-04-06T19:20:22.914Z</time>
      </trkpt>
      <trkpt lat="51.677604" lon="8.563290">
        <ele>102.556959</ele>
        <time>2022-04-06T19:20:26.902Z</time>
      </trkpt>
      <trkpt lat="51.677851" lon="8.563450">
        <ele>102.384349</ele>
        <time>2022-04-06T19:20:31.550Z</time>
      </trkpt>
      <trkpt lat="51.678322" lon="8.564065">
        <ele>101.954282</ele>
        <time>2022-04-06T19:20:41.925Z</time>
      </trkpt>
      <trkpt lat="51.678393" lon="8.564217">
        <ele>101.864078</ele>
        <time>2022-04-06T19:20:43.878Z</time>
      </trkpt>
      <trkpt lat="51.678843" lon="8.565138">
        <ele>101.308276</ele>
        <time>2022-04-06T19:20:56.524Z</time>
      </trkpt>
      <trkpt lat="51.679156" lon="8.565604">
        <ele>100.982640</ele>
        <time>2022-04-06T19:21:04.431Z</time>
      </trkpt>
      <trkpt lat="51.679422" lon="8.565824">
        <ele>100.825826</ele>
        <time>2022-04-06T19:21:10.102Z</time>
      </trkpt>
      <trkpt lat="51.679890" lon="8.565969">
        <ele>100.836667</ele>
        <time>2022-04-06T19:21:19.869Z</time>
      </trkpt>
      <trkpt lat="51.679983" lon="8.565973">
        <ele>100.838784</ele>
        <time>2022-04-06T19:21:21.824Z</time>
      </trkpt>
      <trkpt lat="51.680621" lon="8.565844">
        <ele>100.853411</ele>
        <time>2022-04-06T19:21:35.572Z</time>
      </trkpt>
      <trkpt lat="51.681435" lon="8.565664">
        <ele>100.758667</ele>
        <time>2022-04-06T19:21:52.195Z</time>
      </trkpt>
      <trkpt lat="51.681483" lon="8.566038">
        <ele>100.681817</ele>
        <time>2022-04-06T19:21:56.819Z</time>
      </trkpt>
      <trkpt lat="51.681541" lon="8.566504">
        <ele>100.586181</ele>
        <time>2022-04-06T19:22:02.288Z</time>
      </trkpt>
      <trkpt lat="51.681460" lon="8.567137">
        <ele>100.456128</ele>
        <time>2022-04-06T19:22:09.616Z</time>
      </trkpt>
      <trkpt lat="51.681435" lon="8.567333">
        <ele>100.415864</ele>
        <time>2022-04-06T19:22:11.803Z</time>
      </trkpt>
      <trkpt lat="51.681923" lon="8.567235">
        <ele>100.284604</ele>
        <time>2022-04-06T19:22:20.947Z</time>
      </trkpt>
      <trkpt lat="51.682961" lon="8.566957">
        <ele>100.334822</ele>
        <time>2022-04-06T19:22:42.608Z</time>
      </trkpt>
      <trkpt lat="51.683197" lon="8.566892">
        <ele>100.346248</ele>
        <time>2022-04-06T19:22:47.842Z</time>
      </trkpt>
      <trkpt lat="51.683197" lon="8.566892">
        <ele>100.346248</ele>
        <time>2022-04-06T19:22:47.847Z</time>
      </trkpt>
      <trkpt lat="51.683197" lon="8.566892">
        <ele>100.346248</ele>
        <time>2022-04-06T19:22:47.908Z</time>
      </trkpt>
      <trkpt lat="51.683072" lon="8.566079">
        <ele>100.279176</ele>
        <time>2022-04-06T19:22:56.494Z</time>
      </trkpt>
      <trkpt lat="51.683035" lon="8.565565">
        <ele>99.961209</ele>
        <time>2022-04-06T19:23:01.071Z</time>
      </trkpt>
      <trkpt lat="51.683028" lon="8.565448">
        <ele>99.888980</ele>
        <time>2022-04-06T19:23:02.075Z</time>
      </trkpt>
      <trkpt lat="51.683023" lon="8.565319">
        <ele>99.809556</ele>
        <time>2022-04-06T19:23:03.166Z</time>
      </trkpt>
      <trkpt lat="51.683261" lon="8.565008">
        <ele>99.505978</ele>
        <time>2022-04-06T19:23:07.136Z</time>
      </trkpt>
      <trkpt lat="51.683712" lon="8.564711">
        <ele>99.023175</ele>
        <time>2022-04-06T19:23:13.164Z</time>
      </trkpt>
      <trkpt lat="51.683712" lon="8.564711">
        <ele>99.023175</ele>
        <time>2022-04-06T19:23:13.175Z</time>
      </trkpt>
      <trkpt lat="51.683730" lon="8.564756">
        <ele>98.990269</ele>
        <time>2022-04-06T19:23:13.553Z</time>
      </trkpt>
      <trkpt lat="51.683897" lon="8.564853">
        <ele>98.814352</ele>
        <time>2022-04-06T19:23:15.511Z</time>
      </trkpt>
      <trkpt lat="51.684237" lon="8.564861">
        <ele>98.270319</ele>
        <time>2022-04-06T19:23:19.071Z</time>
      </trkpt>
      <trkpt lat="51.684176" lon="8.563902">
        <ele>96.530247</ele>
        <time>2022-04-06T19:23:25.208Z</time>
      </trkpt>
      <trkpt lat="51.684306" lon="8.563565">
        <ele>95.813836</ele>
        <time>2022-04-06T19:23:27.723Z</time>
      </trkpt>
      <trkpt lat="51.684548" lon="8.563451">
        <ele>95.079868</ele>
        <time>2022-04-06T19:23:30.210Z</time>
      </trkpt>
      <trkpt lat="51.684829" lon="8.563569">
        <ele>94.234522</ele>
        <time>2022-04-06T19:23:33.127Z</time>
      </trkpt>
      <trkpt lat="51.684977" lon="8.563561">
        <ele>93.803409</ele>
        <time>2022-04-06T19:23:34.709Z</time>
      </trkpt>
      <trkpt lat="51.685371" lon="8.563444">
        <ele>92.848157</ele>
        <time>2022-04-06T19:23:38.886Z</time>
      </trkpt>
      <trkpt lat="51.685574" lon="8.563285">
        <ele>92.386284</ele>
        <time>2022-04-06T19:23:41.206Z</time>
      </trkpt>
      <trkpt lat="51.685962" lon="8.562776">
        <ele>91.362682</ele>
        <time>2022-04-06T19:23:46.551Z</time>
      </trkpt>
      <trkpt lat="51.686146" lon="8.562428">
        <ele>90.782332</ele>
        <time>2022-04-06T19:23:49.672Z</time>
      </trkpt>
      <trkpt lat="51.686598" lon="8.560617">
        <ele>89.302533</ele>
        <time>2022-04-06T19:24:04.347Z</time>
      </trkpt>
      <trkpt lat="51.686636" lon="8.560460">
        <ele>89.245350</ele>
        <time>2022-04-06T19:24:05.743Z</time>
      </trkpt>
      <trkpt lat="51.687269" lon="8.557589">
        <ele>88.474213</ele>
        <time>2022-04-06T19:24:32.322Z</time>
      </trkpt>
      <trkpt lat="51.687394" lon="8.557366">
        <ele>88.429140</ele>
        <time>2022-04-06T19:24:35.032Z</time>
      </trkpt>
      <trkpt lat="51.688029" lon="8.556727">
        <ele>88.248143</ele>
        <time>2022-04-06T19:24:45.490Z</time>
      </trkpt>
      <trkpt lat="51.688101" lon="8.556570">
        <ele>88.215682</ele>
        <time>2022-04-06T19:24:47.102Z</time>
      </trkpt>
      <trkpt lat="51.687968" lon="8.554867">
        <ele>87.929489</ele>
        <time>2022-04-06T19:25:01.530Z</time>
      </trkpt>
      <trkpt lat="51.687976" lon="8.554548">
        <ele>87.876257</ele>
        <time>2022-04-06T19:25:04.308Z</time>
      </trkpt>
      <trkpt lat="51.688385" lon="8.553845">
        <ele>87.776334</ele>
        <time>2022-04-06T19:25:12.776Z</time>
      </trkpt>
      <trkpt lat="51.689229" lon="8.552430">
        <ele>87.863913</ele>
        <time>2022-04-06T19:25:31.381Z</time>
      </trkpt>
      <trkpt lat="51.690882" lon="8.549640">
        <ele>88.147074</ele>
        <time>2022-04-06T19:26:08.969Z</time>
      </trkpt>
      <trkpt lat="51.691070" lon="8.549311">
        <ele>88.062632</ele>
        <time>2022-04-06T19:26:12.796Z</time>
      </trkpt>
      <trkpt lat="51.692197" lon="8.547471">
        <ele>87.632325</ele>
        <time>2022-04-06T19:26:34.067Z</time>
      </trkpt>
      <trkpt lat="51.692273" lon="8.547230">
        <ele>87.616794</ele>
        <time>2022-04-06T19:26:36.248Z</time>
      </trkpt>
      <trkpt lat="51.693838" lon="8.537662">
        <ele>87.059769</ele>
        <time>2022-04-06T19:28:06.088Z</time>
      </trkpt>
      <trkpt lat="51.694190" lon="8.535489">
        <ele>86.839041</ele>
        <time>2022-04-06T19:28:25.919Z</time>
      </trkpt>
      <trkpt lat="51.694824" lon="8.531566">
        <ele>86.324331</ele>
        <time>2022-04-06T19:29:00.801Z</time>
      </trkpt>
      <trkpt lat="51.694858" lon="8.531386">
        <ele>86.301595</ele>
        <time>2022-04-06T19:29:02.483Z</time>
      </trkpt>
      <trkpt lat="51.694257" lon="8.530344">
        <ele>86.292913</ele>
        <time>2022-04-06T19:29:15.922Z</time>
      </trkpt>
      <trkpt lat="51.692389" lon="8.527099">
        <ele>86.346303</ele>
        <time>2022-04-06T19:29:57.282Z</time>
      </trkpt>
      <trkpt lat="51.691901" lon="8.526251">
        <ele>86.236628</ele>
        <time>2022-04-06T19:30:07.257Z</time>
      </trkpt>
      <trkpt lat="51.690301" lon="8.523378">
        <ele>85.697452</ele>
        <time>2022-04-06T19:30:40.860Z</time>
      </trkpt>
      <trkpt lat="51.688445" lon="8.520153">
        <ele>85.140064</ele>
        <time>2022-04-06T19:31:18.808Z</time>
      </trkpt>
      <trkpt lat="51.686902" lon="8.517393">
        <ele>85.303599</ele>
        <time>2022-04-06T19:31:54.455Z</time>
      </trkpt>
      <trkpt lat="51.686653" lon="8.516957">
        <ele>85.322484</ele>
        <time>2022-04-06T19:32:00.000Z</time>
      </trkpt>
      <trkpt lat="51.683603" lon="8.511596">
        <ele>85.055337</ele>
        <time>2022-04-06T19:33:05.631Z</time>
      </trkpt>
      <trkpt lat="51.682951" lon="8.511409">
        <ele>84.923575</ele>
        <time>2022-04-06T19:33:15.116Z</time>
      </trkpt>
      <trkpt lat="51.681231" lon="8.510951">
        <ele>84.579669</ele>
        <time>2022-04-06T19:33:39.341Z</time>
      </trkpt>
      <trkpt lat="51.680978" lon="8.510883">
        <ele>84.529503</ele>
        <time>2022-04-06T19:33:42.993Z</time>
      </trkpt>
      <trkpt lat="51.680040" lon="8.510604">
        <ele>84.451472</ele>
        <time>2022-04-06T19:33:56.467Z</time>
      </trkpt>
      <trkpt lat="51.679539" lon="8.510449">
        <ele>84.546190</ele>
        <time>2022-04-06T19:34:04.372Z</time>
      </trkpt>
      <trkpt lat="51.679421" lon="8.510440">
        <ele>84.568123</ele>
        <time>2022-04-06T19:34:06.239Z</time>
      </trkpt>
      <trkpt lat="51.678801" lon="8.510705">
        <ele>84.687214</ele>
        <time>2022-04-06T19:34:16.686Z</time>
      </trkpt>
      <trkpt lat="51.678618" lon="8.510798">
        <ele>84.722839</ele>
        <time>2022-04-06T19:34:19.791Z</time>
      </trkpt>
      <trkpt lat="51.677785" lon="8.511138">
        <ele>85.083798</ele>
        <time>2022-04-06T19:34:33.603Z</time>
      </trkpt>
      <trkpt lat="51.676465" lon="8.511529">
        <ele>85.692656</ele>
        <time>2022-04-06T19:34:56.484Z</time>
      </trkpt>
      <trkpt lat="51.675539" lon="8.505261">
        <ele>87.448710</ele>
        <time>2022-04-06T19:36:25.107Z</time>
      </trkpt>
      <trkpt lat="51.675640" lon="8.495364">
        <ele>88.219514</ele>
        <time>2022-04-06T19:38:32.222Z</time>
      </trkpt>
      <trkpt lat="51.674847" lon="8.486315">
        <ele>86.214088</ele>
        <time>2022-04-06T19:39:48.240Z</time>
      </trkpt>
      <trkpt lat="51.668591" lon="8.487873">
        <ele>88.580345</ele>
        <time>2022-04-06T19:41:34.219Z</time>
      </trkpt>
      <trkpt lat="51.668124" lon="8.485171">
        <ele>88.256599</ele>
        <time>2022-04-06T19:42:06.676Z</time>
      </trkpt>
      <trkpt lat="51.668112" lon="8.485102">
        <ele>88.239136</ele>
        <time>2022-04-06T19:42:07.483Z</time>
      </trkpt>
      <trkpt lat="51.667752" lon="8.483016">
        <ele>87.815129</ele>
        <time>2022-04-06T19:42:33.123Z</time>
      </trkpt>
      <trkpt lat="51.667731" lon="8.482860">
        <ele>87.800238</ele>
        <time>2022-04-06T19:42:35.045Z</time>
      </trkpt>
      <trkpt lat="51.667630" lon="8.478361">
        <ele>87.745513</ele>
        <time>2022-04-06T19:43:30.477Z</time>
      </trkpt>
      <trkpt lat="51.665290" lon="8.475917">
        <ele>89.580130</ele>
        <time>2022-04-06T19:44:34.632Z</time>
      </trkpt>
      <trkpt lat="51.664356" lon="8.474764">
        <ele>90.673961</ele>
        <time>2022-04-06T19:45:03.486Z</time>
      </trkpt>
      <trkpt lat="51.664065" lon="8.474408">
        <ele>91.017405</ele>
        <time>2022-04-06T19:45:10.450Z</time>
      </trkpt>
      <trkpt lat="51.663102" lon="8.473599">
        <ele>92.038349</ele>
        <time>2022-04-06T19:45:30.694Z</time>
      </trkpt>
      <trkpt lat="51.662737" lon="8.473060">
        <ele>92.392622</ele>
        <time>2022-04-06T19:45:39.542Z</time>
      </trkpt>
      <trkpt lat="51.662411" lon="8.472709">
        <ele>92.576639</ele>
        <time>2022-04-06T19:45:46.471Z</time>
      </trkpt>
      <trkpt lat="51.661886" lon="8.472093">
        <ele>92.881439</ele>
        <time>2022-04-06T19:45:57.150Z</time>
      </trkpt>
      <trkpt lat="51.661205" lon="8.471270">
        <ele>93.270434</ele>
        <time>2022-04-06T19:46:10.571Z</time>
      </trkpt>
      <trkpt lat="51.661113" lon="8.470232">
        <ele>93.554999</ele>
        <time>2022-04-06T19:46:24.396Z</time>
      </trkpt>
      <trkpt lat="51.660936" lon="8.469561">
        <ele>93.752884</ele>
        <time>2022-04-06T19:46:34.258Z</time>
      </trkpt>
      <trkpt lat="51.659623" lon="8.464631">
        <ele>96.174211</ele>
        <time>2022-04-06T19:47:51.877Z</time>
      </trkpt>
      <trkpt lat="51.659482" lon="8.464365">
        <ele>96.338959</ele>
        <time>2022-04-06T19:47:56.967Z</time>
      </trkpt>
      <trkpt lat="51.658732" lon="8.463720">
        <ele>96.980235</ele>
        <time>2022-04-06T19:48:16.767Z</time>
      </trkpt>
      <trkpt lat="51.658636" lon="8.463647">
        <ele>97.059832</ele>
        <time>2022-04-06T19:48:19.223Z</time>
      </trkpt>
      <trkpt lat="51.658477" lon="8.463520">
        <ele>97.192898</ele>
        <time>2022-04-06T19:48:23.322Z</time>
      </trkpt>
      <trkpt lat="51.658376" lon="8.463362">
        <ele>97.298438</ele>
        <time>2022-04-06T19:48:25.800Z</time>
      </trkpt>
      <trkpt lat="51.658261" lon="8.462986">
        <ele>97.493454</ele>
        <time>2022-04-06T19:48:30.352Z</time>
      </trkpt>
      <trkpt lat="51.657205" lon="8.456459">
        <ele>100.564303</ele>
        <time>2022-04-06T19:49:44.849Z</time>
      </trkpt>
      <trkpt lat="51.657088" lon="8.455710">
        <ele>100.831036</ele>
        <time>2022-04-06T19:49:53.233Z</time>
      </trkpt>
      <trkpt lat="51.656858" lon="8.454272">
        <ele>101.306607</ele>
        <time>2022-04-06T19:50:08.922Z</time>
      </trkpt>
      <trkpt lat="51.656802" lon="8.453918">
        <ele>101.423601</ele>
        <time>2022-04-06T19:50:12.804Z</time>
      </trkpt>
      <trkpt lat="51.656723" lon="8.452980">
        <ele>101.692933</ele>
        <time>2022-04-06T19:50:22.219Z</time>
      </trkpt>
      <trkpt lat="51.656699" lon="8.452873">
        <ele>101.721923</ele>
        <time>2022-04-06T19:50:23.293Z</time>
      </trkpt>
      <trkpt lat="51.656664" lon="8.452899">
        <ele>101.737750</ele>
        <time>2022-04-06T19:50:23.921Z</time>
      </trkpt>
      <trkpt lat="51.656351" lon="8.453172">
        <ele>101.883913</ele>
        <time>2022-04-06T19:50:29.511Z</time>
      </trkpt>
      <trkpt lat="51.654945" lon="8.454417">
        <ele>102.525736</ele>
        <time>2022-04-06T19:50:56.449Z</time>
      </trkpt>
      <trkpt lat="51.654906" lon="8.454452">
        <ele>102.542783</ele>
        <time>2022-04-06T19:50:57.181Z</time>
      </trkpt>
      <trkpt lat="51.654053" lon="8.455211">
        <ele>102.914887</ele>
        <time>2022-04-06T19:51:13.006Z</time>
      </trkpt>
      <trkpt lat="51.653664" lon="8.455557">
        <ele>102.942722</ele>
        <time>2022-04-06T19:51:20.038Z</time>
      </trkpt>
      <trkpt lat="51.653293" lon="8.455888">
        <ele>102.869398</ele>
        <time>2022-04-06T19:51:26.536Z</time>
      </trkpt>
      <trkpt lat="51.652308" lon="8.456766">
        <ele>102.671145</ele>
        <time>2022-04-06T19:51:42.078Z</time>
      </trkpt>
      <trkpt lat="51.652228" lon="8.456835">
        <ele>102.606068</ele>
        <time>2022-04-06T19:51:43.266Z</time>
      </trkpt>
      <trkpt lat="51.650408" lon="8.458444">
        <ele>101.104548</ele>
        <time>2022-04-06T19:52:09.375Z</time>
      </trkpt>
      <trkpt lat="51.648997" lon="8.459693">
        <ele>99.975963</ele>
        <time>2022-04-06T19:52:29.602Z</time>
      </trkpt>
      <trkpt lat="51.645627" lon="8.462680">
        <ele>99.106047</ele>
        <time>2022-04-06T19:53:23.962Z</time>
      </trkpt>
      <trkpt lat="51.645435" lon="8.462849">
        <ele>99.106823</ele>
        <time>2022-04-06T19:53:27.115Z</time>
      </trkpt>
      <trkpt lat="51.642714" lon="8.465239">
        <ele>99.558235</ele>
        <time>2022-04-06T19:54:14.357Z</time>
      </trkpt>
      <trkpt lat="51.642602" lon="8.465348">
        <ele>99.675973</ele>
        <time>2022-04-06T19:54:16.800Z</time>
      </trkpt>
      <trkpt lat="51.641610" lon="8.466225">
        <ele>100.694142</ele>
        <time>2022-04-06T19:54:38.287Z</time>
      </trkpt>
      <trkpt lat="51.640981" lon="8.466684">
        <ele>101.363949</ele>
        <time>2022-04-06T19:54:51.599Z</time>
      </trkpt>
      <trkpt lat="51.640851" lon="8.466747">
        <ele>101.507392</ele>
        <time>2022-04-06T19:54:54.153Z</time>
      </trkpt>
      <trkpt lat="51.640293" lon="8.466876">
        <ele>102.103044</ele>
        <time>2022-04-06T19:55:05.133Z</time>
      </trkpt>
      <trkpt lat="51.639409" lon="8.467072">
        <ele>103.042218</ele>
        <time>2022-04-06T19:55:21.781Z</time>
      </trkpt>
      <trkpt lat="51.639404" lon="8.467228">
        <ele>103.141136</ele>
        <time>2022-04-06T19:55:23.561Z</time>
      </trkpt>
      <trkpt lat="51.639319" lon="8.467968">
        <ele>103.617697</ele>
        <time>2022-04-06T19:55:32.358Z</time>
      </trkpt>
      <trkpt lat="51.639179" lon="8.469463">
        <ele>104.575120</ele>
        <time>2022-04-06T19:55:50.768Z</time>
      </trkpt>
      <trkpt lat="51.639121" lon="8.471036">
        <ele>105.065686</ele>
        <time>2022-04-06T19:56:07.811Z</time>
      </trkpt>
      <trkpt lat="51.639144" lon="8.471579">
        <ele>105.191740</ele>
        <time>2022-04-06T19:56:13.032Z</time>
      </trkpt>
      <trkpt lat="51.639151" lon="8.471625">
        <ele>105.202710</ele>
        <time>2022-04-06T19:56:13.464Z</time>
      </trkpt>
      <trkpt lat="51.639380" lon="8.472373">
        <ele>105.395881</ele>
        <time>2022-04-06T19:56:21.110Z</time>
      </trkpt>
      <trkpt lat="51.639141" lon="8.472530">
        <ele>105.468639</ele>
        <time>2022-04-06T19:56:26.378Z</time>
      </trkpt>
      <trkpt lat="51.639110" lon="8.472548">
        <ele>105.474876</ele>
        <time>2022-04-06T19:56:27.051Z</time>
      </trkpt>
      <trkpt lat="51.638851" lon="8.472701">
        <ele>105.527087</ele>
        <time>2022-04-06T19:56:32.826Z</time>
      </trkpt>
      <trkpt lat="51.638314" lon="8.472611">
        <ele>105.629273</ele>
        <time>2022-04-06T19:56:44.113Z</time>
      </trkpt>
      <trkpt lat="51.638233" lon="8.472594">
        <ele>105.644733</ele>
        <time>2022-04-06T19:56:45.701Z</time>
      </trkpt>
      <trkpt lat="51.638074" lon="8.472525">
        <ele>105.675899</ele>
        <time>2022-04-06T19:56:49.156Z</time>
      </trkpt>
      <trkpt lat="51.637886" lon="8.472443">
        <ele>105.712762</ele>
        <time>2022-04-06T19:56:53.081Z</time>
      </trkpt>
      <trkpt lat="51.637856" lon="8.472430">
        <ele>105.718642</ele>
        <time>2022-04-06T19:56:53.727Z</time>
      </trkpt>
      <trkpt lat="51.637253" lon="8.472207">
        <ele>105.936633</ele>
        <time>2022-04-06T19:57:07.197Z</time>
      </trkpt>
      <trkpt lat="51.636989" lon="8.472189">
        <ele>106.085741</ele>
        <time>2022-04-06T19:57:13.235Z</time>
      </trkpt>
      <trkpt lat="51.636293" lon="8.472153">
        <ele>106.478693</ele>
        <time>2022-04-06T19:57:29.615Z</time>
      </trkpt>
      <trkpt lat="51.634976" lon="8.472139">
        <ele>107.039910</ele>
        <time>2022-04-06T19:57:58.210Z</time>
      </trkpt>
      <trkpt lat="51.634173" lon="8.472097">
        <ele>107.297820</ele>
        <time>2022-04-06T19:58:15.221Z</time>
      </trkpt>
      <trkpt lat="51.633745" lon="8.472115">
        <ele>107.552418</ele>
        <time>2022-04-06T19:58:24.515Z</time>
      </trkpt>
      <trkpt lat="51.632932" lon="8.472149">
        <ele>108.340089</ele>
        <time>2022-04-06T19:58:43.015Z</time>
      </trkpt>
      <trkpt lat="51.630871" lon="8.474644">
        <ele>111.787788</ele>
        <time>2022-04-06T19:59:50.612Z</time>
      </trkpt>
      <trkpt lat="51.630445" lon="8.475056">
        <ele>112.601827</ele>
        <time>2022-04-06T20:00:03.659Z</time>
      </trkpt>
      <trkpt lat="51.629741" lon="8.475982">
        <ele>114.097290</ele>
        <time>2022-04-06T20:00:27.883Z</time>
      </trkpt>
      <trkpt lat="51.628186" lon="8.477397">
        <ele>117.277139</ele>
        <time>2022-04-06T20:01:17.120Z</time>
      </trkpt>
      <trkpt lat="51.627439" lon="8.477873">
        <ele>118.588731</ele>
        <time>2022-04-06T20:01:39.267Z</time>
      </trkpt>
      <trkpt lat="51.625726" lon="8.478974">
        <ele>120.914333</ele>
        <time>2022-04-06T20:02:26.375Z</time>
      </trkpt>
      <trkpt lat="51.624393" lon="8.479285">
        <ele>121.909066</ele>
        <time>2022-04-06T20:02:56.353Z</time>
      </trkpt>
      <trkpt lat="51.624330" lon="8.479300">
        <ele>121.960383</ele>
        <time>2022-04-06T20:02:57.770Z</time>
      </trkpt>
      <trkpt lat="51.623735" lon="8.479439">
        <ele>122.489573</ele>
        <time>2022-04-06T20:03:11.597Z</time>
      </trkpt>
      <trkpt lat="51.623363" lon="8.480272">
        <ele>123.050290</ele>
        <time>2022-04-06T20:03:26.491Z</time>
      </trkpt>
      <trkpt lat="51.623310" lon="8.480405">
        <ele>123.136651</ele>
        <time>2022-04-06T20:03:28.853Z</time>
      </trkpt>
      <trkpt lat="51.622913" lon="8.481402">
        <ele>124.029800</ele>
        <time>2022-04-06T20:03:47.329Z</time>
      </trkpt>
      <trkpt lat="51.622739" lon="8.481819">
        <ele>124.557234</ele>
        <time>2022-04-06T20:03:55.907Z</time>
      </trkpt>
      <trkpt lat="51.619506" lon="8.483779">
        <ele>130.841865</ele>
        <time>2022-04-06T20:05:30.936Z</time>
      </trkpt>
      <trkpt lat="51.618917" lon="8.484561">
        <ele>132.451619</ele>
        <time>2022-04-06T20:05:52.381Z</time>
      </trkpt>
      <trkpt lat="51.618066" lon="8.487582">
        <ele>137.204466</ele>
        <time>2022-04-06T20:06:54.638Z</time>
      </trkpt>
      <trkpt lat="51.611592" lon="8.486221">
        <ele>148.774575</ele>
        <time>2022-04-06T20:09:57.378Z</time>
      </trkpt>
      <trkpt lat="51.611593" lon="8.481431">
        <ele>148.325405</ele>
        <time>2022-04-06T20:10:34.669Z</time>
      </trkpt>
      <trkpt lat="51.609954" lon="8.481509">
        <ele>150.341918</ele>
        <time>2022-04-06T20:11:08.938Z</time>
      </trkpt>
      <trkpt lat="51.609113" lon="8.481352">
        <ele>152.488437</ele>
        <time>2022-04-06T20:11:29.902Z</time>
      </trkpt>
      <trkpt lat="51.603689" lon="8.481276">
        <ele>166.293009</ele>
        <time>2022-04-06T20:13:46.770Z</time>
      </trkpt>
      <trkpt lat="51.602549" lon="8.481111">
        <ele>169.228269</ele>
        <time>2022-04-06T20:14:15.865Z</time>
      </trkpt>
      <trkpt lat="51.601821" lon="8.481006">
        <ele>171.037807</ele>
        <time>2022-04-06T20:14:33.653Z</time>
      </trkpt>
      <trkpt lat="51.601112" lon="8.480941">
        <ele>172.795931</ele>
        <time>2022-04-06T20:14:50.945Z</time>
      </trkpt>
      <trkpt lat="51.599945" lon="8.481544">
        <ele>176.056095</ele>
        <time>2022-04-06T20:15:22.720Z</time>
      </trkpt>
      <trkpt lat="51.599228" lon="8.481754">
        <ele>177.977489</ele>
        <time>2022-04-06T20:15:41.482Z</time>
      </trkpt>
      <trkpt lat="51.597440" lon="8.482105">
        <ele>182.041870</ele>
        <time>2022-04-06T20:16:24.528Z</time>
      </trkpt>
      <trkpt lat="51.596348" lon="8.482459">
        <ele>184.072571</ele>
        <time>2022-04-06T20:16:48.057Z</time>
      </trkpt>
      <trkpt lat="51.595396" lon="8.482866">
        <ele>186.103010</ele>
        <time>2022-04-06T20:17:10.051Z</time>
      </trkpt>
      <trkpt lat="51.592654" lon="8.483545">
        <ele>192.941053</ele>
        <time>2022-04-06T20:18:20.831Z</time>
      </trkpt>
      <trkpt lat="51.587200" lon="8.487132">
        <ele>204.801929</ele>
        <time>2022-04-06T20:20:35.062Z</time>
      </trkpt>
      <trkpt lat="51.587439" lon="8.488977">
        <ele>206.945170</ele>
        <time>2022-04-06T20:20:59.659Z</time>
      </trkpt>
      <trkpt lat="51.587308" lon="8.491799">
        <ele>210.903580</ele>
        <time>2022-04-06T20:21:41.156Z</time>
      </trkpt>
      <trkpt lat="51.587334" lon="8.493183">
        <ele>213.138032</ele>
        <time>2022-04-06T20:22:03.873Z</time>
      </trkpt>
      <trkpt lat="51.587334" lon="8.493183">
        <ele>213.138032</ele>
        <time>2022-04-06T20:22:03.885Z</time>
      </trkpt>
      <trkpt lat="51.587334" lon="8.493183">
        <ele>213.138032</ele>
        <time>2022-04-06T20:22:03.886Z</time>
      </trkpt>
      <trkpt lat="51.587221" lon="8.494187">
        <ele>215.013502</ele>
        <time>2022-04-06T20:22:20.834Z</time>
      </trkpt>
      <trkpt lat="51.587017" lon="8.495537">
        <ele>217.567258</ele>
        <time>2022-04-06T20:22:44.253Z</time>
      </trkpt>
      <trkpt lat="51.586740" lon="8.498417">
        <ele>222.720220</ele>
        <time>2022-04-06T20:23:31.943Z</time>
      </trkpt>
      <trkpt lat="51.586375" lon="8.501326">
        <ele>227.435461</ele>
        <time>2022-04-06T20:24:17.842Z</time>
      </trkpt>
      <trkpt lat="51.586262" lon="8.502949">
        <ele>229.690353</ele>
        <time>2022-04-06T20:24:42.257Z</time>
      </trkpt>
      <trkpt lat="51.585859" lon="8.504827">
        <ele>232.224523</ele>
        <time>2022-04-06T20:25:10.768Z</time>
      </trkpt>
      <trkpt lat="51.585564" lon="8.506199">
        <ele>233.807306</ele>
        <time>2022-04-06T20:25:30.696Z</time>
      </trkpt>
      <trkpt lat="51.585374" lon="8.507103">
        <ele>234.662403</ele>
        <time>2022-04-06T20:25:43.035Z</time>
      </trkpt>
      <trkpt lat="51.585349" lon="8.507495">
        <ele>234.766528</ele>
        <time>2022-04-06T20:25:47.888Z</time>
      </trkpt>
      <trkpt lat="51.585325" lon="8.507931">
        <ele>234.882186</ele>
        <time>2022-04-06T20:25:52.962Z</time>
      </trkpt>
      <trkpt lat="51.585241" lon="8.509732">
        <ele>235.359415</ele>
        <time>2022-04-06T20:26:10.607Z</time>
      </trkpt>
      <trkpt lat="51.585157" lon="8.511401">
        <ele>233.459432</ele>
        <time>2022-04-06T20:26:22.918Z</time>
      </trkpt>
      <trkpt lat="51.585060" lon="8.513404">
        <ele>230.430018</ele>
        <time>2022-04-06T20:26:35.689Z</time>
      </trkpt>
      <trkpt lat="51.585050" lon="8.513598">
        <ele>230.025084</ele>
        <time>2022-04-06T20:26:36.903Z</time>
      </trkpt>
      <trkpt lat="51.585022" lon="8.513917">
        <ele>229.354931</ele>
        <time>2022-04-06T20:26:38.877Z</time>
      </trkpt>
      <trkpt lat="51.584924" lon="8.514248">
        <ele>228.592234</ele>
        <time>2022-04-06T20:26:41.138Z</time>
      </trkpt>
      <trkpt lat="51.584713" lon="8.514652">
        <ele>227.494413</ele>
        <time>2022-04-06T20:26:44.340Z</time>
      </trkpt>
      <trkpt lat="51.584270" lon="8.515291">
        <ele>225.842623</ele>
        <time>2022-04-06T20:26:50.330Z</time>
      </trkpt>
      <trkpt lat="51.583938" lon="8.515683">
        <ele>225.442253</ele>
        <time>2022-04-06T20:26:54.663Z</time>
      </trkpt>
      <trkpt lat="51.583634" lon="8.516043">
        <ele>225.075269</ele>
        <time>2022-04-06T20:26:58.917Z</time>
      </trkpt>
      <trkpt lat="51.583624" lon="8.516193">
        <ele>224.984124</ele>
        <time>2022-04-06T20:26:59.923Z</time>
      </trkpt>
      <trkpt lat="51.581932" lon="8.516438">
        <ele>226.600670</ele>
        <time>2022-04-06T20:27:32.294Z</time>
      </trkpt>
      <trkpt lat="51.581584" lon="8.516499">
        <ele>227.495626</ele>
        <time>2022-04-06T20:27:42.651Z</time>
      </trkpt>
      <trkpt lat="51.581471" lon="8.516557">
        <ele>227.798860</ele>
        <time>2022-04-06T20:27:46.602Z</time>
      </trkpt>
      <trkpt lat="51.581019" lon="8.517097">
        <ele>229.570077</ele>
        <time>2022-04-06T20:28:04.488Z</time>
      </trkpt>
      <trkpt lat="51.580511" lon="8.517774">
        <ele>232.632486</ele>
        <time>2022-04-06T20:28:26.563Z</time>
      </trkpt>
      <trkpt lat="51.580190" lon="8.518203">
        <ele>234.569828</ele>
        <time>2022-04-06T20:28:41.087Z</time>
      </trkpt>
      <trkpt lat="51.580039" lon="8.518577">
        <ele>235.856655</ele>
        <time>2022-04-06T20:28:50.675Z</time>
      </trkpt>
      <trkpt lat="51.579711" lon="8.519734">
        <ele>239.119236</ele>
        <time>2022-04-06T20:29:16.582Z</time>
      </trkpt>
      <trkpt lat="51.579529" lon="8.520392">
        <ele>240.836764</ele>
        <time>2022-04-06T20:29:30.482Z</time>
      </trkpt>
      <trkpt lat="51.579253" lon="8.520731">
        <ele>242.169158</ele>
        <time>2022-04-06T20:29:40.352Z</time>
      </trkpt>
      <trkpt lat="51.578777" lon="8.521255">
        <ele>244.295038</ele>
        <time>2022-04-06T20:29:56.114Z</time>
      </trkpt>
      <trkpt lat="51.578640" lon="8.521185">
        <ele>244.685058</ele>
        <time>2022-04-06T20:30:00.572Z</time>
      </trkpt>
      <trkpt lat="51.578004" lon="8.521332">
        <ele>246.428472</ele>
        <time>2022-04-06T20:30:17.581Z</time>
      </trkpt>
      <trkpt lat="51.577740" lon="8.521288">
        <ele>247.148633</ele>
        <time>2022-04-06T20:30:24.399Z</time>
      </trkpt>
      <trkpt lat="51.577445" lon="8.521154">
        <ele>247.980358</ele>
        <time>2022-04-06T20:30:32.163Z</time>
      </trkpt>
      <trkpt lat="51.577225" lon="8.520949">
        <ele>248.670164</ele>
        <time>2022-04-06T20:30:38.520Z</time>
      </trkpt>
      <trkpt lat="51.577140" lon="8.520791">
        <ele>248.982939</ele>
        <time>2022-04-06T20:30:41.396Z</time>
      </trkpt>
      <trkpt lat="51.577036" lon="8.520427">
        <ele>249.195226</ele>
        <time>2022-04-06T20:30:46.702Z</time>
      </trkpt>
      <trkpt lat="51.576983" lon="8.519501">
        <ele>249.687979</ele>
        <time>2022-04-06T20:30:58.844Z</time>
      </trkpt>
      <trkpt lat="51.576849" lon="8.518542">
        <ele>250.208830</ele>
        <time>2022-04-06T20:31:09.189Z</time>
      </trkpt>
      <trkpt lat="51.576782" lon="8.518344">
        <ele>250.328293</ele>
        <time>2022-04-06T20:31:11.242Z</time>
      </trkpt>
      <trkpt lat="51.576443" lon="8.517351">
        <ele>250.013768</ele>
        <time>2022-04-06T20:31:20.333Z</time>
      </trkpt>
      <trkpt lat="51.576216" lon="8.516946">
        <ele>249.688241</ele>
        <time>2022-04-06T20:31:24.390Z</time>
      </trkpt>
      <trkpt lat="51.575482" lon="8.515734">
        <ele>248.745364</ele>
        <time>2022-04-06T20:31:36.695Z</time>
      </trkpt>
      <trkpt lat="51.574532" lon="8.513510">
        <ele>248.301545</ele>
        <time>2022-04-06T20:31:58.710Z</time>
      </trkpt>
      <trkpt lat="51.574067" lon="8.512660">
        <ele>250.884624</ele>
        <time>2022-04-06T20:32:15.663Z</time>
      </trkpt>
      <trkpt lat="51.571954" lon="8.509215">
        <ele>264.661365</ele>
        <time>2022-04-06T20:34:04.385Z</time>
      </trkpt>
      <trkpt lat="51.571624" lon="8.508438">
        <ele>266.284188</ele>
        <time>2022-04-06T20:34:21.660Z</time>
      </trkpt>
      <trkpt lat="51.571217" lon="8.506403">
        <ele>269.739151</ele>
        <time>2022-04-06T20:34:51.292Z</time>
      </trkpt>
      <trkpt lat="51.571212" lon="8.506376">
        <ele>269.767943</ele>
        <time>2022-04-06T20:34:51.632Z</time>
      </trkpt>
      <trkpt lat="51.570961" lon="8.505122">
        <ele>271.114283</ele>
        <time>2022-04-06T20:35:07.582Z</time>
      </trkpt>
      <trkpt lat="51.570823" lon="8.504736">
        <ele>271.569360</ele>
        <time>2022-04-06T20:35:13.387Z</time>
      </trkpt>
      <trkpt lat="51.569852" lon="8.503702">
        <ele>274.005376</ele>
        <time>2022-04-06T20:35:40.861Z</time>
      </trkpt>
      <trkpt lat="51.568956" lon="8.502747">
        <ele>276.592285</ele>
        <time>2022-04-06T20:36:08.244Z</time>
      </trkpt>
      <trkpt lat="51.568466" lon="8.502394">
        <ele>277.683594</ele>
        <time>2022-04-06T20:36:21.267Z</time>
      </trkpt>
      <trkpt lat="51.567684" lon="8.502073">
        <ele>279.299660</ele>
        <time>2022-04-06T20:36:39.871Z</time>
      </trkpt>
      <trkpt lat="51.567379" lon="8.501861">
        <ele>279.964966</ele>
        <time>2022-04-06T20:36:47.111Z</time>
      </trkpt>
      <trkpt lat="51.566260" lon="8.500259">
        <ele>281.893889</ele>
        <time>2022-04-06T20:37:16.655Z</time>
      </trkpt>
      <trkpt lat="51.564364" lon="8.496489">
        <ele>285.431489</ele>
        <time>2022-04-06T20:38:13.319Z</time>
      </trkpt>
      <trkpt lat="51.564059" lon="8.496010">
        <ele>286.097916</ele>
        <time>2022-04-06T20:38:22.422Z</time>
      </trkpt>
      <trkpt lat="51.563669" lon="8.495701">
        <ele>286.777616</ele>
        <time>2022-04-06T20:38:32.325Z</time>
      </trkpt>
      <trkpt lat="51.562865" lon="8.495382">
        <ele>288.846387</ele>
        <time>2022-04-06T20:38:52.207Z</time>
      </trkpt>
      <trkpt lat="51.562577" lon="8.495267">
        <ele>289.667604</ele>
        <time>2022-04-06T20:38:59.705Z</time>
      </trkpt>
      <trkpt lat="51.562051" lon="8.495302">
        <ele>291.124533</ele>
        <time>2022-04-06T20:39:13.249Z</time>
      </trkpt>
      <trkpt lat="51.561899" lon="8.495332">
        <ele>291.548342</ele>
        <time>2022-04-06T20:39:17.471Z</time>
      </trkpt>
      <trkpt lat="51.561686" lon="8.495376">
        <ele>292.178390</ele>
        <time>2022-04-06T20:39:24.435Z</time>
      </trkpt>
      <trkpt lat="51.560848" lon="8.495426">
        <ele>295.346755</ele>
        <time>2022-04-06T20:39:49.568Z</time>
      </trkpt>
      <trkpt lat="51.560706" lon="8.495334">
        <ele>295.925154</ele>
        <time>2022-04-06T20:39:54.132Z</time>
      </trkpt>
      <trkpt lat="51.560477" lon="8.495020">
        <ele>297.062079</ele>
        <time>2022-04-06T20:40:02.806Z</time>
      </trkpt>
      <trkpt lat="51.560364" lon="8.494966">
        <ele>297.507466</ele>
        <time>2022-04-06T20:40:07.176Z</time>
      </trkpt>
      <trkpt lat="51.559588" lon="8.494967">
        <ele>300.549767</ele>
        <time>2022-04-06T20:40:30.059Z</time>
      </trkpt>
      <trkpt lat="51.559377" lon="8.494806">
        <ele>301.493042</ele>
        <time>2022-04-06T20:40:36.993Z</time>
      </trkpt>
      <trkpt lat="51.559091" lon="8.494405">
        <ele>303.025488</ele>
        <time>2022-04-06T20:40:49.758Z</time>
      </trkpt>
      <trkpt lat="51.558972" lon="8.494304">
        <ele>303.568948</ele>
        <time>2022-04-06T20:40:54.358Z</time>
      </trkpt>
      <trkpt lat="51.558754" lon="8.494250">
        <ele>304.459846</ele>
        <time>2022-04-06T20:41:01.189Z</time>
      </trkpt>
      <trkpt lat="51.558279" lon="8.494329">
        <ele>306.319739</ele>
        <time>2022-04-06T20:41:15.859Z</time>
      </trkpt>
      <trkpt lat="51.557788" lon="8.494788">
        <ele>308.055576</ele>
        <time>2022-04-06T20:41:32.249Z</time>
      </trkpt>
      <trkpt lat="51.557318" lon="8.495362">
        <ele>309.859354</ele>
        <time>2022-04-06T20:41:47.670Z</time>
      </trkpt>
      <trkpt lat="51.556875" lon="8.495925">
        <ele>311.585090</ele>
        <time>2022-04-06T20:42:02.441Z</time>
      </trkpt>
      <trkpt lat="51.556652" lon="8.496095">
        <ele>311.871622</ele>
        <time>2022-04-06T20:42:08.456Z</time>
      </trkpt>
      <trkpt lat="51.556507" lon="8.496088">
        <ele>312.033342</ele>
        <time>2022-04-06T20:42:11.734Z</time>
      </trkpt>
      <trkpt lat="51.556393" lon="8.496083">
        <ele>312.160477</ele>
        <time>2022-04-06T20:42:14.198Z</time>
      </trkpt>
      <trkpt lat="51.556379" lon="8.496450">
        <ele>312.415333</ele>
        <time>2022-04-06T20:42:18.905Z</time>
      </trkpt>
      <trkpt lat="51.556294" lon="8.497708">
        <ele>313.292419</ele>
        <time>2022-04-06T20:42:32.304Z</time>
      </trkpt>
      <trkpt lat="51.555911" lon="8.498704">
        <ele>313.433815</ele>
        <time>2022-04-06T20:42:43.983Z</time>
      </trkpt>
      <trkpt lat="51.553476" lon="8.504840">
        <ele>311.867043</ele>
        <time>2022-04-06T20:43:43.883Z</time>
      </trkpt>
      <trkpt lat="51.553415" lon="8.505089">
        <ele>311.826945</ele>
        <time>2022-04-06T20:43:46.420Z</time>
      </trkpt>
      <trkpt lat="51.553124" lon="8.508143">
        <ele>312.777514</ele>
        <time>2022-04-06T20:44:19.721Z</time>
      </trkpt>
      <trkpt lat="51.552996" lon="8.510884">
        <ele>314.046944</ele>
        <time>2022-04-06T20:44:51.116Z</time>
      </trkpt>
      <trkpt lat="51.552934" lon="8.512032">
        <ele>314.236843</ele>
        <time>2022-04-06T20:45:02.731Z</time>
      </trkpt>
      <trkpt lat="51.552872" lon="8.512725">
        <ele>314.254269</ele>
        <time>2022-04-06T20:45:09.336Z</time>
      </trkpt>
      <trkpt lat="51.552723" lon="8.512983">
        <ele>314.263033</ele>
        <time>2022-04-06T20:45:12.363Z</time>
      </trkpt>
      <trkpt lat="51.552573" lon="8.513128">
        <ele>314.270039</ele>
        <time>2022-04-06T20:45:15.027Z</time>
      </trkpt>
      <trkpt lat="51.552590" lon="8.513388">
        <ele>314.276546</ele>
        <time>2022-04-06T20:45:17.191Z</time>
      </trkpt>
      <trkpt lat="51.552981" lon="8.514169">
        <ele>314.322930</ele>
        <time>2022-04-06T20:45:25.614Z</time>
      </trkpt>
      <trkpt lat="51.553270" lon="8.514762">
        <ele>314.374331</ele>
        <time>2022-04-06T20:45:31.986Z</time>
      </trkpt>
      <trkpt lat="51.553389" lon="8.515168">
        <ele>314.404952</ele>
        <time>2022-04-06T20:45:36.385Z</time>
      </trkpt>
      <trkpt lat="51.553427" lon="8.515587">
        <ele>314.433840</ele>
        <time>2022-04-06T20:45:40.501Z</time>
      </trkpt>
      <trkpt lat="51.553399" lon="8.516033">
        <ele>314.464421</ele>
        <time>2022-04-06T20:45:45.108Z</time>
      </trkpt>
      <trkpt lat="51.550721" lon="8.525793">
        <ele>317.335769</ele>
        <time>2022-04-06T20:47:48.453Z</time>
      </trkpt>
      <trkpt lat="51.550181" lon="8.527678">
        <ele>310.505180</ele>
        <time>2022-04-06T20:48:00.322Z</time>
      </trkpt>
      <trkpt lat="51.550053" lon="8.527875">
        <ele>308.751160</ele>
        <time>2022-04-06T20:48:01.834Z</time>
      </trkpt>
      <trkpt lat="51.549900" lon="8.527856">
        <ele>307.231947</ele>
        <time>2022-04-06T20:48:03.169Z</time>
      </trkpt>
      <trkpt lat="51.548234" lon="8.527115">
        <ele>289.051811</ele>
        <time>2022-04-06T20:48:17.762Z</time>
      </trkpt>
      <trkpt lat="51.547919" lon="8.526866">
        <ele>285.101608</ele>
        <time>2022-04-06T20:48:20.739Z</time>
      </trkpt>
      <trkpt lat="51.547203" lon="8.526075">
        <ele>275.661518</ele>
        <time>2022-04-06T20:48:28.213Z</time>
      </trkpt>
      <trkpt lat="51.546711" lon="8.525531">
        <ele>269.900762</ele>
        <time>2022-04-06T20:48:33.431Z</time>
      </trkpt>
      <trkpt lat="51.546430" lon="8.525456">
        <ele>267.152542</ele>
        <time>2022-04-06T20:48:35.942Z</time>
      </trkpt>
      <trkpt lat="51.545576" lon="8.525532">
        <ele>258.684483</ele>
        <time>2022-04-06T20:48:43.278Z</time>
      </trkpt>
      <trkpt lat="51.545314" lon="8.525556">
        <ele>255.769550</ele>
        <time>2022-04-06T20:48:45.519Z</time>
      </trkpt>
      <trkpt lat="51.545044" lon="8.525723">
        <ele>252.556253</ele>
        <time>2022-04-06T20:48:47.955Z</time>
      </trkpt>
      <trkpt lat="51.544411" lon="8.526542">
        <ele>243.531535</ele>
        <time>2022-04-06T20:48:54.851Z</time>
      </trkpt>
      <trkpt lat="51.544314" lon="8.526671">
        <ele>242.133323</ele>
        <time>2022-04-06T20:48:55.901Z</time>
      </trkpt>
      <trkpt lat="51.544072" lon="8.526744">
        <ele>239.779558</ele>
        <time>2022-04-06T20:48:58.053Z</time>
      </trkpt>
      <trkpt lat="51.543758" lon="8.526473">
        <ele>237.408226</ele>
        <time>2022-04-06T20:49:01.137Z</time>
      </trkpt>
      <trkpt lat="51.543619" lon="8.526392">
        <ele>236.424441</ele>
        <time>2022-04-06T20:49:02.398Z</time>
      </trkpt>
      <trkpt lat="51.542941" lon="8.525770">
        <ele>231.230307</ele>
        <time>2022-04-06T20:49:09.464Z</time>
      </trkpt>
      <trkpt lat="51.542719" lon="8.525604">
        <ele>229.601176</ele>
        <time>2022-04-06T20:49:11.971Z</time>
      </trkpt>
      <trkpt lat="51.542298" lon="8.525264">
        <ele>228.400523</ele>
        <time>2022-04-06T20:49:17.165Z</time>
      </trkpt>
      <trkpt lat="51.541801" lon="8.524978">
        <ele>228.436768</ele>
        <time>2022-04-06T20:49:24.320Z</time>
      </trkpt>
      <trkpt lat="51.541663" lon="8.524936">
        <ele>228.446412</ele>
        <time>2022-04-06T20:49:26.739Z</time>
      </trkpt>
      <trkpt lat="51.541578" lon="8.525266">
        <ele>228.461665</ele>
        <time>2022-04-06T20:49:30.891Z</time>
      </trkpt>
      <trkpt lat="51.541556" lon="8.525360">
        <ele>228.465954</ele>
        <time>2022-04-06T20:49:32.142Z</time>
      </trkpt>
      <trkpt lat="51.541473" lon="8.525726">
        <ele>228.482591</ele>
        <time>2022-04-06T20:49:36.926Z</time>
      </trkpt>
      <trkpt lat="51.541419" lon="8.525984">
        <ele>228.494215</ele>
        <time>2022-04-06T20:49:40.497Z</time>
      </trkpt>
      <trkpt lat="51.541383" lon="8.526166">
        <ele>228.502371</ele>
        <time>2022-04-06T20:49:42.966Z</time>
      </trkpt>
      <trkpt lat="51.541264" lon="8.526907">
        <ele>229.862066</ele>
        <time>2022-04-06T20:49:54.331Z</time>
      </trkpt>
      <trkpt lat="51.541223" lon="8.527220">
        <ele>230.464526</ele>
        <time>2022-04-06T20:49:59.581Z</time>
      </trkpt>
      <trkpt lat="51.541193" lon="8.527421">
        <ele>230.853853</ele>
        <time>2022-04-06T20:50:03.136Z</time>
      </trkpt>
      <trkpt lat="51.541176" lon="8.527544">
        <ele>231.091172</ele>
        <time>2022-04-06T20:50:05.214Z</time>
      </trkpt>
      <trkpt lat="51.540548" lon="8.527200">
        <ele>233.100305</ele>
        <time>2022-04-06T20:50:24.496Z</time>
      </trkpt>
      <trkpt lat="51.540403" lon="8.527188">
        <ele>233.539994</ele>
        <time>2022-04-06T20:50:28.690Z</time>
      </trkpt>
      <trkpt lat="51.540256" lon="8.527203">
        <ele>233.992634</ele>
        <time>2022-04-06T20:50:33.445Z</time>
      </trkpt>
      <trkpt lat="51.539939" lon="8.527399">
        <ele>235.215063</ele>
        <time>2022-04-06T20:50:43.710Z</time>
      </trkpt>
      <trkpt lat="51.539333" lon="8.528043">
        <ele>237.829624</ele>
        <time>2022-04-06T20:51:05.054Z</time>
      </trkpt>
      <trkpt lat="51.538939" lon="8.528311">
        <ele>239.369431</ele>
        <time>2022-04-06T20:51:17.845Z</time>
      </trkpt>
      <trkpt lat="51.537288" lon="8.528988">
        <ele>243.964047</ele>
        <time>2022-04-06T20:52:04.114Z</time>
      </trkpt>
      <trkpt lat="51.535759" lon="8.529259">
        <ele>245.081766</ele>
        <time>2022-04-06T20:52:31.789Z</time>
      </trkpt>
      <trkpt lat="51.535016" lon="8.529248">
        <ele>245.104194</ele>
        <time>2022-04-06T20:52:40.643Z</time>
      </trkpt>
      <trkpt lat="51.534797" lon="8.529188">
        <ele>244.966063</ele>
        <time>2022-04-06T20:52:43.226Z</time>
      </trkpt>
      <trkpt lat="51.534360" lon="8.528910">
        <ele>244.673847</ele>
        <time>2022-04-06T20:52:48.756Z</time>
      </trkpt>
      <trkpt lat="51.533660" lon="8.528335">
        <ele>244.185079</ele>
        <time>2022-04-06T20:52:58.448Z</time>
      </trkpt>
      <trkpt lat="51.531182" lon="8.527571">
        <ele>246.032646</ele>
        <time>2022-04-06T20:53:48.516Z</time>
      </trkpt>
      <trkpt lat="51.530432" lon="8.527534">
        <ele>246.174406</ele>
        <time>2022-04-06T20:53:59.965Z</time>
      </trkpt>
      <trkpt lat="51.529731" lon="8.527273">
        <ele>246.159610</ele>
        <time>2022-04-06T20:54:09.330Z</time>
      </trkpt>
      <trkpt lat="51.529230" lon="8.527185">
        <ele>245.807849</ele>
        <time>2022-04-06T20:54:15.395Z</time>
      </trkpt>
      <trkpt lat="51.528883" lon="8.527326">
        <ele>245.558036</ele>
        <time>2022-04-06T20:54:19.636Z</time>
      </trkpt>
      <trkpt lat="51.528320" lon="8.527744">
        <ele>245.125189</ele>
        <time>2022-04-06T20:54:27.405Z</time>
      </trkpt>
      <trkpt lat="51.527778" lon="8.528460">
        <ele>245.033855</ele>
        <time>2022-04-06T20:54:38.670Z</time>
      </trkpt>
      <trkpt lat="51.527338" lon="8.529483">
        <ele>245.049201</ele>
        <time>2022-04-06T20:54:51.633Z</time>
      </trkpt>
      <trkpt lat="51.526783" lon="8.530398">
        <ele>244.414558</ele>
        <time>2022-04-06T20:55:02.439Z</time>
      </trkpt>
      <trkpt lat="51.526252" lon="8.531315">
        <ele>242.870556</ele>
        <time>2022-04-06T20:55:11.262Z</time>
      </trkpt>
      <trkpt lat="51.526155" lon="8.531438">
        <ele>242.625794</ele>
        <time>2022-04-06T20:55:12.505Z</time>
      </trkpt>
      <trkpt lat="51.525545" lon="8.532213">
        <ele>240.964404</ele>
        <time>2022-04-06T20:55:20.379Z</time>
      </trkpt>
      <trkpt lat="51.525003" lon="8.532737">
        <ele>239.341477</ele>
        <time>2022-04-06T20:55:26.757Z</time>
      </trkpt>
      <trkpt lat="51.524430" lon="8.533292">
        <ele>237.624872</ele>
        <time>2022-04-06T20:55:33.925Z</time>
      </trkpt>
      <trkpt lat="51.523911" lon="8.534065">
        <ele>236.759724</ele>
        <time>2022-04-06T20:55:41.922Z</time>
      </trkpt>
      <trkpt lat="51.523378" lon="8.534858">
        <ele>236.550105</ele>
        <time>2022-04-06T20:55:52.116Z</time>
      </trkpt>
      <trkpt lat="51.522831" lon="8.535674">
        <ele>236.458357</ele>
        <time>2022-04-06T20:56:04.858Z</time>
      </trkpt>
      <trkpt lat="51.521662" lon="8.537366">
        <ele>238.133931</ele>
        <time>2022-04-06T20:56:35.097Z</time>
      </trkpt>
      <trkpt lat="51.521136" lon="8.538142">
        <ele>239.851032</ele>
        <time>2022-04-06T20:56:49.715Z</time>
      </trkpt>
      <trkpt lat="51.520607" lon="8.538794">
        <ele>241.660820</ele>
        <time>2022-04-06T20:57:06.537Z</time>
      </trkpt>
      <trkpt lat="51.519754" lon="8.539594">
        <ele>245.384793</ele>
        <time>2022-04-06T20:57:37.319Z</time>
      </trkpt>
      <trkpt lat="51.519826" lon="8.539759">
        <ele>246.025479</ele>
        <time>2022-04-06T20:57:42.254Z</time>
      </trkpt>
      <trkpt lat="51.520260" lon="8.540765">
        <ele>249.917152</ele>
        <time>2022-04-06T20:58:07.443Z</time>
      </trkpt>
      <trkpt lat="51.520486" lon="8.540948">
        <ele>251.210099</ele>
        <time>2022-04-06T20:58:16.842Z</time>
      </trkpt>
      <trkpt lat="51.521015" lon="8.541091">
        <ele>255.738193</ele>
        <time>2022-04-06T20:58:38.874Z</time>
      </trkpt>
      <trkpt lat="51.521269" lon="8.541424">
        <ele>259.281871</ele>
        <time>2022-04-06T20:58:55.587Z</time>
      </trkpt>
      <trkpt lat="51.521357" lon="8.541795">
        <ele>261.952650</ele>
        <time>2022-04-06T20:59:10.586Z</time>
      </trkpt>
      <trkpt lat="51.521325" lon="8.541999">
        <ele>263.367827</ele>
        <time>2022-04-06T20:59:18.416Z</time>
      </trkpt>
      <trkpt lat="51.521250" lon="8.542094">
        <ele>264.400187</ele>
        <time>2022-04-06T20:59:25.031Z</time>
      </trkpt>
      <trkpt lat="51.520906" lon="8.542103">
        <ele>268.119565</ele>
        <time>2022-04-06T20:59:48.825Z</time>
      </trkpt>
      <trkpt lat="51.519420" lon="8.542905">
        <ele>286.331650</ele>
        <time>2022-04-06T21:01:37.062Z</time>
      </trkpt>
      <trkpt lat="51.518673" lon="8.543934">
        <ele>295.024640</ele>
        <time>2022-04-06T21:02:26.893Z</time>
      </trkpt>
      <trkpt lat="51.518645" lon="8.544112">
        <ele>295.559186</ele>
        <time>2022-04-06T21:02:31.545Z</time>
      </trkpt>
      <trkpt lat="51.519045" lon="8.544102">
        <ele>297.430963</ele>
        <time>2022-04-06T21:02:43.325Z</time>
      </trkpt>
      <trkpt lat="51.519519" lon="8.544446">
        <ele>299.864408</ele>
        <time>2022-04-06T21:02:54.584Z</time>
      </trkpt>
      <trkpt lat="51.519630" lon="8.544667">
        <ele>300.691284</ele>
        <time>2022-04-06T21:02:59.127Z</time>
      </trkpt>
      <trkpt lat="51.519643" lon="8.544880">
        <ele>301.314391</ele>
        <time>2022-04-06T21:03:02.635Z</time>
      </trkpt>
      <trkpt lat="51.519512" lon="8.544984">
        <ele>301.894794</ele>
        <time>2022-04-06T21:03:07.331Z</time>
      </trkpt>
      <trkpt lat="51.519250" lon="8.544808">
        <ele>302.943360</ele>
        <time>2022-04-06T21:03:14.437Z</time>
      </trkpt>
      <trkpt lat="51.519075" lon="8.544834">
        <ele>303.592312</ele>
        <time>2022-04-06T21:03:19.320Z</time>
      </trkpt>
      <trkpt lat="51.518491" lon="8.545201">
        <ele>305.907775</ele>
        <time>2022-04-06T21:03:38.983Z</time>
      </trkpt>
      <trkpt lat="51.518250" lon="8.545671">
        <ele>307.307130</ele>
        <time>2022-04-06T21:03:51.575Z</time>
      </trkpt>
      <trkpt lat="51.518259" lon="8.546004">
        <ele>308.073001</ele>
        <time>2022-04-06T21:03:57.668Z</time>
      </trkpt>
      <trkpt lat="51.518330" lon="8.546228">
        <ele>308.637604</ele>
        <time>2022-04-06T21:04:02.439Z</time>
      </trkpt>
      <trkpt lat="51.518716" lon="8.547059">
        <ele>310.958398</ele>
        <time>2022-04-06T21:04:21.276Z</time>
      </trkpt>
      <trkpt lat="51.519015" lon="8.547925">
        <ele>313.174847</ele>
        <time>2022-04-06T21:04:38.776Z</time>
      </trkpt>
      <trkpt lat="51.519177" lon="8.548780">
        <ele>315.167722</ele>
        <time>2022-04-06T21:04:54.913Z</time>
      </trkpt>
      <trkpt lat="51.519749" lon="8.550878">
        <ele>320.226287</ele>
        <time>2022-04-06T21:05:37.028Z</time>
      </trkpt>
      <trkpt lat="51.520253" lon="8.552722">
        <ele>323.540359</ele>
        <time>2022-04-06T21:06:11.388Z</time>
      </trkpt>
      <trkpt lat="51.521574" lon="8.557996">
        <ele>329.351494</ele>
        <time>2022-04-06T21:07:24.638Z</time>
      </trkpt>
      <trkpt lat="51.520666" lon="8.559041">
        <ele>330.332306</ele>
        <time>2022-04-06T21:07:53.106Z</time>
      </trkpt>
      <trkpt lat="51.519936" lon="8.560722">
        <ele>329.876435</ele>
        <time>2022-04-06T21:08:17.420Z</time>
      </trkpt>
      <trkpt lat="51.519858" lon="8.560902">
        <ele>329.827655</ele>
        <time>2022-04-06T21:08:19.562Z</time>
      </trkpt>
      <trkpt lat="51.519649" lon="8.561495">
        <ele>329.122007</ele>
        <time>2022-04-06T21:08:26.092Z</time>
      </trkpt>
      <trkpt lat="51.519491" lon="8.561762">
        <ele>328.655561</ele>
        <time>2022-04-06T21:08:29.558Z</time>
      </trkpt>
      <trkpt lat="51.519112" lon="8.562205">
        <ele>327.702127</ele>
        <time>2022-04-06T21:08:36.584Z</time>
      </trkpt>
      <trkpt lat="51.519152" lon="8.563013">
        <ele>326.676014</ele>
        <time>2022-04-06T21:08:44.272Z</time>
      </trkpt>
      <trkpt lat="51.519243" lon="8.563717">
        <ele>326.212041</ele>
        <time>2022-04-06T21:08:51.264Z</time>
      </trkpt>
      <trkpt lat="51.519286" lon="8.566431">
        <ele>327.061932</ele>
        <time>2022-04-06T21:09:30.970Z</time>
      </trkpt>
      <trkpt lat="51.519375" lon="8.567457">
        <ele>328.514879</ele>
        <time>2022-04-06T21:09:49.803Z</time>
      </trkpt>
      <trkpt lat="51.519375" lon="8.567896">
        <ele>329.130604</ele>
        <time>2022-04-06T21:09:57.932Z</time>
      </trkpt>
      <trkpt lat="51.519502" lon="8.568539">
        <ele>330.076793</ele>
        <time>2022-04-06T21:10:10.568Z</time>
      </trkpt>
      <trkpt lat="51.519633" lon="8.569061">
        <ele>330.866229</ele>
        <time>2022-04-06T21:10:21.274Z</time>
      </trkpt>
      <trkpt lat="51.517010" lon="8.572379">
        <ele>340.993864</ele>
        <time>2022-04-06T21:11:52.646Z</time>
      </trkpt>
      <trkpt lat="51.516224" lon="8.573629">
        <ele>343.457337</ele>
        <time>2022-04-06T21:12:20.345Z</time>
      </trkpt>
      <trkpt lat="51.514953" lon="8.575654">
        <ele>345.390570</ele>
        <time>2022-04-06T21:12:57.002Z</time>
      </trkpt>
      <trkpt lat="51.517522" lon="8.585427">
        <ele>344.274064</ele>
        <time>2022-04-06T21:15:04.848Z</time>
      </trkpt>
      <trkpt lat="51.517531" lon="8.585546">
        <ele>344.075587</ele>
        <time>2022-04-06T21:15:06.103Z</time>
      </trkpt>
      <trkpt lat="51.517531" lon="8.585546">
        <ele>344.075587</ele>
        <time>2022-04-06T21:15:06.107Z</time>
      </trkpt>
      <trkpt lat="51.517803" lon="8.585095">
        <ele>343.035714</ele>
        <time>2022-04-06T21:15:10.542Z</time>
      </trkpt>
      <trkpt lat="51.522631" lon="8.590873">
        <ele>325.911232</ele>
        <time>2022-04-06T21:16:39.709Z</time>
      </trkpt>
      <trkpt lat="51.525808" lon="8.590848">
        <ele>311.096465</ele>
        <time>2022-04-06T21:17:22.807Z</time>
      </trkpt>
      <trkpt lat="51.526766" lon="8.590731">
        <ele>306.352553</ele>
        <time>2022-04-06T21:17:35.853Z</time>
      </trkpt>
      <trkpt lat="51.527273" lon="8.590782">
        <ele>303.552112</ele>
        <time>2022-04-06T21:17:42.706Z</time>
      </trkpt>
      <trkpt lat="51.527957" lon="8.591215">
        <ele>299.499481</ele>
        <time>2022-04-06T21:17:52.497Z</time>
      </trkpt>
      <trkpt lat="51.528713" lon="8.592446">
        <ele>292.643046</ele>
        <time>2022-04-06T21:18:06.581Z</time>
      </trkpt>
      <trkpt lat="51.530112" lon="8.594100">
        <ele>280.103187</ele>
        <time>2022-04-06T21:18:28.532Z</time>
      </trkpt>
      <trkpt lat="51.531375" lon="8.595971">
        <ele>268.026796</ele>
        <time>2022-04-06T21:18:50.456Z</time>
      </trkpt>
      <trkpt lat="51.531566" lon="8.596477">
        <ele>265.808178</ele>
        <time>2022-04-06T21:18:55.183Z</time>
      </trkpt>
      <trkpt lat="51.531746" lon="8.597267">
        <ele>262.654477</ele>
        <time>2022-04-06T21:19:02.066Z</time>
      </trkpt>
      <trkpt lat="51.531771" lon="8.597693">
        <ele>261.050528</ele>
        <time>2022-04-06T21:19:05.743Z</time>
      </trkpt>
      <trkpt lat="51.531689" lon="8.598003">
        <ele>259.787805</ele>
        <time>2022-04-06T21:19:08.569Z</time>
      </trkpt>
      <trkpt lat="51.531518" lon="8.598325">
        <ele>258.387674</ele>
        <time>2022-04-06T21:19:12.214Z</time>
      </trkpt>
      <trkpt lat="51.531009" lon="8.598991">
        <ele>254.929387</ele>
        <time>2022-04-06T21:19:21.233Z</time>
      </trkpt>
      <trkpt lat="51.530938" lon="8.599195">
        <ele>254.163131</ele>
        <time>2022-04-06T21:19:23.153Z</time>
      </trkpt>
      <trkpt lat="51.530962" lon="8.599367">
        <ele>253.585303</ele>
        <time>2022-04-06T21:19:24.648Z</time>
      </trkpt>
      <trkpt lat="51.531143" lon="8.599714">
        <ele>252.100892</ele>
        <time>2022-04-06T21:19:28.310Z</time>
      </trkpt>
      <trkpt lat="51.531318" lon="8.599917">
        <ele>250.963731</ele>
        <time>2022-04-06T21:19:31.139Z</time>
      </trkpt>
      <trkpt lat="51.532597" lon="8.600507">
        <ele>243.410764</ele>
        <time>2022-04-06T21:19:48.595Z</time>
      </trkpt>
      <trkpt lat="51.533050" lon="8.600543">
        <ele>240.814104</ele>
        <time>2022-04-06T21:19:54.553Z</time>
      </trkpt>
      <trkpt lat="51.533479" lon="8.600424">
        <ele>239.149732</ele>
        <time>2022-04-06T21:20:00.489Z</time>
      </trkpt>
      <trkpt lat="51.533564" lon="8.600317">
        <ele>238.852976</ele>
        <time>2022-04-06T21:20:01.900Z</time>
      </trkpt>
      <trkpt lat="51.533726" lon="8.597604">
        <ele>234.807134</ele>
        <time>2022-04-06T21:20:28.657Z</time>
      </trkpt>
      <trkpt lat="51.533624" lon="8.597009">
        <ele>234.585612</ele>
        <time>2022-04-06T21:20:36.193Z</time>
      </trkpt>
      <trkpt lat="51.533725" lon="8.596835">
        <ele>234.500192</ele>
        <time>2022-04-06T21:20:38.941Z</time>
      </trkpt>
      <trkpt lat="51.533940" lon="8.596912">
        <ele>234.373096</ele>
        <time>2022-04-06T21:20:43.316Z</time>
      </trkpt>
      <trkpt lat="51.533940" lon="8.596912">
        <ele>234.373096</ele>
        <time>2022-04-06T21:20:43.322Z</time>
      </trkpt>
      <trkpt lat="51.533766" lon="8.600195">
        <ele>234.442151</ele>
        <time>2022-04-06T21:21:12.744Z</time>
      </trkpt>
      <trkpt lat="51.533760" lon="8.600938">
        <ele>234.625302</ele>
        <time>2022-04-06T21:21:21.928Z</time>
      </trkpt>
      <trkpt lat="51.533812" lon="8.601799">
        <ele>235.612963</ele>
        <time>2022-04-06T21:21:33.662Z</time>
      </trkpt>
      <trkpt lat="51.534010" lon="8.603181">
        <ele>237.363155</ele>
        <time>2022-04-06T21:21:54.692Z</time>
      </trkpt>
      <trkpt lat="51.534132" lon="8.604514">
        <ele>238.720711</ele>
        <time>2022-04-06T21:22:14.607Z</time>
      </trkpt>
      <trkpt lat="51.534118" lon="8.605551">
        <ele>239.519795</ele>
        <time>2022-04-06T21:22:27.993Z</time>
      </trkpt>
      <trkpt lat="51.534000" lon="8.606940">
        <ele>240.458028</ele>
        <time>2022-04-06T21:22:42.923Z</time>
      </trkpt>
      <trkpt lat="51.533161" lon="8.613924">
        <ele>241.446673</ele>
        <time>2022-04-06T21:23:50.119Z</time>
      </trkpt>
      <trkpt lat="51.532836" lon="8.616387">
        <ele>242.751385</ele>
        <time>2022-04-06T21:24:20.203Z</time>
      </trkpt>
      <trkpt lat="51.532249" lon="8.620012">
        <ele>245.088628</ele>
        <time>2022-04-06T21:25:05.903Z</time>
      </trkpt>
      <trkpt lat="51.531886" lon="8.621471">
        <ele>245.632525</ele>
        <time>2022-04-06T21:25:21.121Z</time>
      </trkpt>
      <trkpt lat="51.531578" lon="8.622319">
        <ele>245.729102</ele>
        <time>2022-04-06T21:25:30.262Z</time>
      </trkpt>
      <trkpt lat="51.531128" lon="8.623258">
        <ele>245.845680</ele>
        <time>2022-04-06T21:25:41.689Z</time>
      </trkpt>
      <trkpt lat="51.530471" lon="8.624271">
        <ele>246.405488</ele>
        <time>2022-04-06T21:25:56.246Z</time>
      </trkpt>
      <trkpt lat="51.530242" lon="8.624554">
        <ele>246.585617</ele>
        <time>2022-04-06T21:26:01.227Z</time>
      </trkpt>
      <trkpt lat="51.529223" lon="8.625595">
        <ele>247.548206</ele>
        <time>2022-04-06T21:26:24.510Z</time>
      </trkpt>
      <trkpt lat="51.528097" lon="8.626672">
        <ele>248.803359</ele>
        <time>2022-04-06T21:26:48.882Z</time>
      </trkpt>
      <trkpt lat="51.528065" lon="8.626703">
        <ele>248.830163</ele>
        <time>2022-04-06T21:26:49.592Z</time>
      </trkpt>
      <trkpt lat="51.526683" lon="8.628163">
        <ele>250.016585</ele>
        <time>2022-04-06T21:27:18.642Z</time>
      </trkpt>
      <trkpt lat="51.526059" lon="8.629009">
        <ele>250.885757</ele>
        <time>2022-04-06T21:27:33.182Z</time>
      </trkpt>
      <trkpt lat="51.525927" lon="8.629179">
        <ele>251.066204</ele>
        <time>2022-04-06T21:27:36.394Z</time>
      </trkpt>
      <trkpt lat="51.525385" lon="8.630068">
        <ele>251.892335</ele>
        <time>2022-04-06T21:27:51.772Z</time>
      </trkpt>
      <trkpt lat="51.524836" lon="8.631136">
        <ele>253.246404</ele>
        <time>2022-04-06T21:28:10.200Z</time>
      </trkpt>
      <trkpt lat="51.523233" lon="8.634454">
        <ele>257.208744</ele>
        <time>2022-04-06T21:29:06.177Z</time>
      </trkpt>
      <trkpt lat="51.520899" lon="8.639647">
        <ele>259.362922</ele>
        <time>2022-04-06T21:30:15.082Z</time>
      </trkpt>
      <trkpt lat="51.519837" lon="8.641801">
        <ele>257.620375</ele>
        <time>2022-04-06T21:30:34.874Z</time>
      </trkpt>
      <trkpt lat="51.519242" lon="8.643305">
        <ele>256.722711</ele>
        <time>2022-04-06T21:30:48.061Z</time>
      </trkpt>
      <trkpt lat="51.518727" lon="8.645317">
        <ele>256.654479</ele>
        <time>2022-04-06T21:31:09.217Z</time>
      </trkpt>
      <trkpt lat="51.518264" lon="8.647148">
        <ele>257.196936</ele>
        <time>2022-04-06T21:31:31.565Z</time>
      </trkpt>
      <trkpt lat="51.516961" lon="8.650684">
        <ele>257.839809</ele>
        <time>2022-04-06T21:32:10.967Z</time>
      </trkpt>
      <trkpt lat="51.516675" lon="8.651972">
        <ele>258.030562</ele>
        <time>2022-04-06T21:32:24.072Z</time>
      </trkpt>
      <trkpt lat="51.516588" lon="8.653253">
        <ele>258.645208</ele>
        <time>2022-04-06T21:32:38.021Z</time>
      </trkpt>
      <trkpt lat="51.516647" lon="8.654154">
        <ele>259.077344</ele>
        <time>2022-04-06T21:32:48.581Z</time>
      </trkpt>
      <trkpt lat="51.516829" lon="8.655715">
        <ele>259.777703</ele>
        <time>2022-04-06T21:33:07.044Z</time>
      </trkpt>
      <trkpt lat="51.516830" lon="8.655769">
        <ele>259.800249</ele>
        <time>2022-04-06T21:33:07.740Z</time>
      </trkpt>
      <trkpt lat="51.516862" lon="8.657880">
        <ele>260.693031</ele>
        <time>2022-04-06T21:33:29.909Z</time>
      </trkpt>
      <trkpt lat="51.516969" lon="8.658986">
        <ele>261.215462</ele>
        <time>2022-04-06T21:33:41.058Z</time>
      </trkpt>
      <trkpt lat="51.517129" lon="8.659824">
        <ele>261.624598</ele>
        <time>2022-04-06T21:33:50.548Z</time>
      </trkpt>
      <trkpt lat="51.517530" lon="8.660888">
        <ele>263.283349</ele>
        <time>2022-04-06T21:34:06.468Z</time>
      </trkpt>
      <trkpt lat="51.517683" lon="8.661172">
        <ele>264.153435</ele>
        <time>2022-04-06T21:34:12.278Z</time>
      </trkpt>
      <trkpt lat="51.517790" lon="8.661388">
        <ele>264.792914</ele>
        <time>2022-04-06T21:34:16.420Z</time>
      </trkpt>
      <trkpt lat="51.517935" lon="8.661680">
        <ele>265.658210</ele>
        <time>2022-04-06T21:34:23.009Z</time>
      </trkpt>
      <trkpt lat="51.518187" lon="8.662609">
        <ele>268.005542</ele>
        <time>2022-04-06T21:34:44.495Z</time>
      </trkpt>
      <trkpt lat="51.518493" lon="8.662250">
        <ele>270.441548</ele>
        <time>2022-04-06T21:34:59.933Z</time>
      </trkpt>
      <trkpt lat="51.518795" lon="8.662271">
        <ele>273.031954</ele>
        <time>2022-04-06T21:35:13.241Z</time>
      </trkpt>
      <trkpt lat="51.519179" lon="8.662527">
        <ele>276.594549</ele>
        <time>2022-04-06T21:35:33.664Z</time>
      </trkpt>
      <trkpt lat="51.520529" lon="8.663545">
        <ele>289.476105</ele>
        <time>2022-04-06T21:36:55.461Z</time>
      </trkpt>
      <trkpt lat="51.522567" lon="8.664599">
        <ele>304.739758</ele>
        <time>2022-04-06T21:38:36.381Z</time>
      </trkpt>
      <trkpt lat="51.524172" lon="8.665226">
        <ele>309.567316</ele>
        <time>2022-04-06T21:39:13.169Z</time>
      </trkpt>
      <trkpt lat="51.525375" lon="8.665456">
        <ele>310.075203</ele>
        <time>2022-04-06T21:39:29.354Z</time>
      </trkpt>
      <trkpt lat="51.525571" lon="8.665574">
        <ele>309.977074</ele>
        <time>2022-04-06T21:39:32.361Z</time>
      </trkpt>
      <trkpt lat="51.526139" lon="8.666742">
        <ele>309.544643</ele>
        <time>2022-04-06T21:39:44.427Z</time>
      </trkpt>
      <trkpt lat="51.526292" lon="8.666806">
        <ele>309.470520</ele>
        <time>2022-04-06T21:39:46.723Z</time>
      </trkpt>
      <trkpt lat="51.526356" lon="8.667049">
        <ele>309.393548</ele>
        <time>2022-04-06T21:39:49.659Z</time>
      </trkpt>
      <trkpt lat="51.526721" lon="8.667634">
        <ele>309.371588</ele>
        <time>2022-04-06T21:39:59.588Z</time>
      </trkpt>
      <trkpt lat="51.526937" lon="8.667853">
        <ele>309.391733</ele>
        <time>2022-04-06T21:40:04.192Z</time>
      </trkpt>
      <trkpt lat="51.527197" lon="8.667946">
        <ele>309.412744</ele>
        <time>2022-04-06T21:40:09.017Z</time>
      </trkpt>
      <trkpt lat="51.528335" lon="8.667933">
        <ele>310.039339</ele>
        <time>2022-04-06T21:40:33.952Z</time>
      </trkpt>
      <trkpt lat="51.528660" lon="8.668154">
        <ele>310.789522</ele>
        <time>2022-04-06T21:40:44.079Z</time>
      </trkpt>
      <trkpt lat="51.528948" lon="8.668602">
        <ele>311.641518</ele>
        <time>2022-04-06T21:40:56.789Z</time>
      </trkpt>
      <trkpt lat="51.529132" lon="8.669146">
        <ele>312.460433</ele>
        <time>2022-04-06T21:41:09.228Z</time>
      </trkpt>
      <trkpt lat="51.529330" lon="8.670253">
        <ele>313.611872</ele>
        <time>2022-04-06T21:41:31.081Z</time>
      </trkpt>
      <trkpt lat="51.529581" lon="8.670920">
        <ele>314.077564</ele>
        <time>2022-04-06T21:41:43.307Z</time>
      </trkpt>
      <trkpt lat="51.529978" lon="8.671569">
        <ele>314.621303</ele>
        <time>2022-04-06T21:41:56.446Z</time>
      </trkpt>
      <trkpt lat="51.530690" lon="8.672162">
        <ele>314.995344</ele>
        <time>2022-04-06T21:42:11.527Z</time>
      </trkpt>
      <trkpt lat="51.531076" lon="8.672473">
        <ele>314.952203</ele>
        <time>2022-04-06T21:42:19.193Z</time>
      </trkpt>
      <trkpt lat="51.531587" lon="8.673566">
        <ele>314.867218</ele>
        <time>2022-04-06T21:42:35.855Z</time>
      </trkpt>
      <trkpt lat="51.531983" lon="8.675343">
        <ele>316.413130</ele>
        <time>2022-04-06T21:43:05.138Z</time>
      </trkpt>
      <trkpt lat="51.532270" lon="8.675741">
        <ele>316.986478</ele>
        <time>2022-04-06T21:43:15.921Z</time>
      </trkpt>
      <trkpt lat="51.532881" lon="8.676096">
        <ele>318.282322</ele>
        <time>2022-04-06T21:43:35.208Z</time>
      </trkpt>
      <trkpt lat="51.532898" lon="8.676416">
        <ele>318.823736</ele>
        <time>2022-04-06T21:43:40.186Z</time>
      </trkpt>
      <trkpt lat="51.532970" lon="8.676704">
        <ele>319.346982</ele>
        <time>2022-04-06T21:43:44.962Z</time>
      </trkpt>
      <trkpt lat="51.533191" lon="8.677187">
        <ele>320.357754</ele>
        <time>2022-04-06T21:43:54.061Z</time>
      </trkpt>
      <trkpt lat="51.533527" lon="8.677999">
        <ele>322.001784</ele>
        <time>2022-04-06T21:44:10.445Z</time>
      </trkpt>
      <trkpt lat="51.533679" lon="8.679470">
        <ele>324.538547</ele>
        <time>2022-04-06T21:44:36.201Z</time>
      </trkpt>
      <trkpt lat="51.533778" lon="8.679998">
        <ele>325.478537</ele>
        <time>2022-04-06T21:44:44.984Z</time>
      </trkpt>
      <trkpt lat="51.534051" lon="8.681030">
        <ele>327.386928</ele>
        <time>2022-04-06T21:45:01.726Z</time>
      </trkpt>
      <trkpt lat="51.534420" lon="8.681908">
        <ele>328.774173</ele>
        <time>2022-04-06T21:45:17.502Z</time>
      </trkpt>
      <trkpt lat="51.535195" lon="8.683382">
        <ele>331.290749</ele>
        <time>2022-04-06T21:45:44.692Z</time>
      </trkpt>
      <trkpt lat="51.535390" lon="8.686142">
        <ele>334.660841</ele>
        <time>2022-04-06T21:46:24.139Z</time>
      </trkpt>
      <trkpt lat="51.535690" lon="8.690684">
        <ele>339.020902</ele>
        <time>2022-04-06T21:47:26.531Z</time>
      </trkpt>
      <trkpt lat="51.538743" lon="8.690510">
        <ele>340.302171</ele>
        <time>2022-04-06T21:48:28.762Z</time>
      </trkpt>
      <trkpt lat="51.542519" lon="8.690427">
        <ele>342.980568</ele>
        <time>2022-04-06T21:50:01.138Z</time>
      </trkpt>
      <trkpt lat="51.543006" lon="8.693922">
        <ele>341.052878</ele>
        <time>2022-04-06T21:50:28.127Z</time>
      </trkpt>
      <trkpt lat="51.543600" lon="8.697692">
        <ele>336.455441</ele>
        <time>2022-04-06T21:50:54.453Z</time>
      </trkpt>
      <trkpt lat="51.543831" lon="8.698821">
        <ele>335.073650</ele>
        <time>2022-04-06T21:51:02.624Z</time>
      </trkpt>
      <trkpt lat="51.544604" lon="8.704091">
        <ele>329.112667</ele>
        <time>2022-04-06T21:51:40.354Z</time>
      </trkpt>
      <trkpt lat="51.544813" lon="8.705687">
        <ele>327.539919</ele>
        <time>2022-04-06T21:51:51.926Z</time>
      </trkpt>
      <trkpt lat="51.544916" lon="8.707897">
        <ele>326.152939</ele>
        <time>2022-04-06T21:52:08.195Z</time>
      </trkpt>
      <trkpt lat="51.544932" lon="8.708248">
        <ele>325.973280</ele>
        <time>2022-04-06T21:52:10.945Z</time>
      </trkpt>
      <trkpt lat="51.545055" lon="8.709509">
        <ele>325.683632</ele>
        <time>2022-04-06T21:52:22.282Z</time>
      </trkpt>
      <trkpt lat="51.545125" lon="8.710377">
        <ele>326.051155</ele>
        <time>2022-04-06T21:52:31.277Z</time>
      </trkpt>
      <trkpt lat="51.545073" lon="8.711539">
        <ele>326.540339</ele>
        <time>2022-04-06T21:52:45.062Z</time>
      </trkpt>
      <trkpt lat="51.544986" lon="8.712236">
        <ele>326.871935</ele>
        <time>2022-04-06T21:52:53.922Z</time>
      </trkpt>
      <trkpt lat="51.544756" lon="8.715925">
        <ele>328.234298</ele>
        <time>2022-04-06T21:53:36.009Z</time>
      </trkpt>
      <trkpt lat="51.544618" lon="8.717337">
        <ele>328.098926</ele>
        <time>2022-04-06T21:53:47.814Z</time>
      </trkpt>
      <trkpt lat="51.544589" lon="8.718385">
        <ele>327.402095</ele>
        <time>2022-04-06T21:53:55.536Z</time>
      </trkpt>
      <trkpt lat="51.544688" lon="8.720547">
        <ele>325.202700</ele>
        <time>2022-04-06T21:54:10.511Z</time>
      </trkpt>
      <trkpt lat="51.544744" lon="8.725990">
        <ele>319.139806</ele>
        <time>2022-04-06T21:54:48.362Z</time>
      </trkpt>
      <trkpt lat="51.544735" lon="8.726931">
        <ele>318.172385</ele>
        <time>2022-04-06T21:54:54.983Z</time>
      </trkpt>
      <trkpt lat="51.544590" lon="8.728851">
        <ele>316.301127</ele>
        <time>2022-04-06T21:55:08.693Z</time>
      </trkpt>
      <trkpt lat="51.544673" lon="8.732198">
        <ele>313.598565</ele>
        <time>2022-04-06T21:55:33.191Z</time>
      </trkpt>
      <trkpt lat="51.544671" lon="8.734216">
        <ele>312.570148</ele>
        <time>2022-04-06T21:55:48.908Z</time>
      </trkpt>
      <trkpt lat="51.544702" lon="8.735880">
        <ele>311.645065</ele>
        <time>2022-04-06T21:56:02.522Z</time>
      </trkpt>
      <trkpt lat="51.544835" lon="8.737934">
        <ele>310.398519</ele>
        <time>2022-04-06T21:56:18.341Z</time>
      </trkpt>
      <trkpt lat="51.544974" lon="8.739196">
        <ele>308.641382</ele>
        <time>2022-04-06T21:56:27.146Z</time>
      </trkpt>
      <trkpt lat="51.545488" lon="8.743391">
        <ele>302.630904</ele>
        <time>2022-04-06T21:56:54.936Z</time>
      </trkpt>
      <trkpt lat="51.545711" lon="8.744669">
        <ele>302.686399</ele>
        <time>2022-04-06T21:57:06.059Z</time>
      </trkpt>
      <trkpt lat="51.545728" lon="8.744784">
        <ele>302.729225</ele>
        <time>2022-04-06T21:57:07.411Z</time>
      </trkpt>
      <trkpt lat="51.545733" lon="8.744840">
        <ele>302.749722</ele>
        <time>2022-04-06T21:57:08.050Z</time>
      </trkpt>
      <trkpt lat="51.545601" lon="8.745844">
        <ele>303.121516</ele>
        <time>2022-04-06T21:57:20.350Z</time>
      </trkpt>
      <trkpt lat="51.545796" lon="8.748018">
        <ele>305.261814</ele>
        <time>2022-04-06T21:57:52.664Z</time>
      </trkpt>
      <trkpt lat="51.544424" lon="8.753766">
        <ele>311.275442</ele>
        <time>2022-04-06T21:59:14.718Z</time>
      </trkpt>
      <trkpt lat="51.544300" lon="8.754443">
        <ele>311.809376</ele>
        <time>2022-04-06T21:59:22.181Z</time>
      </trkpt>
      <trkpt lat="51.544235" lon="8.755501">
        <ele>312.093365</ele>
        <time>2022-04-06T21:59:32.741Z</time>
      </trkpt>
      <trkpt lat="51.544151" lon="8.758927">
        <ele>312.826161</ele>
        <time>2022-04-06T22:00:05.684Z</time>
      </trkpt>
      <trkpt lat="51.544186" lon="8.769785">
        <ele>316.152472</ele>
        <time>2022-04-06T22:02:01.499Z</time>
      </trkpt>
      <trkpt lat="51.544170" lon="8.770753">
        <ele>316.093296</ele>
        <time>2022-04-06T22:02:13.184Z</time>
      </trkpt>
      <trkpt lat="51.544147" lon="8.772126">
        <ele>316.007600</ele>
        <time>2022-04-06T22:02:29.351Z</time>
      </trkpt>
      <trkpt lat="51.544142" lon="8.772447">
        <ele>315.983239</ele>
        <time>2022-04-06T22:02:33.069Z</time>
      </trkpt>
      <trkpt lat="51.543954" lon="8.773384">
        <ele>315.908543</ele>
        <time>2022-04-06T22:02:44.713Z</time>
      </trkpt>
      <trkpt lat="51.544015" lon="8.776400">
        <ele>315.938492</ele>
        <time>2022-04-06T22:03:23.402Z</time>
      </trkpt>
      <trkpt lat="51.543886" lon="8.777208">
        <ele>316.014487</ele>
        <time>2022-04-06T22:03:34.427Z</time>
      </trkpt>
      <trkpt lat="51.543778" lon="8.777743">
        <ele>316.071169</ele>
        <time>2022-04-06T22:03:41.770Z</time>
      </trkpt>
      <trkpt lat="51.543473" lon="8.779255">
        <ele>316.372941</ele>
        <time>2022-04-06T22:04:02.326Z</time>
      </trkpt>
      <trkpt lat="51.543548" lon="8.779474">
        <ele>316.420405</ele>
        <time>2022-04-06T22:04:05.613Z</time>
      </trkpt>
      <trkpt lat="51.543634" lon="8.779725">
        <ele>316.474809</ele>
        <time>2022-04-06T22:04:09.336Z</time>
      </trkpt>
      <trkpt lat="51.543723" lon="8.779987">
        <ele>316.531486</ele>
        <time>2022-04-06T22:04:12.402Z</time>
      </trkpt>
      <trkpt lat="51.543774" lon="8.781881">
        <ele>317.632757</ele>
        <time>2022-04-06T22:04:33.255Z</time>
      </trkpt>
      <trkpt lat="51.544120" lon="8.794912">
        <ele>330.194703</ele>
        <time>2022-04-06T22:07:25.432Z</time>
      </trkpt>
      <trkpt lat="51.543999" lon="8.795253">
        <ele>330.361769</ele>
        <time>2022-04-06T22:07:32.372Z</time>
      </trkpt>
      <trkpt lat="51.543373" lon="8.795650">
        <ele>330.822213</ele>
        <time>2022-04-06T22:07:49.759Z</time>
      </trkpt>
      <trkpt lat="51.542495" lon="8.795691">
        <ele>331.368435</ele>
        <time>2022-04-06T22:08:07.056Z</time>
      </trkpt>
      <trkpt lat="51.542797" lon="8.796655">
        <ele>330.852771</ele>
        <time>2022-04-06T22:08:15.561Z</time>
      </trkpt>
      <trkpt lat="51.543055" lon="8.797320">
        <ele>330.478332</ele>
        <time>2022-04-06T22:08:21.480Z</time>
      </trkpt>
      <trkpt lat="51.543262" lon="8.798210">
        <ele>330.024393</ele>
        <time>2022-04-06T22:08:28.488Z</time>
      </trkpt>
      <trkpt lat="51.543573" lon="8.799992">
        <ele>330.316570</ele>
        <time>2022-04-06T22:08:44.979Z</time>
      </trkpt>
      <trkpt lat="51.544222" lon="8.806139">
        <ele>334.641254</ele>
        <time>2022-04-06T22:10:02.614Z</time>
      </trkpt>
      <trkpt lat="51.544483" lon="8.807917">
        <ele>336.246893</ele>
        <time>2022-04-06T22:10:24.787Z</time>
      </trkpt>
      <trkpt lat="51.545289" lon="8.812408">
        <ele>341.071475</ele>
        <time>2022-04-06T22:11:27.851Z</time>
      </trkpt>
      <trkpt lat="51.545330" lon="8.812644">
        <ele>341.333123</ele>
        <time>2022-04-06T22:11:31.480Z</time>
      </trkpt>
      <trkpt lat="51.545571" lon="8.814393">
        <ele>343.245984</ele>
        <time>2022-04-06T22:11:57.589Z</time>
      </trkpt>
      <trkpt lat="51.545684" lon="8.815596">
        <ele>344.014338</ele>
        <time>2022-04-06T22:12:12.274Z</time>
      </trkpt>
      <trkpt lat="51.545811" lon="8.817411">
        <ele>343.898372</ele>
        <time>2022-04-06T22:12:27.917Z</time>
      </trkpt>
      <trkpt lat="51.545975" lon="8.818097">
        <ele>343.804330</ele>
        <time>2022-04-06T22:12:33.370Z</time>
      </trkpt>
      <trkpt lat="51.546408" lon="8.819461">
        <ele>343.182637</ele>
        <time>2022-04-06T22:12:46.249Z</time>
      </trkpt>
      <trkpt lat="51.546488" lon="8.819661">
        <ele>343.086101</ele>
        <time>2022-04-06T22:12:48.185Z</time>
      </trkpt>
      <trkpt lat="51.546611" lon="8.819980">
        <ele>342.933731</ele>
        <time>2022-04-06T22:12:51.498Z</time>
      </trkpt>
      <trkpt lat="51.546854" lon="8.820614">
        <ele>342.502819</ele>
        <time>2022-04-06T22:12:57.143Z</time>
      </trkpt>
      <trkpt lat="51.546990" lon="8.820802">
        <ele>342.111876</ele>
        <time>2022-04-06T22:12:59.414Z</time>
      </trkpt>
      <trkpt lat="51.547269" lon="8.820987">
        <ele>341.454024</ele>
        <time>2022-04-06T22:13:02.858Z</time>
      </trkpt>
      <trkpt lat="51.547650" lon="8.821515">
        <ele>340.357645</ele>
        <time>2022-04-06T22:13:08.402Z</time>
      </trkpt>
      <trkpt lat="51.548531" lon="8.822796">
        <ele>337.376072</ele>
        <time>2022-04-06T22:13:20.431Z</time>
      </trkpt>
      <trkpt lat="51.550397" lon="8.825088">
        <ele>330.961262</ele>
        <time>2022-04-06T22:13:44.524Z</time>
      </trkpt>
      <trkpt lat="51.550887" lon="8.825581">
        <ele>329.617762</ele>
        <time>2022-04-06T22:13:51.143Z</time>
      </trkpt>
      <trkpt lat="51.551042" lon="8.825731">
        <ele>329.197275</ele>
        <time>2022-04-06T22:13:53.263Z</time>
      </trkpt>
      <trkpt lat="51.551079" lon="8.825654">
        <ele>329.076304</ele>
        <time>2022-04-06T22:13:54.016Z</time>
      </trkpt>
      <trkpt lat="51.552989" lon="8.824288">
        <ele>325.302561</ele>
        <time>2022-04-06T22:14:17.950Z</time>
      </trkpt>
      <trkpt lat="51.554962" lon="8.823144">
        <ele>319.002208</ele>
        <time>2022-04-06T22:14:39.108Z</time>
      </trkpt>
      <trkpt lat="51.556487" lon="8.822635">
        <ele>314.314061</ele>
        <time>2022-04-06T22:14:54.818Z</time>
      </trkpt>
      <trkpt lat="51.556937" lon="8.822342">
        <ele>313.270467</ele>
        <time>2022-04-06T22:14:59.963Z</time>
      </trkpt>
      <trkpt lat="51.557595" lon="8.821730">
        <ele>311.636539</ele>
        <time>2022-04-06T22:15:08.436Z</time>
      </trkpt>
      <trkpt lat="51.558754" lon="8.821094">
        <ele>310.638035</ele>
        <time>2022-04-06T22:15:24.129Z</time>
      </trkpt>
      <trkpt lat="51.559863" lon="8.819571">
        <ele>309.584420</ele>
        <time>2022-04-06T22:15:44.366Z</time>
      </trkpt>
      <trkpt lat="51.560047" lon="8.819390">
        <ele>309.398509</ele>
        <time>2022-04-06T22:15:47.185Z</time>
      </trkpt>
      <trkpt lat="51.564107" lon="8.817780">
        <ele>304.221221</ele>
        <time>2022-04-06T22:16:35.720Z</time>
      </trkpt>
      <trkpt lat="51.564107" lon="8.817780">
        <ele>304.221221</ele>
        <time>2022-04-06T22:16:35.749Z</time>
      </trkpt>
      <trkpt lat="51.564107" lon="8.817780">
        <ele>304.221221</ele>
        <time>2022-04-06T22:16:36.035Z</time>
      </trkpt>
      <trkpt lat="51.564543" lon="8.820836">
        <ele>302.792929</ele>
        <time>2022-04-06T22:17:01.916Z</time>
      </trkpt>
      <trkpt lat="51.565210" lon="8.824178">
        <ele>299.846823</ele>
        <time>2022-04-06T22:17:27.754Z</time>
      </trkpt>
      <trkpt lat="51.565566" lon="8.827433">
        <ele>294.806662</ele>
        <time>2022-04-06T22:17:49.269Z</time>
      </trkpt>
      <trkpt lat="51.565636" lon="8.828910">
        <ele>292.374894</ele>
        <time>2022-04-06T22:17:58.739Z</time>
      </trkpt>
      <trkpt lat="51.565635" lon="8.830751">
        <ele>290.424393</ele>
        <time>2022-04-06T22:18:11.195Z</time>
      </trkpt>
      <trkpt lat="51.565645" lon="8.831280">
        <ele>290.016300</ele>
        <time>2022-04-06T22:18:15.322Z</time>
      </trkpt>
      <trkpt lat="51.565646" lon="8.831343">
        <ele>289.967706</ele>
        <time>2022-04-06T22:18:15.865Z</time>
      </trkpt>
      <trkpt lat="51.565664" lon="8.831959">
        <ele>289.492192</ele>
        <time>2022-04-06T22:18:20.856Z</time>
      </trkpt>
      <trkpt lat="51.565475" lon="8.833601">
        <ele>288.734412</ele>
        <time>2022-04-06T22:18:35.119Z</time>
      </trkpt>
      <trkpt lat="51.565833" lon="8.836543">
        <ele>286.947823</ele>
        <time>2022-04-06T22:18:59.127Z</time>
      </trkpt>
      <trkpt lat="51.565892" lon="8.836899">
        <ele>286.606427</ele>
        <time>2022-04-06T22:19:02.925Z</time>
      </trkpt>
      <trkpt lat="51.566005" lon="8.837378">
        <ele>286.131694</ele>
        <time>2022-04-06T22:19:08.207Z</time>
      </trkpt>
      <trkpt lat="51.566085" lon="8.837346">
        <ele>286.008811</ele>
        <time>2022-04-06T22:19:14.282Z</time>
      </trkpt>
      <trkpt lat="51.566100" lon="8.837414">
        <ele>285.941952</ele>
        <time>2022-04-06T22:19:14.975Z</time>
      </trkpt>
      <trkpt lat="51.566133" lon="8.837567">
        <ele>285.791890</ele>
        <time>2022-04-06T22:19:16.528Z</time>
      </trkpt>
      <trkpt lat="51.566059" lon="8.837608">
        <ele>285.675223</ele>
        <time>2022-04-06T22:19:17.725Z</time>
      </trkpt>
      <trkpt lat="51.566108" lon="8.837815">
        <ele>285.433572</ele>
        <time>2022-04-06T22:19:19.768Z</time>
      </trkpt>
      <trkpt lat="51.566276" lon="8.838371">
        <ele>283.849519</ele>
        <time>2022-04-06T22:19:25.271Z</time>
      </trkpt>
      <trkpt lat="51.566314" lon="8.838520">
        <ele>283.436849</ele>
        <time>2022-04-06T22:19:26.246Z</time>
      </trkpt>
      <trkpt lat="51.566346" lon="8.838656">
        <ele>283.064242</ele>
        <time>2022-04-06T22:19:27.118Z</time>
      </trkpt>
      <trkpt lat="51.566388" lon="8.838916">
        <ele>282.375910</ele>
        <time>2022-04-06T22:19:28.707Z</time>
      </trkpt>
      <trkpt lat="51.566411" lon="8.839097">
        <ele>281.902538</ele>
        <time>2022-04-06T22:19:29.790Z</time>
      </trkpt>
      <trkpt lat="51.566433" lon="8.839424">
        <ele>281.059765</ele>
        <time>2022-04-06T22:19:31.733Z</time>
      </trkpt>
      <trkpt lat="51.566555" lon="8.839684">
        <ele>280.225062</ele>
        <time>2022-04-06T22:19:33.641Z</time>
      </trkpt>
      <trkpt lat="51.566600" lon="8.840081">
        <ele>279.191050</ele>
        <time>2022-04-06T22:19:36.043Z</time>
      </trkpt>
      <trkpt lat="51.566647" lon="8.840506">
        <ele>278.084968</ele>
        <time>2022-04-06T22:19:38.666Z</time>
      </trkpt>
      <trkpt lat="51.566674" lon="8.840754">
        <ele>277.443577</ele>
        <time>2022-04-06T22:19:40.177Z</time>
      </trkpt>
      <trkpt lat="51.567110" lon="8.840624">
        <ele>275.626460</ele>
        <time>2022-04-06T22:19:44.426Z</time>
      </trkpt>
      <trkpt lat="51.567369" lon="8.840493">
        <ele>274.513882</ele>
        <time>2022-04-06T22:19:47.005Z</time>
      </trkpt>
      <trkpt lat="51.567506" lon="8.840128">
        <ele>273.427787</ele>
        <time>2022-04-06T22:19:49.536Z</time>
      </trkpt>
      <trkpt lat="51.567562" lon="8.839743">
        <ele>272.420613</ele>
        <time>2022-04-06T22:19:51.960Z</time>
      </trkpt>
      <trkpt lat="51.567604" lon="8.839329">
        <ele>271.352109</ele>
        <time>2022-04-06T22:19:54.571Z</time>
      </trkpt>
      <trkpt lat="51.567799" lon="8.839090">
        <ele>270.483809</ele>
        <time>2022-04-06T22:19:57.014Z</time>
      </trkpt>
      <trkpt lat="51.568041" lon="8.839035">
        <ele>269.863280</ele>
        <time>2022-04-06T22:19:59.502Z</time>
      </trkpt>
      <trkpt lat="51.568042" lon="8.839036">
        <ele>269.860290</ele>
        <time>2022-04-06T22:19:59.508Z</time>
      </trkpt>
      <trkpt lat="51.568173" lon="8.839302">
        <ele>269.324704</ele>
        <time>2022-04-06T22:20:01.829Z</time>
      </trkpt>
      <trkpt lat="51.568200" lon="8.840437">
        <ele>267.532164</ele>
        <time>2022-04-06T22:20:09.373Z</time>
      </trkpt>
      <trkpt lat="51.568220" lon="8.841044">
        <ele>266.572868</ele>
        <time>2022-04-06T22:20:13.295Z</time>
      </trkpt>
      <trkpt lat="51.568312" lon="8.841176">
        <ele>266.259885</ele>
        <time>2022-04-06T22:20:14.557Z</time>
      </trkpt>
      <trkpt lat="51.568594" lon="8.842040">
        <ele>266.085443</ele>
        <time>2022-04-06T22:20:21.621Z</time>
      </trkpt>
      <trkpt lat="51.568705" lon="8.842215">
        <ele>266.070535</ele>
        <time>2022-04-06T22:20:23.461Z</time>
      </trkpt>
      <trkpt lat="51.568947" lon="8.842427">
        <ele>266.044103</ele>
        <time>2022-04-06T22:20:27.339Z</time>
      </trkpt>
      <trkpt lat="51.569452" lon="8.842540">
        <ele>265.995194</ele>
        <time>2022-04-06T22:20:36.277Z</time>
      </trkpt>
      <trkpt lat="51.569595" lon="8.842522">
        <ele>265.981435</ele>
        <time>2022-04-06T22:20:40.376Z</time>
      </trkpt>
      <trkpt lat="51.570600" lon="8.842097">
        <ele>267.298580</ele>
        <time>2022-04-06T22:21:10.372Z</time>
      </trkpt>
      <trkpt lat="51.571219" lon="8.841737">
        <ele>268.290666</ele>
        <time>2022-04-06T22:21:28.234Z</time>
      </trkpt>
      <trkpt lat="51.571660" lon="8.841474">
        <ele>268.543903</ele>
        <time>2022-04-06T22:21:38.549Z</time>
      </trkpt>
      <trkpt lat="51.571833" lon="8.841310">
        <ele>268.418265</ele>
        <time>2022-04-06T22:21:42.558Z</time>
      </trkpt>
      <trkpt lat="51.572020" lon="8.840976">
        <ele>268.243447</ele>
        <time>2022-04-06T22:21:47.675Z</time>
      </trkpt>
      <trkpt lat="51.572075" lon="8.840878">
        <ele>268.192097</ele>
        <time>2022-04-06T22:21:49.131Z</time>
      </trkpt>
      <trkpt lat="51.572176" lon="8.840633">
        <ele>268.077766</ele>
        <time>2022-04-06T22:21:52.258Z</time>
      </trkpt>
      <trkpt lat="51.572381" lon="8.840382">
        <ele>267.916581</ele>
        <time>2022-04-06T22:21:56.503Z</time>
      </trkpt>
      <trkpt lat="51.573943" lon="8.839900">
        <ele>267.674195</ele>
        <time>2022-04-06T22:22:23.618Z</time>
      </trkpt>
      <trkpt lat="51.576625" lon="8.839070">
        <ele>270.760809</ele>
        <time>2022-04-06T22:23:37.531Z</time>
      </trkpt>
      <trkpt lat="51.576800" lon="8.839019">
        <ele>270.817140</ele>
        <time>2022-04-06T22:23:42.145Z</time>
      </trkpt>
      <trkpt lat="51.577731" lon="8.839006">
        <ele>271.112033</ele>
        <time>2022-04-06T22:24:03.266Z</time>
      </trkpt>
      <trkpt lat="51.578871" lon="8.839203">
        <ele>269.951799</ele>
        <time>2022-04-06T22:24:23.374Z</time>
      </trkpt>
      <trkpt lat="51.579243" lon="8.839011">
        <ele>269.081504</ele>
        <time>2022-04-06T22:24:29.407Z</time>
      </trkpt>
      <trkpt lat="51.580022" lon="8.838239">
        <ele>266.873191</ele>
        <time>2022-04-06T22:24:42.694Z</time>
      </trkpt>
      <trkpt lat="51.581069" lon="8.836865">
        <ele>261.685746</ele>
        <time>2022-04-06T22:25:02.107Z</time>
      </trkpt>
      <trkpt lat="51.581722" lon="8.835899">
        <ele>257.393315</ele>
        <time>2022-04-06T22:25:14.055Z</time>
      </trkpt>
      <trkpt lat="51.581942" lon="8.835574">
        <ele>255.760717</ele>
        <time>2022-04-06T22:25:18.041Z</time>
      </trkpt>
      <trkpt lat="51.582491" lon="8.834644">
        <ele>251.403161</ele>
        <time>2022-04-06T22:25:28.567Z</time>
      </trkpt>
      <trkpt lat="51.583309" lon="8.833686">
        <ele>247.076670</ele>
        <time>2022-04-06T22:25:41.852Z</time>
      </trkpt>
      <trkpt lat="51.583672" lon="8.833145">
        <ele>245.069805</ele>
        <time>2022-04-06T22:25:48.709Z</time>
      </trkpt>
      <trkpt lat="51.584005" lon="8.833056">
        <ele>243.700542</ele>
        <time>2022-04-06T22:25:54.080Z</time>
      </trkpt>
      <trkpt lat="51.584975" lon="8.833192">
        <ele>243.481073</ele>
        <time>2022-04-06T22:26:15.145Z</time>
      </trkpt>
      <trkpt lat="51.585279" lon="8.833072">
        <ele>243.567349</ele>
        <time>2022-04-06T22:26:23.499Z</time>
      </trkpt>
      <trkpt lat="51.585765" lon="8.832783">
        <ele>243.710158</ele>
        <time>2022-04-06T22:26:36.189Z</time>
      </trkpt>
      <trkpt lat="51.586144" lon="8.832437">
        <ele>243.001666</ele>
        <time>2022-04-06T22:26:44.897Z</time>
      </trkpt>
      <trkpt lat="51.586789" lon="8.831404">
        <ele>240.962649</ele>
        <time>2022-04-06T22:26:59.771Z</time>
      </trkpt>
      <trkpt lat="51.587124" lon="8.831007">
        <ele>240.030423</ele>
        <time>2022-04-06T22:27:05.585Z</time>
      </trkpt>
      <trkpt lat="51.587802" lon="8.830185">
        <ele>235.277047</ele>
        <time>2022-04-06T22:27:16.765Z</time>
      </trkpt>
      <trkpt lat="51.588377" lon="8.829571">
        <ele>230.941635</ele>
        <time>2022-04-06T22:27:25.547Z</time>
      </trkpt>
      <trkpt lat="51.588591" lon="8.829257">
        <ele>229.122256</ele>
        <time>2022-04-06T22:27:29.290Z</time>
      </trkpt>
      <trkpt lat="51.588837" lon="8.828952">
        <ele>227.327739</ele>
        <time>2022-04-06T22:27:33.333Z</time>
      </trkpt>
      <trkpt lat="51.588881" lon="8.828908">
        <ele>227.043442</ele>
        <time>2022-04-06T22:27:34.010Z</time>
      </trkpt>
      <trkpt lat="51.589554" lon="8.828520">
        <ele>223.120028</ele>
        <time>2022-04-06T22:27:43.406Z</time>
      </trkpt>
      <trkpt lat="51.589659" lon="8.828450">
        <ele>222.496283</ele>
        <time>2022-04-06T22:27:44.437Z</time>
      </trkpt>
      <trkpt lat="51.590109" lon="8.827717">
        <ele>218.982531</ele>
        <time>2022-04-06T22:27:50.480Z</time>
      </trkpt>
      <trkpt lat="51.590391" lon="8.827552">
        <ele>218.035603</ele>
        <time>2022-04-06T22:27:53.411Z</time>
      </trkpt>
      <trkpt lat="51.590807" lon="8.827554">
        <ele>217.082658</ele>
        <time>2022-04-06T22:27:57.682Z</time>
      </trkpt>
      <trkpt lat="51.590998" lon="8.827350">
        <ele>216.557569</ele>
        <time>2022-04-06T22:28:00.243Z</time>
      </trkpt>
      <trkpt lat="51.591335" lon="8.827402">
        <ele>215.782056</ele>
        <time>2022-04-06T22:28:04.217Z</time>
      </trkpt>
      <trkpt lat="51.591394" lon="8.827422">
        <ele>215.643939</ele>
        <time>2022-04-06T22:28:04.947Z</time>
      </trkpt>
      <trkpt lat="51.591479" lon="8.827449">
        <ele>215.445472</ele>
        <time>2022-04-06T22:28:05.930Z</time>
      </trkpt>
      <trkpt lat="51.591565" lon="8.827477">
        <ele>215.244481</ele>
        <time>2022-04-06T22:28:06.939Z</time>
      </trkpt>
      <trkpt lat="51.591783" lon="8.827558">
        <ele>214.731971</ele>
        <time>2022-04-06T22:28:09.562Z</time>
      </trkpt>
      <trkpt lat="51.592097" lon="8.827597">
        <ele>214.193901</ele>
        <time>2022-04-06T22:28:13.193Z</time>
      </trkpt>
      <trkpt lat="51.592753" lon="8.827062">
        <ele>213.269649</ele>
        <time>2022-04-06T22:28:25.883Z</time>
      </trkpt>
      <trkpt lat="51.592948" lon="8.826903">
        <ele>212.994921</ele>
        <time>2022-04-06T22:28:29.642Z</time>
      </trkpt>
      <trkpt lat="51.593596" lon="8.826826">
        <ele>212.178291</ele>
        <time>2022-04-06T22:28:40.472Z</time>
      </trkpt>
      <trkpt lat="51.593885" lon="8.826538">
        <ele>211.812626</ele>
        <time>2022-04-06T22:28:46.022Z</time>
      </trkpt>
      <trkpt lat="51.594406" lon="8.825428">
        <ele>210.891373</ele>
        <time>2022-04-06T22:29:00.417Z</time>
      </trkpt>
      <trkpt lat="51.594624" lon="8.824910">
        <ele>210.477056</ele>
        <time>2022-04-06T22:29:05.083Z</time>
      </trkpt>
      <trkpt lat="51.596373" lon="8.821319">
        <ele>210.598871</ele>
        <time>2022-04-06T22:29:47.258Z</time>
      </trkpt>
      <trkpt lat="51.597074" lon="8.820243">
        <ele>211.190628</ele>
        <time>2022-04-06T22:30:05.977Z</time>
      </trkpt>
      <trkpt lat="51.598159" lon="8.818542">
        <ele>212.318271</ele>
        <time>2022-04-06T22:30:34.907Z</time>
      </trkpt>
      <trkpt lat="51.598943" lon="8.817925">
        <ele>211.545110</ele>
        <time>2022-04-06T22:30:47.092Z</time>
      </trkpt>
      <trkpt lat="51.599876" lon="8.817410">
        <ele>209.821318</ele>
        <time>2022-04-06T22:30:57.769Z</time>
      </trkpt>
      <trkpt lat="51.601737" lon="8.816387">
        <ele>203.628400</ele>
        <time>2022-04-06T22:31:17.393Z</time>
      </trkpt>
      <trkpt lat="51.603556" lon="8.815418">
        <ele>198.075933</ele>
        <time>2022-04-06T22:31:37.066Z</time>
      </trkpt>
      <trkpt lat="51.603605" lon="8.815322">
        <ele>197.962794</ele>
        <time>2022-04-06T22:31:37.818Z</time>
      </trkpt>
      <trkpt lat="51.603076" lon="8.814263">
        <ele>196.725379</ele>
        <time>2022-04-06T22:31:47.507Z</time>
      </trkpt>
      <trkpt lat="51.602671" lon="8.813877">
        <ele>196.035422</ele>
        <time>2022-04-06T22:31:53.101Z</time>
      </trkpt>
      <trkpt lat="51.602666" lon="8.813770">
        <ele>195.937719</ele>
        <time>2022-04-06T22:32:00.169Z</time>
      </trkpt>
      <trkpt lat="51.602661" lon="8.813685">
        <ele>195.859976</ele>
        <time>2022-04-06T22:32:05.473Z</time>
      </trkpt>
      <trkpt lat="51.602871" lon="8.813701">
        <ele>195.551774</ele>
        <time>2022-04-06T22:32:08.218Z</time>
      </trkpt>
      <trkpt lat="51.602920" lon="8.813704">
        <ele>195.515005</ele>
        <time>2022-04-06T22:32:08.839Z</time>
      </trkpt>
      <trkpt lat="51.603149" lon="8.813716">
        <ele>195.676222</ele>
        <time>2022-04-06T22:32:11.784Z</time>
      </trkpt>
      <trkpt lat="51.603263" lon="8.813712">
        <ele>195.756456</ele>
        <time>2022-04-06T22:32:13.434Z</time>
      </trkpt>
      <trkpt lat="51.604469" lon="8.813782">
        <ele>196.605590</ele>
        <time>2022-04-06T22:32:35.662Z</time>
      </trkpt>
      <trkpt lat="51.604645" lon="8.813807">
        <ele>196.729911</ele>
        <time>2022-04-06T22:32:39.275Z</time>
      </trkpt>
      <trkpt lat="51.605132" lon="8.813920">
        <ele>197.681405</ele>
        <time>2022-04-06T22:32:50.936Z</time>
      </trkpt>
      <trkpt lat="51.605685" lon="8.814213">
        <ele>198.898900</ele>
        <time>2022-04-06T22:33:06.077Z</time>
      </trkpt>
      <trkpt lat="51.606188" lon="8.814645">
        <ele>200.091114</ele>
        <time>2022-04-06T22:33:20.494Z</time>
      </trkpt>
      <trkpt lat="51.606685" lon="8.815297">
        <ele>200.347461</ele>
        <time>2022-04-06T22:33:32.931Z</time>
      </trkpt>
      <trkpt lat="51.607084" lon="8.816105">
        <ele>200.074809</ele>
        <time>2022-04-06T22:33:41.476Z</time>
      </trkpt>
      <trkpt lat="51.607364" lon="8.816978">
        <ele>199.815296</ele>
        <time>2022-04-06T22:33:48.505Z</time>
      </trkpt>
      <trkpt lat="51.607768" lon="8.819122">
        <ele>197.760896</ele>
        <time>2022-04-06T22:34:03.711Z</time>
      </trkpt>
      <trkpt lat="51.607977" lon="8.820004">
        <ele>196.935167</ele>
        <time>2022-04-06T22:34:10.921Z</time>
      </trkpt>
      <trkpt lat="51.608230" lon="8.820721">
        <ele>196.916056</ele>
        <time>2022-04-06T22:34:17.773Z</time>
      </trkpt>
      <trkpt lat="51.608606" lon="8.821480">
        <ele>196.893557</ele>
        <time>2022-04-06T22:34:26.837Z</time>
      </trkpt>
      <trkpt lat="51.609063" lon="8.822141">
        <ele>196.870634</ele>
        <time>2022-04-06T22:34:37.298Z</time>
      </trkpt>
      <trkpt lat="51.609539" lon="8.822638">
        <ele>197.332223</ele>
        <time>2022-04-06T22:34:47.228Z</time>
      </trkpt>
      <trkpt lat="51.611819" lon="8.824580">
        <ele>199.825864</ele>
        <time>2022-04-06T22:35:35.077Z</time>
      </trkpt>
      <trkpt lat="51.612324" lon="8.824941">
        <ele>200.504258</ele>
        <time>2022-04-06T22:35:46.507Z</time>
      </trkpt>
      <trkpt lat="51.612699" lon="8.825000">
        <ele>201.200188</ele>
        <time>2022-04-06T22:35:54.561Z</time>
      </trkpt>
      <trkpt lat="51.612910" lon="8.824923">
        <ele>201.599791</ele>
        <time>2022-04-06T22:35:59.162Z</time>
      </trkpt>
      <trkpt lat="51.613268" lon="8.824661">
        <ele>202.326102</ele>
        <time>2022-04-06T22:36:07.841Z</time>
      </trkpt>
      <trkpt lat="51.613656" lon="8.824438">
        <ele>203.087018</ele>
        <time>2022-04-06T22:36:17.217Z</time>
      </trkpt>
      <trkpt lat="51.614677" lon="8.824182">
        <ele>205.505927</ele>
        <time>2022-04-06T22:36:42.022Z</time>
      </trkpt>
      <trkpt lat="51.616073" lon="8.823868">
        <ele>209.126778</ele>
        <time>2022-04-06T22:37:18.018Z</time>
      </trkpt>
      <trkpt lat="51.616455" lon="8.824043">
        <ele>210.173220</ele>
        <time>2022-04-06T22:37:29.075Z</time>
      </trkpt>
      <trkpt lat="51.616627" lon="8.824232">
        <ele>210.721852</ele>
        <time>2022-04-06T22:37:34.836Z</time>
      </trkpt>
      <trkpt lat="51.616886" lon="8.824856">
        <ele>211.949820</ele>
        <time>2022-04-06T22:37:47.226Z</time>
      </trkpt>
      <trkpt lat="51.617040" lon="8.826154">
        <ele>212.655223</ele>
        <time>2022-04-06T22:38:06.492Z</time>
      </trkpt>
      <trkpt lat="51.617471" lon="8.827924">
        <ele>211.789492</ele>
        <time>2022-04-06T22:38:20.182Z</time>
      </trkpt>
      <trkpt lat="51.617768" lon="8.828558">
        <ele>211.004731</ele>
        <time>2022-04-06T22:38:25.168Z</time>
      </trkpt>
      <trkpt lat="51.618282" lon="8.829170">
        <ele>209.656214</ele>
        <time>2022-04-06T22:38:31.687Z</time>
      </trkpt>
      <trkpt lat="51.618587" lon="8.830231">
        <ele>208.124707</ele>
        <time>2022-04-06T22:38:39.531Z</time>
      </trkpt>
      <trkpt lat="51.618827" lon="8.830666">
        <ele>208.146388</ele>
        <time>2022-04-06T22:38:44.612Z</time>
      </trkpt>
      <trkpt lat="51.618855" lon="8.830697">
        <ele>208.187924</ele>
        <time>2022-04-06T22:38:45.336Z</time>
      </trkpt>
      <trkpt lat="51.620610" lon="8.831639">
        <ele>210.508360</ele>
        <time>2022-04-06T22:39:26.323Z</time>
      </trkpt>
      <trkpt lat="51.621428" lon="8.832116">
        <ele>211.732081</ele>
        <time>2022-04-06T22:39:43.590Z</time>
      </trkpt>
      <trkpt lat="51.621740" lon="8.832449">
        <ele>212.258561</ele>
        <time>2022-04-06T22:39:51.737Z</time>
      </trkpt>
      <trkpt lat="51.622077" lon="8.833152">
        <ele>212.751265</ele>
        <time>2022-04-06T22:40:02.172Z</time>
      </trkpt>
      <trkpt lat="51.622031" lon="8.833246">
        <ele>212.789571</ele>
        <time>2022-04-06T22:40:03.763Z</time>
      </trkpt>
      <trkpt lat="51.622042" lon="8.833362">
        <ele>212.827127</ele>
        <time>2022-04-06T22:40:05.183Z</time>
      </trkpt>
      <trkpt lat="51.622077" lon="8.833428">
        <ele>212.854906</ele>
        <time>2022-04-06T22:40:06.145Z</time>
      </trkpt>
      <trkpt lat="51.622160" lon="8.833428">
        <ele>212.897692</ele>
        <time>2022-04-06T22:40:07.459Z</time>
      </trkpt>
      <trkpt lat="51.622373" lon="8.834114">
        <ele>213.143168</ele>
        <time>2022-04-06T22:40:15.911Z</time>
      </trkpt>
      <trkpt lat="51.622718" lon="8.834762">
        <ele>213.416368</ele>
        <time>2022-04-06T22:40:23.501Z</time>
      </trkpt>
      <trkpt lat="51.623387" lon="8.835314">
        <ele>213.640641</ele>
        <time>2022-04-06T22:40:34.611Z</time>
      </trkpt>
      <trkpt lat="51.623541" lon="8.835314">
        <ele>213.675205</ele>
        <time>2022-04-06T22:40:36.708Z</time>
      </trkpt>
      <trkpt lat="51.623744" lon="8.835176">
        <ele>213.724658</ele>
        <time>2022-04-06T22:40:39.768Z</time>
      </trkpt>
      <trkpt lat="51.623902" lon="8.835075">
        <ele>213.762811</ele>
        <time>2022-04-06T22:40:42.222Z</time>
      </trkpt>
      <trkpt lat="51.624041" lon="8.835071">
        <ele>213.794013</ele>
        <time>2022-04-06T22:40:44.584Z</time>
      </trkpt>
      <trkpt lat="51.624457" lon="8.835613">
        <ele>213.914100</ele>
        <time>2022-04-06T22:40:53.104Z</time>
      </trkpt>
      <trkpt lat="51.624480" lon="8.835643">
        <ele>213.959403</ele>
        <time>2022-04-06T22:40:53.662Z</time>
      </trkpt>
      <trkpt lat="51.625021" lon="8.835336">
        <ele>216.284370</ele>
        <time>2022-04-06T22:41:05.145Z</time>
      </trkpt>
      <trkpt lat="51.625239" lon="8.835429">
        <ele>217.198468</ele>
        <time>2022-04-06T22:41:11.746Z</time>
      </trkpt>
      <trkpt lat="51.625413" lon="8.835745">
        <ele>218.261346</ele>
        <time>2022-04-06T22:41:19.965Z</time>
      </trkpt>
      <trkpt lat="51.625781" lon="8.837406">
        <ele>223.744354</ele>
        <time>2022-04-06T22:42:05.863Z</time>
      </trkpt>
      <trkpt lat="51.625967" lon="8.838206">
        <ele>227.401727</ele>
        <time>2022-04-06T22:42:27.147Z</time>
      </trkpt>
      <trkpt lat="51.626103" lon="8.838324">
        <ele>228.467054</ele>
        <time>2022-04-06T22:42:33.872Z</time>
      </trkpt>
      <trkpt lat="51.626236" lon="8.838079">
        <ele>229.860445</ele>
        <time>2022-04-06T22:42:42.204Z</time>
      </trkpt>
      <trkpt lat="51.626399" lon="8.836775">
        <ele>235.521248</ele>
        <time>2022-04-06T22:43:19.281Z</time>
      </trkpt>
      <trkpt lat="51.626509" lon="8.835775">
        <ele>239.793024</ele>
        <time>2022-04-06T22:43:47.439Z</time>
      </trkpt>
      <trkpt lat="51.626532" lon="8.834622">
        <ele>244.645330</ele>
        <time>2022-04-06T22:44:14.483Z</time>
      </trkpt>
      <trkpt lat="51.626526" lon="8.834569">
        <ele>244.871938</ele>
        <time>2022-04-06T22:44:15.709Z</time>
      </trkpt>
      <trkpt lat="51.626363" lon="8.833713">
        <ele>249.180834</ele>
        <time>2022-04-06T22:44:38.477Z</time>
      </trkpt>
      <trkpt lat="51.625741" lon="8.832740">
        <ele>256.179211</ele>
        <time>2022-04-06T22:45:18.903Z</time>
      </trkpt>
      <trkpt lat="51.625372" lon="8.832286">
        <ele>259.927086</ele>
        <time>2022-04-06T22:45:43.343Z</time>
      </trkpt>
      <trkpt lat="51.623967" lon="8.831026">
        <ele>276.395043</ele>
        <time>2022-04-06T22:47:13.405Z</time>
      </trkpt>
      <trkpt lat="51.623337" lon="8.830211">
        <ele>284.123160</ele>
        <time>2022-04-06T22:48:01.747Z</time>
      </trkpt>
      <trkpt lat="51.622752" lon="8.829738">
        <ele>290.178907</ele>
        <time>2022-04-06T22:48:36.541Z</time>
      </trkpt>
      <trkpt lat="51.622683" lon="8.829578">
        <ele>291.297854</ele>
        <time>2022-04-06T22:48:41.288Z</time>
      </trkpt>
      <trkpt lat="51.622681" lon="8.829446">
        <ele>292.056248</ele>
        <time>2022-04-06T22:48:46.927Z</time>
      </trkpt>
      <trkpt lat="51.622711" lon="8.829338">
        <ele>292.735828</ele>
        <time>2022-04-06T22:48:50.188Z</time>
      </trkpt>
      <trkpt lat="51.622875" lon="8.829236">
        <ele>294.362260</ele>
        <time>2022-04-06T22:48:56.814Z</time>
      </trkpt>
      <trkpt lat="51.624616" lon="8.829338">
        <ele>306.135825</ele>
        <time>2022-04-06T22:50:10.071Z</time>
      </trkpt>
      <trkpt lat="51.626430" lon="8.830146">
        <ele>315.584395</ele>
        <time>2022-04-06T22:51:15.497Z</time>
      </trkpt>
      <trkpt lat="51.628825" lon="8.830575">
        <ele>322.463249</ele>
        <time>2022-04-06T22:52:23.689Z</time>
      </trkpt>
      <trkpt lat="51.628847" lon="8.830579">
        <ele>322.464040</ele>
        <time>2022-04-06T22:52:26.073Z</time>
      </trkpt>
      <trkpt lat="51.629227" lon="8.830641">
        <ele>322.477681</ele>
        <time>2022-04-06T22:52:30.978Z</time>
      </trkpt>
      <trkpt lat="51.629727" lon="8.830694">
        <ele>322.495577</ele>
        <time>2022-04-06T22:52:36.464Z</time>
      </trkpt>
      <trkpt lat="51.629860" lon="8.830704">
        <ele>322.500332</ele>
        <time>2022-04-06T22:52:37.740Z</time>
      </trkpt>
      <trkpt lat="51.630289" lon="8.830678">
        <ele>321.850143</ele>
        <time>2022-04-06T22:52:43.116Z</time>
      </trkpt>
      <trkpt lat="51.630619" lon="8.830544">
        <ele>320.631963</ele>
        <time>2022-04-06T22:52:46.256Z</time>
      </trkpt>
      <trkpt lat="51.631514" lon="8.829832">
        <ele>317.059002</ele>
        <time>2022-04-06T22:52:55.814Z</time>
      </trkpt>
      <trkpt lat="51.631821" lon="8.829660">
        <ele>316.037445</ele>
        <time>2022-04-06T22:52:59.267Z</time>
      </trkpt>
      <trkpt lat="51.632198" lon="8.829598">
        <ele>315.779001</ele>
        <time>2022-04-06T22:53:03.645Z</time>
      </trkpt>
      <trkpt lat="51.632874" lon="8.829785">
        <ele>315.311235</ele>
        <time>2022-04-06T22:53:12.425Z</time>
      </trkpt>
      <trkpt lat="51.633934" lon="8.830217">
        <ele>315.287050</ele>
        <time>2022-04-06T22:53:30.924Z</time>
      </trkpt>
      <trkpt lat="51.635308" lon="8.830870">
        <ele>316.843142</ele>
        <time>2022-04-06T22:53:59.530Z</time>
      </trkpt>
      <trkpt lat="51.635560" lon="8.831054">
        <ele>317.165061</ele>
        <time>2022-04-06T22:54:04.845Z</time>
      </trkpt>
      <trkpt lat="51.635801" lon="8.831297">
        <ele>317.495861</ele>
        <time>2022-04-06T22:54:10.295Z</time>
      </trkpt>
      <trkpt lat="51.636530" lon="8.832307">
        <ele>318.614562</ele>
        <time>2022-04-06T22:54:29.036Z</time>
      </trkpt>
      <trkpt lat="51.636893" lon="8.832632">
        <ele>319.054371</ele>
        <time>2022-04-06T22:54:37.080Z</time>
      </trkpt>
      <trkpt lat="51.636811" lon="8.831010">
        <ele>319.988156</ele>
        <time>2022-04-06T22:55:02.230Z</time>
      </trkpt>
      <trkpt lat="51.636627" lon="8.827361">
        <ele>320.596836</ele>
        <time>2022-04-06T22:55:52.322Z</time>
      </trkpt>
      <trkpt lat="51.632928" lon="8.815106">
        <ele>304.328768</ele>
        <time>2022-04-06T22:58:04.421Z</time>
      </trkpt>
      <trkpt lat="51.632338" lon="8.813147">
        <ele>302.821218</ele>
        <time>2022-04-06T22:58:31.965Z</time>
      </trkpt>
      <trkpt lat="51.631855" lon="8.811545">
        <ele>301.781842</ele>
        <time>2022-04-06T22:58:50.522Z</time>
      </trkpt>
      <trkpt lat="51.631550" lon="8.810477">
        <ele>299.315783</ele>
        <time>2022-04-06T22:59:01.837Z</time>
      </trkpt>
      <trkpt lat="51.631185" lon="8.808530">
        <ele>295.025007</ele>
        <time>2022-04-06T22:59:19.138Z</time>
      </trkpt>
      <trkpt lat="51.630912" lon="8.806356">
        <ele>290.473351</ele>
        <time>2022-04-06T22:59:39.099Z</time>
      </trkpt>
      <trkpt lat="51.630558" lon="8.802110">
        <ele>283.918451</ele>
        <time>2022-04-06T23:00:20.267Z</time>
      </trkpt>
      <trkpt lat="51.629815" lon="8.796359">
        <ele>274.768657</ele>
        <time>2022-04-06T23:01:14.987Z</time>
      </trkpt>
      <trkpt lat="51.629600" lon="8.794630">
        <ele>272.568793</ele>
        <time>2022-04-06T23:01:32.590Z</time>
      </trkpt>
      <trkpt lat="51.628718" lon="8.787577">
        <ele>266.883564</ele>
        <time>2022-04-06T23:02:49.418Z</time>
      </trkpt>
      <trkpt lat="51.628490" lon="8.785983">
        <ele>264.845656</ele>
        <time>2022-04-06T23:03:04.903Z</time>
      </trkpt>
      <trkpt lat="51.627445" lon="8.777792">
        <ele>247.011942</ele>
        <time>2022-04-06T23:04:19.494Z</time>
      </trkpt>
      <trkpt lat="51.627002" lon="8.774310">
        <ele>239.174170</ele>
        <time>2022-04-06T23:04:51.250Z</time>
      </trkpt>
      <trkpt lat="51.626654" lon="8.771576">
        <ele>232.132298</ele>
        <time>2022-04-06T23:05:15.368Z</time>
      </trkpt>
      <trkpt lat="51.626979" lon="8.770402">
        <ele>228.518640</ele>
        <time>2022-04-06T23:05:26.516Z</time>
      </trkpt>
      <trkpt lat="51.627510" lon="8.769222">
        <ele>224.249865</ele>
        <time>2022-04-06T23:05:38.829Z</time>
      </trkpt>
      <trkpt lat="51.628025" lon="8.768759">
        <ele>220.494573</ele>
        <time>2022-04-06T23:05:46.634Z</time>
      </trkpt>
      <trkpt lat="51.629082" lon="8.767764">
        <ele>212.668179</ele>
        <time>2022-04-06T23:06:02.340Z</time>
      </trkpt>
      <trkpt lat="51.629891" lon="8.767537">
        <ele>207.203173</ele>
        <time>2022-04-06T23:06:12.797Z</time>
      </trkpt>
      <trkpt lat="51.630063" lon="8.767569">
        <ele>206.050893</ele>
        <time>2022-04-06T23:06:15.041Z</time>
      </trkpt>
      <trkpt lat="51.630208" lon="8.767234">
        <ele>204.363775</ele>
        <time>2022-04-06T23:06:18.381Z</time>
      </trkpt>
      <trkpt lat="51.630276" lon="8.766972">
        <ele>203.190646</ele>
        <time>2022-04-06T23:06:20.694Z</time>
      </trkpt>
      <trkpt lat="51.630257" lon="8.766723">
        <ele>202.154278</ele>
        <time>2022-04-06T23:06:22.784Z</time>
      </trkpt>
      <trkpt lat="51.630194" lon="8.766665">
        <ele>201.671376</ele>
        <time>2022-04-06T23:06:23.730Z</time>
      </trkpt>
      <trkpt lat="51.629603" lon="8.766854">
        <ele>197.423303</ele>
        <time>2022-04-06T23:06:31.633Z</time>
      </trkpt>
      <trkpt lat="51.629238" lon="8.766931">
        <ele>194.818284</ele>
        <time>2022-04-06T23:06:34.944Z</time>
      </trkpt>
      <trkpt lat="51.628774" lon="8.766852">
        <ele>191.516446</ele>
        <time>2022-04-06T23:06:39.122Z</time>
      </trkpt>
      <trkpt lat="51.628212" lon="8.766545">
        <ele>186.987927</ele>
        <time>2022-04-06T23:06:44.367Z</time>
      </trkpt>
      <trkpt lat="51.627598" lon="8.766189">
        <ele>181.266133</ele>
        <time>2022-04-06T23:06:49.976Z</time>
      </trkpt>
      <trkpt lat="51.627508" lon="8.765428">
        <ele>177.049459</ele>
        <time>2022-04-06T23:06:55.847Z</time>
      </trkpt>
      <trkpt lat="51.627152" lon="8.763864">
        <ele>170.500461</ele>
        <time>2022-04-06T23:07:09.037Z</time>
      </trkpt>
      <trkpt lat="51.626996" lon="8.763133">
        <ele>168.437712</ele>
        <time>2022-04-06T23:07:15.702Z</time>
      </trkpt>
      <trkpt lat="51.627704" lon="8.762854">
        <ele>165.304489</ele>
        <time>2022-04-06T23:07:23.539Z</time>
      </trkpt>
      <trkpt lat="51.628063" lon="8.762710">
        <ele>164.892279</ele>
        <time>2022-04-06T23:07:27.992Z</time>
      </trkpt>
      <trkpt lat="51.628224" lon="8.762632">
        <ele>164.746248</ele>
        <time>2022-04-06T23:07:30.171Z</time>
      </trkpt>
      <trkpt lat="51.628244" lon="8.762621">
        <ele>164.727891</ele>
        <time>2022-04-06T23:07:30.440Z</time>
      </trkpt>
      <trkpt lat="51.628400" lon="8.762543">
        <ele>164.586013</ele>
        <time>2022-04-06T23:07:32.561Z</time>
      </trkpt>
      <trkpt lat="51.629147" lon="8.762037">
        <ele>163.882143</ele>
        <time>2022-04-06T23:07:43.172Z</time>
      </trkpt>
      <trkpt lat="51.629536" lon="8.761751">
        <ele>163.625767</ele>
        <time>2022-04-06T23:07:48.710Z</time>
      </trkpt>
      <trkpt lat="51.630157" lon="8.761302">
        <ele>163.612936</ele>
        <time>2022-04-06T23:07:57.688Z</time>
      </trkpt>
      <trkpt lat="51.630182" lon="8.761283">
        <ele>163.612414</ele>
        <time>2022-04-06T23:07:58.045Z</time>
      </trkpt>
      <trkpt lat="51.630250" lon="8.761238">
        <ele>163.611029</ele>
        <time>2022-04-06T23:07:59.038Z</time>
      </trkpt>
      <trkpt lat="51.630533" lon="8.761022">
        <ele>163.605125</ele>
        <time>2022-04-06T23:08:03.515Z</time>
      </trkpt>
      <trkpt lat="51.630584" lon="8.760986">
        <ele>163.604076</ele>
        <time>2022-04-06T23:08:04.382Z</time>
      </trkpt>
      <trkpt lat="51.630607" lon="8.760970">
        <ele>163.603603</ele>
        <time>2022-04-06T23:08:04.791Z</time>
      </trkpt>
      <trkpt lat="51.630507" lon="8.760604">
        <ele>163.598924</ele>
        <time>2022-04-06T23:08:08.956Z</time>
      </trkpt>
      <trkpt lat="51.630309" lon="8.759838">
        <ele>164.138165</ele>
        <time>2022-04-06T23:08:18.622Z</time>
      </trkpt>
      <trkpt lat="51.630142" lon="8.759592">
        <ele>164.584411</ele>
        <time>2022-04-06T23:08:23.199Z</time>
      </trkpt>
      <trkpt lat="51.629884" lon="8.759424">
        <ele>165.133182</ele>
        <time>2022-04-06T23:08:29.267Z</time>
      </trkpt>
      <trkpt lat="51.629721" lon="8.759261">
        <ele>165.511514</ele>
        <time>2022-04-06T23:08:33.700Z</time>
      </trkpt>
      <trkpt lat="51.629676" lon="8.759122">
        <ele>165.703417</ele>
        <time>2022-04-06T23:08:35.997Z</time>
      </trkpt>
      <trkpt lat="51.629641" lon="8.758840">
        <ele>166.055450</ele>
        <time>2022-04-06T23:08:40.281Z</time>
      </trkpt>
      <trkpt lat="51.629654" lon="8.758130">
        <ele>166.924949</ele>
        <time>2022-04-06T23:08:51.280Z</time>
      </trkpt>
      <trkpt lat="51.629604" lon="8.757849">
        <ele>167.451541</ele>
        <time>2022-04-06T23:08:56.001Z</time>
      </trkpt>
      <trkpt lat="51.629458" lon="8.756998">
        <ele>169.822162</ele>
        <time>2022-04-06T23:09:11.003Z</time>
      </trkpt>
      <trkpt lat="51.629489" lon="8.756438">
        <ele>171.331745</ele>
        <time>2022-04-06T23:09:22.450Z</time>
      </trkpt>
      <trkpt lat="51.629590" lon="8.755241">
        <ele>174.575276</ele>
        <time>2022-04-06T23:09:49.243Z</time>
      </trkpt>
      <trkpt lat="51.629554" lon="8.754735">
        <ele>176.244036</ele>
        <time>2022-04-06T23:10:00.762Z</time>
      </trkpt>
      <trkpt lat="51.629478" lon="8.754488">
        <ele>177.202553</ele>
        <time>2022-04-06T23:10:07.931Z</time>
      </trkpt>
      <trkpt lat="51.629489" lon="8.754209">
        <ele>178.174571</ele>
        <time>2022-04-06T23:10:14.512Z</time>
      </trkpt>
      <trkpt lat="51.629447" lon="8.753895">
        <ele>179.291386</ele>
        <time>2022-04-06T23:10:23.688Z</time>
      </trkpt>
      <trkpt lat="51.629242" lon="8.752591">
        <ele>183.968460</ele>
        <time>2022-04-06T23:11:00.170Z</time>
      </trkpt>
      <trkpt lat="51.628959" lon="8.751853">
        <ele>186.485116</ele>
        <time>2022-04-06T23:11:22.672Z</time>
      </trkpt>
      <trkpt lat="51.628678" lon="8.751304">
        <ele>188.337780</ele>
        <time>2022-04-06T23:11:38.631Z</time>
      </trkpt>
      <trkpt lat="51.628784" lon="8.751156">
        <ele>188.926135</ele>
        <time>2022-04-06T23:11:44.114Z</time>
      </trkpt>
      <trkpt lat="51.629111" lon="8.751228">
        <ele>190.310446</ele>
        <time>2022-04-06T23:11:55.367Z</time>
      </trkpt>
      <trkpt lat="51.629290" lon="8.751356">
        <ele>191.131880</ele>
        <time>2022-04-06T23:12:01.517Z</time>
      </trkpt>
      <trkpt lat="51.629495" lon="8.751634">
        <ele>192.255818</ele>
        <time>2022-04-06T23:12:10.700Z</time>
      </trkpt>
      <trkpt lat="51.629788" lon="8.751838">
        <ele>193.730081</ele>
        <time>2022-04-06T23:12:22.484Z</time>
      </trkpt>
      <trkpt lat="51.630093" lon="8.752318">
        <ele>195.748211</ele>
        <time>2022-04-06T23:12:37.773Z</time>
      </trkpt>
      <trkpt lat="51.630677" lon="8.752916">
        <ele>199.023479</ele>
        <time>2022-04-06T23:13:02.986Z</time>
      </trkpt>
      <trkpt lat="51.631001" lon="8.753087">
        <ele>200.637216</ele>
        <time>2022-04-06T23:13:18.517Z</time>
      </trkpt>
      <trkpt lat="51.631620" lon="8.753414">
        <ele>204.644581</ele>
        <time>2022-04-06T23:13:51.036Z</time>
      </trkpt>
      <trkpt lat="51.632148" lon="8.753592">
        <ele>208.082413</ele>
        <time>2022-04-06T23:14:17.027Z</time>
      </trkpt>
      <trkpt lat="51.632251" lon="8.753278">
        <ele>209.487308</ele>
        <time>2022-04-06T23:14:28.273Z</time>
      </trkpt>
      <trkpt lat="51.632422" lon="8.752800">
        <ele>211.669729</ele>
        <time>2022-04-06T23:14:43.643Z</time>
      </trkpt>
      <trkpt lat="51.633393" lon="8.751461">
        <ele>214.437002</ele>
        <time>2022-04-06T23:15:28.446Z</time>
      </trkpt>
      <trkpt lat="51.634428" lon="8.750021">
        <ele>212.209189</ele>
        <time>2022-04-06T23:15:49.415Z</time>
      </trkpt>
      <trkpt lat="51.635143" lon="8.747946">
        <ele>204.225555</ele>
        <time>2022-04-06T23:16:08.619Z</time>
      </trkpt>
      <trkpt lat="51.635484" lon="8.747201">
        <ele>199.883428</ele>
        <time>2022-04-06T23:16:15.961Z</time>
      </trkpt>
      <trkpt lat="51.635755" lon="8.746600">
        <ele>196.398851</ele>
        <time>2022-04-06T23:16:20.060Z</time>
      </trkpt>
      <trkpt lat="51.636310" lon="8.744905">
        <ele>185.612039</ele>
        <time>2022-04-06T23:16:30.385Z</time>
      </trkpt>
      <trkpt lat="51.636733" lon="8.744088">
        <ele>179.164972</ele>
        <time>2022-04-06T23:16:36.028Z</time>
      </trkpt>
      <trkpt lat="51.637248" lon="8.743332">
        <ele>174.140409</ele>
        <time>2022-04-06T23:16:42.036Z</time>
      </trkpt>
      <trkpt lat="51.637435" lon="8.743138">
        <ele>173.027776</ele>
        <time>2022-04-06T23:16:43.964Z</time>
      </trkpt>
      <trkpt lat="51.637721" lon="8.743054">
        <ele>171.573447</ele>
        <time>2022-04-06T23:16:46.560Z</time>
      </trkpt>
      <trkpt lat="51.637781" lon="8.742710">
        <ele>170.464024</ele>
        <time>2022-04-06T23:16:48.630Z</time>
      </trkpt>
      <trkpt lat="51.638164" lon="8.741280">
        <ele>167.734179</ele>
        <time>2022-04-06T23:17:02.190Z</time>
      </trkpt>
      <trkpt lat="51.638343" lon="8.740651">
        <ele>168.859764</ele>
        <time>2022-04-06T23:17:14.241Z</time>
      </trkpt>
      <trkpt lat="51.638377" lon="8.740533">
        <ele>169.071383</ele>
        <time>2022-04-06T23:17:16.732Z</time>
      </trkpt>
      <trkpt lat="51.638680" lon="8.739805">
        <ele>170.497201</ele>
        <time>2022-04-06T23:17:34.612Z</time>
      </trkpt>
      <trkpt lat="51.638990" lon="8.739296">
        <ele>171.657220</ele>
        <time>2022-04-06T23:17:45.996Z</time>
      </trkpt>
      <trkpt lat="51.639441" lon="8.738784">
        <ele>171.699380</ele>
        <time>2022-04-06T23:17:59.307Z</time>
      </trkpt>
      <trkpt lat="51.639824" lon="8.738504">
        <ele>171.679383</ele>
        <time>2022-04-06T23:18:06.441Z</time>
      </trkpt>
      <trkpt lat="51.640310" lon="8.738073">
        <ele>171.653006</ele>
        <time>2022-04-06T23:18:12.516Z</time>
      </trkpt>
      <trkpt lat="51.641548" lon="8.736505">
        <ele>168.951620</ele>
        <time>2022-04-06T23:18:29.609Z</time>
      </trkpt>
      <trkpt lat="51.642876" lon="8.734962">
        <ele>166.187004</ele>
        <time>2022-04-06T23:18:47.535Z</time>
      </trkpt>
      <trkpt lat="51.644521" lon="8.733223">
        <ele>164.751131</ele>
        <time>2022-04-06T23:19:12.856Z</time>
      </trkpt>
      <trkpt lat="51.645080" lon="8.732574">
        <ele>164.526221</ele>
        <time>2022-04-06T23:19:24.681Z</time>
      </trkpt>
      <trkpt lat="51.645580" lon="8.731715">
        <ele>164.281071</ele>
        <time>2022-04-06T23:19:35.756Z</time>
      </trkpt>
      <trkpt lat="51.645869" lon="8.730779">
        <ele>164.063460</ele>
        <time>2022-04-06T23:19:43.970Z</time>
      </trkpt>
      <trkpt lat="51.646095" lon="8.729114">
        <ele>163.678344</ele>
        <time>2022-04-06T23:19:56.668Z</time>
      </trkpt>
      <trkpt lat="51.646172" lon="8.728227">
        <ele>163.471181</ele>
        <time>2022-04-06T23:20:04.828Z</time>
      </trkpt>
      <trkpt lat="51.646194" lon="8.728034">
        <ele>163.425793</ele>
        <time>2022-04-06T23:20:06.666Z</time>
      </trkpt>
      <trkpt lat="51.646287" lon="8.726988">
        <ele>163.068929</ele>
        <time>2022-04-06T23:20:18.513Z</time>
      </trkpt>
      <trkpt lat="51.646511" lon="8.725180">
        <ele>162.272916</ele>
        <time>2022-04-06T23:20:34.825Z</time>
      </trkpt>
      <trkpt lat="51.646633" lon="8.724660">
        <ele>161.877408</ele>
        <time>2022-04-06T23:20:38.490Z</time>
      </trkpt>
      <trkpt lat="51.646914" lon="8.723896">
        <ele>159.265739</ele>
        <time>2022-04-06T23:20:43.851Z</time>
      </trkpt>
      <trkpt lat="51.647371" lon="8.723167">
        <ele>156.218442</ele>
        <time>2022-04-06T23:20:49.815Z</time>
      </trkpt>
      <trkpt lat="51.647778" lon="8.722764">
        <ele>153.954671</ele>
        <time>2022-04-06T23:20:54.213Z</time>
      </trkpt>
      <trkpt lat="51.647942" lon="8.722672">
        <ele>153.209481</ele>
        <time>2022-04-06T23:20:55.801Z</time>
      </trkpt>
      <trkpt lat="51.648308" lon="8.722468">
        <ele>151.727416</ele>
        <time>2022-04-06T23:20:59.420Z</time>
      </trkpt>
      <trkpt lat="51.648904" lon="8.722351">
        <ele>149.429695</ele>
        <time>2022-04-06T23:21:05.290Z</time>
      </trkpt>
      <trkpt lat="51.649633" lon="8.722521">
        <ele>146.632140</ele>
        <time>2022-04-06T23:21:12.965Z</time>
      </trkpt>
      <trkpt lat="51.651536" lon="8.723522">
        <ele>143.008121</ele>
        <time>2022-04-06T23:21:35.415Z</time>
      </trkpt>
      <trkpt lat="51.651880" lon="8.723792">
        <ele>142.485999</ele>
        <time>2022-04-06T23:21:39.846Z</time>
      </trkpt>
      <trkpt lat="51.652204" lon="8.724190">
        <ele>141.930100</ele>
        <time>2022-04-06T23:21:44.555Z</time>
      </trkpt>
      <trkpt lat="51.652807" lon="8.724872">
        <ele>140.924874</ele>
        <time>2022-04-06T23:21:53.317Z</time>
      </trkpt>
      <trkpt lat="51.653511" lon="8.725390">
        <ele>140.356384</ele>
        <time>2022-04-06T23:22:02.989Z</time>
      </trkpt>
      <trkpt lat="51.653873" lon="8.725396">
        <ele>140.108922</ele>
        <time>2022-04-06T23:22:07.782Z</time>
      </trkpt>
      <trkpt lat="51.654462" lon="8.725235">
        <ele>139.700556</ele>
        <time>2022-04-06T23:22:15.658Z</time>
      </trkpt>
      <trkpt lat="51.654933" lon="8.724975">
        <ele>139.360004</ele>
        <time>2022-04-06T23:22:22.170Z</time>
      </trkpt>
      <trkpt lat="51.655446" lon="8.724519">
        <ele>138.959180</ele>
        <time>2022-04-06T23:22:29.940Z</time>
      </trkpt>
      <trkpt lat="51.656262" lon="8.723477">
        <ele>138.154484</ele>
        <time>2022-04-06T23:22:43.090Z</time>
      </trkpt>
      <trkpt lat="51.656321" lon="8.723547">
        <ele>138.070965</ele>
        <time>2022-04-06T23:22:43.975Z</time>
      </trkpt>
      <trkpt lat="51.656426" lon="8.723512">
        <ele>137.948726</ele>
        <time>2022-04-06T23:22:45.242Z</time>
      </trkpt>
      <trkpt lat="51.656462" lon="8.723421">
        <ele>137.872392</ele>
        <time>2022-04-06T23:22:46.020Z</time>
      </trkpt>
      <trkpt lat="51.656443" lon="8.723266">
        <ele>137.760647</ele>
        <time>2022-04-06T23:22:47.168Z</time>
      </trkpt>
      <trkpt lat="51.656523" lon="8.723181">
        <ele>137.651411</ele>
        <time>2022-04-06T23:22:48.300Z</time>
      </trkpt>
      <trkpt lat="51.656795" lon="8.722899">
        <ele>137.282712</ele>
        <time>2022-04-06T23:22:52.041Z</time>
      </trkpt>
      <trkpt lat="51.657446" lon="8.722336">
        <ele>136.440466</ele>
        <time>2022-04-06T23:23:00.736Z</time>
      </trkpt>
      <trkpt lat="51.658507" lon="8.721529">
        <ele>136.335081</ele>
        <time>2022-04-06T23:23:15.496Z</time>
      </trkpt>
      <trkpt lat="51.658634" lon="8.721433">
        <ele>136.335081</ele>
        <time>2022-04-06T23:23:17.264Z</time>
      </trkpt>
      <trkpt lat="51.658934" lon="8.721142">
        <ele>136.335081</ele>
        <time>2022-04-06T23:23:22.125Z</time>
      </trkpt>
      <trkpt lat="51.659098" lon="8.720961">
        <ele>136.335081</ele>
        <time>2022-04-06T23:23:25.163Z</time>
      </trkpt>
      <trkpt lat="51.659155" lon="8.720899">
        <ele>136.335081</ele>
        <time>2022-04-06T23:23:26.088Z</time>
      </trkpt>
      <trkpt lat="51.659146" lon="8.720809">
        <ele>136.335081</ele>
        <time>2022-04-06T23:23:32.247Z</time>
      </trkpt>
      <trkpt lat="51.659117" lon="8.720495">
        <ele>136.335081</ele>
        <time>2022-04-06T23:23:54.225Z</time>
      </trkpt>
    </trkseg>
  </trk>
</gpx>